<?xml version="1.0" encoding="UTF-8" standalone="no" ?>
<gpx xmlns="http://www.topografix.com/GPX/1/1" xmlns:xsi="http://www.w3.org/2001/XMLSchema-instance" xsi:schemaLocation="http://www.topografix.com/GPX/1/1 http://www.topografix.com/GPX/1/1/gpx.xsd" version="1.1" creator="VisuGPX - https://www.visugpx.com">
  <metadata>
    <name>GT VTT de l\'Ardèche</name>
    <desc><![CDATA[200kms en 4j
niveau facile
parfois de bonnes descentes
paysages     ]]></desc>
  </metadata>
  <trk>
    <name><![CDATA[13-JUIL-14 16:14:51]]></name>
    <trkseg>
      <trkpt lat="44.59978" lon="4.05027">
        <ele>1202</ele>
        <time>2014-07-12T17:15:09Z</time>
      </trkpt>
      <trkpt lat="44.59978" lon="4.05028">
        <ele>1202</ele>
        <time>2014-07-12T17:15:25Z</time>
      </trkpt>
      <trkpt lat="44.59978" lon="4.05035">
        <ele>1202</ele>
        <time>2014-07-13T07:23:23Z</time>
      </trkpt>
      <trkpt lat="44.59978" lon="4.05033">
        <ele>1202</ele>
        <time>2014-07-13T07:24:37Z</time>
      </trkpt>
      <trkpt lat="44.59985" lon="4.05033">
        <ele>1202</ele>
        <time>2014-07-13T07:26:03Z</time>
      </trkpt>
      <trkpt lat="44.59981" lon="4.05018">
        <ele>1202</ele>
        <time>2014-07-13T07:26:30Z</time>
      </trkpt>
      <trkpt lat="44.59981" lon="4.05018">
        <ele>1202</ele>
        <time>2014-07-13T07:26:41Z</time>
      </trkpt>
      <trkpt lat="44.59996" lon="4.04992">
        <ele>1202</ele>
        <time>2014-07-13T07:27:10Z</time>
      </trkpt>
      <trkpt lat="44.59991" lon="4.04994">
        <ele>1202</ele>
        <time>2014-07-13T07:27:43Z</time>
      </trkpt>
      <trkpt lat="44.59987" lon="4.04995">
        <ele>1201</ele>
        <time>2014-07-13T07:29:34Z</time>
      </trkpt>
      <trkpt lat="44.59998" lon="4.04987">
        <ele>1202</ele>
        <time>2014-07-13T07:31:36Z</time>
      </trkpt>
      <trkpt lat="44.59999" lon="4.04985">
        <ele>1201</ele>
        <time>2014-07-13T07:34:05Z</time>
      </trkpt>
      <trkpt lat="44.59994" lon="4.04994">
        <ele>1202</ele>
        <time>2014-07-13T07:36:24Z</time>
      </trkpt>
      <trkpt lat="44.59996" lon="4.04992">
        <ele>1202</ele>
        <time>2014-07-13T07:37:36Z</time>
      </trkpt>
      <trkpt lat="44.59971" lon="4.05004">
        <ele>1201</ele>
        <time>2014-07-13T07:37:49Z</time>
      </trkpt>
      <trkpt lat="44.59933" lon="4.05005">
        <ele>1196</ele>
        <time>2014-07-13T07:37:59Z</time>
      </trkpt>
      <trkpt lat="44.59899" lon="4.05012">
        <ele>1189</ele>
        <time>2014-07-13T07:38:08Z</time>
      </trkpt>
      <trkpt lat="44.59879" lon="4.05018">
        <ele>1188</ele>
        <time>2014-07-13T07:38:13Z</time>
      </trkpt>
      <trkpt lat="44.59819" lon="4.05011">
        <ele>1181</ele>
        <time>2014-07-13T07:38:24Z</time>
      </trkpt>
      <trkpt lat="44.59802" lon="4.05003">
        <ele>1179</ele>
        <time>2014-07-13T07:38:28Z</time>
      </trkpt>
      <trkpt lat="44.59788" lon="4.04992">
        <ele>1177</ele>
        <time>2014-07-13T07:38:39Z</time>
      </trkpt>
      <trkpt lat="44.59774" lon="4.05057">
        <ele>1176</ele>
        <time>2014-07-13T07:39:03Z</time>
      </trkpt>
      <trkpt lat="44.59749" lon="4.05125">
        <ele>1165</ele>
        <time>2014-07-13T07:39:19Z</time>
      </trkpt>
      <trkpt lat="44.59746" lon="4.05139">
        <ele>1165</ele>
        <time>2014-07-13T07:39:38Z</time>
      </trkpt>
      <trkpt lat="44.59734" lon="4.05189">
        <ele>1158</ele>
        <time>2014-07-13T07:39:47Z</time>
      </trkpt>
      <trkpt lat="44.59692" lon="4.05257">
        <ele>1148</ele>
        <time>2014-07-13T07:40:01Z</time>
      </trkpt>
      <trkpt lat="44.59674" lon="4.053">
        <ele>1147</ele>
        <time>2014-07-13T07:40:10Z</time>
      </trkpt>
      <trkpt lat="44.59655" lon="4.0534">
        <ele>1145</ele>
        <time>2014-07-13T07:40:15Z</time>
      </trkpt>
      <trkpt lat="44.5964" lon="4.05366">
        <ele>1142</ele>
        <time>2014-07-13T07:40:18Z</time>
      </trkpt>
      <trkpt lat="44.59623" lon="4.0541">
        <ele>1140</ele>
        <time>2014-07-13T07:40:23Z</time>
      </trkpt>
      <trkpt lat="44.59609" lon="4.05463">
        <ele>1138</ele>
        <time>2014-07-13T07:40:33Z</time>
      </trkpt>
      <trkpt lat="44.59573" lon="4.05582">
        <ele>1137</ele>
        <time>2014-07-13T07:40:57Z</time>
      </trkpt>
      <trkpt lat="44.59542" lon="4.05681">
        <ele>1142</ele>
        <time>2014-07-13T07:41:23Z</time>
      </trkpt>
      <trkpt lat="44.59535" lon="4.0571">
        <ele>1143</ele>
        <time>2014-07-13T07:41:33Z</time>
      </trkpt>
      <trkpt lat="44.59508" lon="4.05787">
        <ele>1146</ele>
        <time>2014-07-13T07:42:05Z</time>
      </trkpt>
      <trkpt lat="44.59485" lon="4.0586">
        <ele>1159</ele>
        <time>2014-07-13T07:42:35Z</time>
      </trkpt>
      <trkpt lat="44.59469" lon="4.05891">
        <ele>1159</ele>
        <time>2014-07-13T07:42:51Z</time>
      </trkpt>
      <trkpt lat="44.59434" lon="4.05936">
        <ele>1161</ele>
        <time>2014-07-13T07:43:18Z</time>
      </trkpt>
      <trkpt lat="44.59403" lon="4.05985">
        <ele>1168</ele>
        <time>2014-07-13T07:43:46Z</time>
      </trkpt>
      <trkpt lat="44.59372" lon="4.06036">
        <ele>1172</ele>
        <time>2014-07-13T07:44:09Z</time>
      </trkpt>
      <trkpt lat="44.59316" lon="4.06086">
        <ele>1186</ele>
        <time>2014-07-13T07:44:48Z</time>
      </trkpt>
      <trkpt lat="44.59275" lon="4.06141">
        <ele>1190</ele>
        <time>2014-07-13T07:45:17Z</time>
      </trkpt>
      <trkpt lat="44.59249" lon="4.06155">
        <ele>1193</ele>
        <time>2014-07-13T07:45:33Z</time>
      </trkpt>
      <trkpt lat="44.59209" lon="4.06177">
        <ele>1202</ele>
        <time>2014-07-13T07:45:57Z</time>
      </trkpt>
      <trkpt lat="44.5916" lon="4.06201">
        <ele>1203</ele>
        <time>2014-07-13T07:46:25Z</time>
      </trkpt>
      <trkpt lat="44.59109" lon="4.06233">
        <ele>1206</ele>
        <time>2014-07-13T07:46:59Z</time>
      </trkpt>
      <trkpt lat="44.5909" lon="4.06246">
        <ele>1208</ele>
        <time>2014-07-13T07:47:10Z</time>
      </trkpt>
      <trkpt lat="44.59066" lon="4.06274">
        <ele>1216</ele>
        <time>2014-07-13T07:47:24Z</time>
      </trkpt>
      <trkpt lat="44.59041" lon="4.06285">
        <ele>1217</ele>
        <time>2014-07-13T07:47:37Z</time>
      </trkpt>
      <trkpt lat="44.59024" lon="4.06292">
        <ele>1217</ele>
        <time>2014-07-13T07:47:44Z</time>
      </trkpt>
      <trkpt lat="44.59023" lon="4.06293">
        <ele>1217</ele>
        <time>2014-07-13T07:47:45Z</time>
      </trkpt>
      <trkpt lat="44.58983" lon="4.06337">
        <ele>1217</ele>
        <time>2014-07-13T07:48:17Z</time>
      </trkpt>
      <trkpt lat="44.58978" lon="4.06347">
        <ele>1217</ele>
        <time>2014-07-13T07:49:00Z</time>
      </trkpt>
      <trkpt lat="44.58973" lon="4.0638">
        <ele>1215</ele>
        <time>2014-07-13T07:49:08Z</time>
      </trkpt>
      <trkpt lat="44.58973" lon="4.06424">
        <ele>1213</ele>
        <time>2014-07-13T07:49:13Z</time>
      </trkpt>
      <trkpt lat="44.58962" lon="4.06492">
        <ele>1211</ele>
        <time>2014-07-13T07:49:20Z</time>
      </trkpt>
      <trkpt lat="44.58956" lon="4.06505">
        <ele>1211</ele>
        <time>2014-07-13T07:49:22Z</time>
      </trkpt>
      <trkpt lat="44.58936" lon="4.06548">
        <ele>1210</ele>
        <time>2014-07-13T07:49:29Z</time>
      </trkpt>
      <trkpt lat="44.58905" lon="4.06564">
        <ele>1199</ele>
        <time>2014-07-13T07:49:45Z</time>
      </trkpt>
      <trkpt lat="44.58895" lon="4.06517">
        <ele>1196</ele>
        <time>2014-07-13T07:49:52Z</time>
      </trkpt>
      <trkpt lat="44.58867" lon="4.06542">
        <ele>1194</ele>
        <time>2014-07-13T07:49:57Z</time>
      </trkpt>
      <trkpt lat="44.58835" lon="4.06562">
        <ele>1192</ele>
        <time>2014-07-13T07:50:01Z</time>
      </trkpt>
      <trkpt lat="44.58807" lon="4.06578">
        <ele>1184</ele>
        <time>2014-07-13T07:50:04Z</time>
      </trkpt>
      <trkpt lat="44.58799" lon="4.06583">
        <ele>1182</ele>
        <time>2014-07-13T07:50:05Z</time>
      </trkpt>
      <trkpt lat="44.58754" lon="4.06597">
        <ele>1178</ele>
        <time>2014-07-13T07:50:10Z</time>
      </trkpt>
      <trkpt lat="44.58708" lon="4.06589">
        <ele>1172</ele>
        <time>2014-07-13T07:50:15Z</time>
      </trkpt>
      <trkpt lat="44.58648" lon="4.06522">
        <ele>1167</ele>
        <time>2014-07-13T07:50:24Z</time>
      </trkpt>
      <trkpt lat="44.58617" lon="4.06493">
        <ele>1163</ele>
        <time>2014-07-13T07:50:28Z</time>
      </trkpt>
      <trkpt lat="44.5859" lon="4.06478">
        <ele>1162</ele>
        <time>2014-07-13T07:50:31Z</time>
      </trkpt>
      <trkpt lat="44.58543" lon="4.06473">
        <ele>1151</ele>
        <time>2014-07-13T07:50:36Z</time>
      </trkpt>
      <trkpt lat="44.58502" lon="4.06538">
        <ele>1149</ele>
        <time>2014-07-13T07:50:45Z</time>
      </trkpt>
      <trkpt lat="44.58535" lon="4.06615">
        <ele>1146</ele>
        <time>2014-07-13T07:50:53Z</time>
      </trkpt>
      <trkpt lat="44.58552" lon="4.06646">
        <ele>1145</ele>
        <time>2014-07-13T07:50:56Z</time>
      </trkpt>
      <trkpt lat="44.586" lon="4.06738">
        <ele>1146</ele>
        <time>2014-07-13T07:51:05Z</time>
      </trkpt>
      <trkpt lat="44.58611" lon="4.06756">
        <ele>1144</ele>
        <time>2014-07-13T07:51:07Z</time>
      </trkpt>
      <trkpt lat="44.58643" lon="4.06793">
        <ele>1145</ele>
        <time>2014-07-13T07:51:13Z</time>
      </trkpt>
      <trkpt lat="44.58632" lon="4.06826">
        <ele>1144</ele>
        <time>2014-07-13T07:51:21Z</time>
      </trkpt>
      <trkpt lat="44.58602" lon="4.06813">
        <ele>1144</ele>
        <time>2014-07-13T07:51:36Z</time>
      </trkpt>
      <trkpt lat="44.58564" lon="4.06799">
        <ele>1147</ele>
        <time>2014-07-13T07:51:53Z</time>
      </trkpt>
      <trkpt lat="44.58541" lon="4.06789">
        <ele>1148</ele>
        <time>2014-07-13T07:52:06Z</time>
      </trkpt>
      <trkpt lat="44.58475" lon="4.06767">
        <ele>1156</ele>
        <time>2014-07-13T07:52:37Z</time>
      </trkpt>
      <trkpt lat="44.58418" lon="4.06747">
        <ele>1156</ele>
        <time>2014-07-13T07:53:03Z</time>
      </trkpt>
      <trkpt lat="44.58354" lon="4.06739">
        <ele>1160</ele>
        <time>2014-07-13T07:53:35Z</time>
      </trkpt>
      <trkpt lat="44.58334" lon="4.06742">
        <ele>1163</ele>
        <time>2014-07-13T07:53:46Z</time>
      </trkpt>
      <trkpt lat="44.5828" lon="4.06706">
        <ele>1171</ele>
        <time>2014-07-13T07:54:13Z</time>
      </trkpt>
      <trkpt lat="44.58272" lon="4.06706">
        <ele>1172</ele>
        <time>2014-07-13T07:54:18Z</time>
      </trkpt>
      <trkpt lat="44.58262" lon="4.06708">
        <ele>1173</ele>
        <time>2014-07-13T07:54:23Z</time>
      </trkpt>
      <trkpt lat="44.58252" lon="4.06696">
        <ele>1173</ele>
        <time>2014-07-13T07:54:42Z</time>
      </trkpt>
      <trkpt lat="44.58254" lon="4.06697">
        <ele>1173</ele>
        <time>2014-07-13T07:56:04Z</time>
      </trkpt>
      <trkpt lat="44.58247" lon="4.0669">
        <ele>1183</ele>
        <time>2014-07-13T07:58:16Z</time>
      </trkpt>
      <trkpt lat="44.58219" lon="4.06619">
        <ele>1180</ele>
        <time>2014-07-13T07:58:39Z</time>
      </trkpt>
      <trkpt lat="44.58196" lon="4.06542">
        <ele>1178</ele>
        <time>2014-07-13T07:59:05Z</time>
      </trkpt>
      <trkpt lat="44.58164" lon="4.06475">
        <ele>1190</ele>
        <time>2014-07-13T07:59:30Z</time>
      </trkpt>
      <trkpt lat="44.58131" lon="4.06442">
        <ele>1192</ele>
        <time>2014-07-13T07:59:49Z</time>
      </trkpt>
      <trkpt lat="44.58086" lon="4.06417">
        <ele>1197</ele>
        <time>2014-07-13T08:00:14Z</time>
      </trkpt>
      <trkpt lat="44.58057" lon="4.06411">
        <ele>1195</ele>
        <time>2014-07-13T08:00:29Z</time>
      </trkpt>
      <trkpt lat="44.58027" lon="4.0642">
        <ele>1199</ele>
        <time>2014-07-13T08:00:45Z</time>
      </trkpt>
      <trkpt lat="44.57997" lon="4.06444">
        <ele>1197</ele>
        <time>2014-07-13T08:01:01Z</time>
      </trkpt>
      <trkpt lat="44.57891" lon="4.06548">
        <ele>1200</ele>
        <time>2014-07-13T08:01:38Z</time>
      </trkpt>
      <trkpt lat="44.57881" lon="4.06553">
        <ele>1199</ele>
        <time>2014-07-13T08:01:41Z</time>
      </trkpt>
      <trkpt lat="44.57884" lon="4.06541">
        <ele>1199</ele>
        <time>2014-07-13T08:01:46Z</time>
      </trkpt>
      <trkpt lat="44.57911" lon="4.06498">
        <ele>1194</ele>
        <time>2014-07-13T08:01:59Z</time>
      </trkpt>
      <trkpt lat="44.57917" lon="4.06487">
        <ele>1196</ele>
        <time>2014-07-13T08:02:01Z</time>
      </trkpt>
      <trkpt lat="44.57947" lon="4.06424">
        <ele>1191</ele>
        <time>2014-07-13T08:02:09Z</time>
      </trkpt>
      <trkpt lat="44.57962" lon="4.06372">
        <ele>1182</ele>
        <time>2014-07-13T08:02:14Z</time>
      </trkpt>
      <trkpt lat="44.57977" lon="4.06323">
        <ele>1175</ele>
        <time>2014-07-13T08:02:18Z</time>
      </trkpt>
      <trkpt lat="44.58003" lon="4.06268">
        <ele>1178</ele>
        <time>2014-07-13T08:02:23Z</time>
      </trkpt>
      <trkpt lat="44.58034" lon="4.06219">
        <ele>1169</ele>
        <time>2014-07-13T08:02:28Z</time>
      </trkpt>
      <trkpt lat="44.58055" lon="4.06199">
        <ele>1168</ele>
        <time>2014-07-13T08:02:31Z</time>
      </trkpt>
      <trkpt lat="44.58093" lon="4.06167">
        <ele>1162</ele>
        <time>2014-07-13T08:02:36Z</time>
      </trkpt>
      <trkpt lat="44.58125" lon="4.06151">
        <ele>1157</ele>
        <time>2014-07-13T08:02:40Z</time>
      </trkpt>
      <trkpt lat="44.58166" lon="4.06155">
        <ele>1160</ele>
        <time>2014-07-13T08:02:45Z</time>
      </trkpt>
      <trkpt lat="44.58224" lon="4.06197">
        <ele>1159</ele>
        <time>2014-07-13T08:02:54Z</time>
      </trkpt>
      <trkpt lat="44.58232" lon="4.06203">
        <ele>1159</ele>
        <time>2014-07-13T08:02:55Z</time>
      </trkpt>
      <trkpt lat="44.58318" lon="4.06303">
        <ele>1150</ele>
        <time>2014-07-13T08:03:08Z</time>
      </trkpt>
      <trkpt lat="44.58325" lon="4.06419">
        <ele>1145</ele>
        <time>2014-07-13T08:03:17Z</time>
      </trkpt>
      <trkpt lat="44.58325" lon="4.0643">
        <ele>1147</ele>
        <time>2014-07-13T08:03:18Z</time>
      </trkpt>
      <trkpt lat="44.58339" lon="4.06441">
        <ele>1136</ele>
        <time>2014-07-13T08:03:24Z</time>
      </trkpt>
      <trkpt lat="44.58345" lon="4.064">
        <ele>1136</ele>
        <time>2014-07-13T08:03:30Z</time>
      </trkpt>
      <trkpt lat="44.58361" lon="4.06316">
        <ele>1134</ele>
        <time>2014-07-13T08:03:40Z</time>
      </trkpt>
      <trkpt lat="44.58366" lon="4.0627">
        <ele>1133</ele>
        <time>2014-07-13T08:03:45Z</time>
      </trkpt>
      <trkpt lat="44.5837" lon="4.06231">
        <ele>1129</ele>
        <time>2014-07-13T08:03:49Z</time>
      </trkpt>
      <trkpt lat="44.58333" lon="4.06161">
        <ele>1127</ele>
        <time>2014-07-13T08:03:58Z</time>
      </trkpt>
      <trkpt lat="44.58286" lon="4.06123">
        <ele>1127</ele>
        <time>2014-07-13T08:04:05Z</time>
      </trkpt>
      <trkpt lat="44.58248" lon="4.06063">
        <ele>1123</ele>
        <time>2014-07-13T08:04:13Z</time>
      </trkpt>
      <trkpt lat="44.58233" lon="4.06031">
        <ele>1121</ele>
        <time>2014-07-13T08:04:16Z</time>
      </trkpt>
      <trkpt lat="44.58209" lon="4.05989">
        <ele>1112</ele>
        <time>2014-07-13T08:04:20Z</time>
      </trkpt>
      <trkpt lat="44.58195" lon="4.05967">
        <ele>1113</ele>
        <time>2014-07-13T08:04:22Z</time>
      </trkpt>
      <trkpt lat="44.58173" lon="4.0592">
        <ele>1110</ele>
        <time>2014-07-13T08:04:26Z</time>
      </trkpt>
      <trkpt lat="44.58168" lon="4.05909">
        <ele>1107</ele>
        <time>2014-07-13T08:04:27Z</time>
      </trkpt>
      <trkpt lat="44.58143" lon="4.05873">
        <ele>1098</ele>
        <time>2014-07-13T08:04:31Z</time>
      </trkpt>
      <trkpt lat="44.58096" lon="4.05871">
        <ele>1097</ele>
        <time>2014-07-13T08:04:38Z</time>
      </trkpt>
      <trkpt lat="44.58067" lon="4.05904">
        <ele>1101</ele>
        <time>2014-07-13T08:04:43Z</time>
      </trkpt>
      <trkpt lat="44.58052" lon="4.05898">
        <ele>1100</ele>
        <time>2014-07-13T08:04:50Z</time>
      </trkpt>
      <trkpt lat="44.58054" lon="4.05896">
        <ele>1100</ele>
        <time>2014-07-13T08:04:51Z</time>
      </trkpt>
      <trkpt lat="44.5809" lon="4.05831">
        <ele>1089</ele>
        <time>2014-07-13T08:05:06Z</time>
      </trkpt>
      <trkpt lat="44.58144" lon="4.05807">
        <ele>1089</ele>
        <time>2014-07-13T08:05:17Z</time>
      </trkpt>
      <trkpt lat="44.58135" lon="4.05792">
        <ele>1088</ele>
        <time>2014-07-13T08:05:23Z</time>
      </trkpt>
      <trkpt lat="44.58102" lon="4.05771">
        <ele>1087</ele>
        <time>2014-07-13T08:05:33Z</time>
      </trkpt>
      <trkpt lat="44.58098" lon="4.05758">
        <ele>1086</ele>
        <time>2014-07-13T08:05:35Z</time>
      </trkpt>
      <trkpt lat="44.58097" lon="4.05737">
        <ele>1085</ele>
        <time>2014-07-13T08:05:38Z</time>
      </trkpt>
      <trkpt lat="44.58098" lon="4.0573">
        <ele>1085</ele>
        <time>2014-07-13T08:05:39Z</time>
      </trkpt>
      <trkpt lat="44.58117" lon="4.05696">
        <ele>1086</ele>
        <time>2014-07-13T08:05:45Z</time>
      </trkpt>
      <trkpt lat="44.58121" lon="4.05693">
        <ele>1086</ele>
        <time>2014-07-13T08:05:46Z</time>
      </trkpt>
      <trkpt lat="44.58134" lon="4.05668">
        <ele>1085</ele>
        <time>2014-07-13T08:05:51Z</time>
      </trkpt>
      <trkpt lat="44.58153" lon="4.05642">
        <ele>1089</ele>
        <time>2014-07-13T08:05:59Z</time>
      </trkpt>
      <trkpt lat="44.58182" lon="4.05597">
        <ele>1089</ele>
        <time>2014-07-13T08:06:23Z</time>
      </trkpt>
      <trkpt lat="44.58189" lon="4.05585">
        <ele>1089</ele>
        <time>2014-07-13T08:06:38Z</time>
      </trkpt>
      <trkpt lat="44.58185" lon="4.05588">
        <ele>1089</ele>
        <time>2014-07-13T08:06:42Z</time>
      </trkpt>
      <trkpt lat="44.58187" lon="4.05588">
        <ele>1089</ele>
        <time>2014-07-13T08:06:53Z</time>
      </trkpt>
      <trkpt lat="44.58202" lon="4.05573">
        <ele>1094</ele>
        <time>2014-07-13T08:07:04Z</time>
      </trkpt>
      <trkpt lat="44.58286" lon="4.05494">
        <ele>1093</ele>
        <time>2014-07-13T08:07:48Z</time>
      </trkpt>
      <trkpt lat="44.58323" lon="4.05474">
        <ele>1088</ele>
        <time>2014-07-13T08:08:03Z</time>
      </trkpt>
      <trkpt lat="44.58328" lon="4.05386">
        <ele>1099</ele>
        <time>2014-07-13T08:08:29Z</time>
      </trkpt>
      <trkpt lat="44.58342" lon="4.05283">
        <ele>1089</ele>
        <time>2014-07-13T08:08:55Z</time>
      </trkpt>
      <trkpt lat="44.5828" lon="4.05241">
        <ele>1090</ele>
        <time>2014-07-13T08:09:22Z</time>
      </trkpt>
      <trkpt lat="44.58137" lon="4.0529">
        <ele>1112</ele>
        <time>2014-07-13T08:10:08Z</time>
      </trkpt>
      <trkpt lat="44.58075" lon="4.05283">
        <ele>1120</ele>
        <time>2014-07-13T08:10:30Z</time>
      </trkpt>
      <trkpt lat="44.58086" lon="4.05304">
        <ele>1116</ele>
        <time>2014-07-13T08:10:48Z</time>
      </trkpt>
      <trkpt lat="44.58123" lon="4.05314">
        <ele>1115</ele>
        <time>2014-07-13T08:11:11Z</time>
      </trkpt>
      <trkpt lat="44.58153" lon="4.05313">
        <ele>1115</ele>
        <time>2014-07-13T08:11:28Z</time>
      </trkpt>
      <trkpt lat="44.58214" lon="4.05318">
        <ele>1112</ele>
        <time>2014-07-13T08:11:58Z</time>
      </trkpt>
      <trkpt lat="44.58228" lon="4.05318">
        <ele>1112</ele>
        <time>2014-07-13T08:12:04Z</time>
      </trkpt>
      <trkpt lat="44.58225" lon="4.05354">
        <ele>1120</ele>
        <time>2014-07-13T08:12:23Z</time>
      </trkpt>
      <trkpt lat="44.58211" lon="4.05375">
        <ele>1121</ele>
        <time>2014-07-13T08:12:38Z</time>
      </trkpt>
      <trkpt lat="44.58173" lon="4.05408">
        <ele>1127</ele>
        <time>2014-07-13T08:13:08Z</time>
      </trkpt>
      <trkpt lat="44.58116" lon="4.05441">
        <ele>1134</ele>
        <time>2014-07-13T08:13:46Z</time>
      </trkpt>
      <trkpt lat="44.58092" lon="4.05458">
        <ele>1134</ele>
        <time>2014-07-13T08:14:01Z</time>
      </trkpt>
      <trkpt lat="44.58044" lon="4.05481">
        <ele>1144</ele>
        <time>2014-07-13T08:14:32Z</time>
      </trkpt>
      <trkpt lat="44.57997" lon="4.05488">
        <ele>1149</ele>
        <time>2014-07-13T08:14:56Z</time>
      </trkpt>
      <trkpt lat="44.57955" lon="4.05476">
        <ele>1155</ele>
        <time>2014-07-13T08:15:22Z</time>
      </trkpt>
      <trkpt lat="44.5794" lon="4.05463">
        <ele>1157</ele>
        <time>2014-07-13T08:15:43Z</time>
      </trkpt>
      <trkpt lat="44.57968" lon="4.0544">
        <ele>1157</ele>
        <time>2014-07-13T08:16:05Z</time>
      </trkpt>
      <trkpt lat="44.57974" lon="4.05419">
        <ele>1157</ele>
        <time>2014-07-13T08:16:13Z</time>
      </trkpt>
      <trkpt lat="44.57944" lon="4.05376">
        <ele>1161</ele>
        <time>2014-07-13T08:16:39Z</time>
      </trkpt>
      <trkpt lat="44.57896" lon="4.05353">
        <ele>1169</ele>
        <time>2014-07-13T08:17:05Z</time>
      </trkpt>
      <trkpt lat="44.5788" lon="4.05344">
        <ele>1171</ele>
        <time>2014-07-13T08:17:13Z</time>
      </trkpt>
      <trkpt lat="44.5778" lon="4.05282">
        <ele>1177</ele>
        <time>2014-07-13T08:18:01Z</time>
      </trkpt>
      <trkpt lat="44.57717" lon="4.05232">
        <ele>1177</ele>
        <time>2014-07-13T08:18:27Z</time>
      </trkpt>
      <trkpt lat="44.57651" lon="4.05173">
        <ele>1183</ele>
        <time>2014-07-13T08:18:52Z</time>
      </trkpt>
      <trkpt lat="44.57602" lon="4.05086">
        <ele>1185</ele>
        <time>2014-07-13T08:19:24Z</time>
      </trkpt>
      <trkpt lat="44.57538" lon="4.04972">
        <ele>1185</ele>
        <time>2014-07-13T08:19:59Z</time>
      </trkpt>
      <trkpt lat="44.57514" lon="4.04953">
        <ele>1184</ele>
        <time>2014-07-13T08:20:09Z</time>
      </trkpt>
      <trkpt lat="44.57512" lon="4.04939">
        <ele>1183</ele>
        <time>2014-07-13T08:20:13Z</time>
      </trkpt>
      <trkpt lat="44.57502" lon="4.04839">
        <ele>1183</ele>
        <time>2014-07-13T08:20:47Z</time>
      </trkpt>
      <trkpt lat="44.57496" lon="4.04782">
        <ele>1173</ele>
        <time>2014-07-13T08:21:01Z</time>
      </trkpt>
      <trkpt lat="44.57503" lon="4.04661">
        <ele>1187</ele>
        <time>2014-07-13T08:21:28Z</time>
      </trkpt>
      <trkpt lat="44.57513" lon="4.04571">
        <ele>1186</ele>
        <time>2014-07-13T08:21:42Z</time>
      </trkpt>
      <trkpt lat="44.57516" lon="4.04527">
        <ele>1187</ele>
        <time>2014-07-13T08:21:49Z</time>
      </trkpt>
      <trkpt lat="44.57536" lon="4.04403">
        <ele>1185</ele>
        <time>2014-07-13T08:22:12Z</time>
      </trkpt>
      <trkpt lat="44.57561" lon="4.04301">
        <ele>1185</ele>
        <time>2014-07-13T08:22:29Z</time>
      </trkpt>
      <trkpt lat="44.57543" lon="4.04247">
        <ele>1188</ele>
        <time>2014-07-13T08:22:38Z</time>
      </trkpt>
      <trkpt lat="44.57537" lon="4.04235">
        <ele>1188</ele>
        <time>2014-07-13T08:22:40Z</time>
      </trkpt>
      <trkpt lat="44.57524" lon="4.04193">
        <ele>1189</ele>
        <time>2014-07-13T08:22:47Z</time>
      </trkpt>
      <trkpt lat="44.57536" lon="4.04127">
        <ele>1192</ele>
        <time>2014-07-13T08:23:03Z</time>
      </trkpt>
      <trkpt lat="44.57545" lon="4.04096">
        <ele>1193</ele>
        <time>2014-07-13T08:23:15Z</time>
      </trkpt>
      <trkpt lat="44.5757" lon="4.04029">
        <ele>1191</ele>
        <time>2014-07-13T08:23:38Z</time>
      </trkpt>
      <trkpt lat="44.57582" lon="4.03991">
        <ele>1191</ele>
        <time>2014-07-13T08:23:48Z</time>
      </trkpt>
      <trkpt lat="44.57575" lon="4.03877">
        <ele>1185</ele>
        <time>2014-07-13T08:24:05Z</time>
      </trkpt>
      <trkpt lat="44.57581" lon="4.03772">
        <ele>1186</ele>
        <time>2014-07-13T08:24:28Z</time>
      </trkpt>
      <trkpt lat="44.5758" lon="4.03768">
        <ele>1187</ele>
        <time>2014-07-13T08:24:29Z</time>
      </trkpt>
      <trkpt lat="44.57531" lon="4.03694">
        <ele>1187</ele>
        <time>2014-07-13T08:24:48Z</time>
      </trkpt>
      <trkpt lat="44.57493" lon="4.03657">
        <ele>1188</ele>
        <time>2014-07-13T08:24:57Z</time>
      </trkpt>
      <trkpt lat="44.5742" lon="4.03617">
        <ele>1188</ele>
        <time>2014-07-13T08:25:12Z</time>
      </trkpt>
      <trkpt lat="44.5726" lon="4.03472">
        <ele>1187</ele>
        <time>2014-07-13T08:25:47Z</time>
      </trkpt>
      <trkpt lat="44.57239" lon="4.03437">
        <ele>1185</ele>
        <time>2014-07-13T08:25:52Z</time>
      </trkpt>
      <trkpt lat="44.57224" lon="4.0342">
        <ele>1185</ele>
        <time>2014-07-13T08:25:55Z</time>
      </trkpt>
      <trkpt lat="44.57175" lon="4.03353">
        <ele>1186</ele>
        <time>2014-07-13T08:26:07Z</time>
      </trkpt>
      <trkpt lat="44.57142" lon="4.03318">
        <ele>1186</ele>
        <time>2014-07-13T08:26:18Z</time>
      </trkpt>
      <trkpt lat="44.57139" lon="4.03312">
        <ele>1186</ele>
        <time>2014-07-13T08:26:19Z</time>
      </trkpt>
      <trkpt lat="44.57128" lon="4.03293">
        <ele>1185</ele>
        <time>2014-07-13T08:26:22Z</time>
      </trkpt>
      <trkpt lat="44.57119" lon="4.03285">
        <ele>1185</ele>
        <time>2014-07-13T08:26:31Z</time>
      </trkpt>
      <trkpt lat="44.57116" lon="4.03274">
        <ele>1184</ele>
        <time>2014-07-13T08:26:43Z</time>
      </trkpt>
      <trkpt lat="44.57135" lon="4.03273">
        <ele>1184</ele>
        <time>2014-07-13T08:27:03Z</time>
      </trkpt>
      <trkpt lat="44.57138" lon="4.0327">
        <ele>1184</ele>
        <time>2014-07-13T08:27:47Z</time>
      </trkpt>
      <trkpt lat="44.57136" lon="4.0327">
        <ele>1184</ele>
        <time>2014-07-13T08:28:01Z</time>
      </trkpt>
      <trkpt lat="44.57107" lon="4.03266">
        <ele>1184</ele>
        <time>2014-07-13T08:28:14Z</time>
      </trkpt>
      <trkpt lat="44.57048" lon="4.03249">
        <ele>1183</ele>
        <time>2014-07-13T08:28:47Z</time>
      </trkpt>
      <trkpt lat="44.57043" lon="4.03246">
        <ele>1183</ele>
        <time>2014-07-13T08:28:50Z</time>
      </trkpt>
      <trkpt lat="44.57012" lon="4.03223">
        <ele>1184</ele>
        <time>2014-07-13T08:29:17Z</time>
      </trkpt>
      <trkpt lat="44.57008" lon="4.03229">
        <ele>1184</ele>
        <time>2014-07-13T08:30:22Z</time>
      </trkpt>
      <trkpt lat="44.57013" lon="4.03225">
        <ele>1184</ele>
        <time>2014-07-13T08:32:27Z</time>
      </trkpt>
      <trkpt lat="44.57006" lon="4.03216">
        <ele>1183</ele>
        <time>2014-07-13T08:33:31Z</time>
      </trkpt>
      <trkpt lat="44.56982" lon="4.03224">
        <ele>1183</ele>
        <time>2014-07-13T08:33:40Z</time>
      </trkpt>
      <trkpt lat="44.56967" lon="4.0323">
        <ele>1182</ele>
        <time>2014-07-13T08:33:43Z</time>
      </trkpt>
      <trkpt lat="44.5694" lon="4.03234">
        <ele>1181</ele>
        <time>2014-07-13T08:33:47Z</time>
      </trkpt>
      <trkpt lat="44.56914" lon="4.03233">
        <ele>1178</ele>
        <time>2014-07-13T08:33:56Z</time>
      </trkpt>
      <trkpt lat="44.56881" lon="4.03236">
        <ele>1176</ele>
        <time>2014-07-13T08:34:04Z</time>
      </trkpt>
      <trkpt lat="44.56853" lon="4.03239">
        <ele>1174</ele>
        <time>2014-07-13T08:34:08Z</time>
      </trkpt>
      <trkpt lat="44.56818" lon="4.0322">
        <ele>1168</ele>
        <time>2014-07-13T08:34:13Z</time>
      </trkpt>
      <trkpt lat="44.56807" lon="4.03211">
        <ele>1168</ele>
        <time>2014-07-13T08:34:15Z</time>
      </trkpt>
      <trkpt lat="44.56772" lon="4.0319">
        <ele>1165</ele>
        <time>2014-07-13T08:34:20Z</time>
      </trkpt>
      <trkpt lat="44.56721" lon="4.03153">
        <ele>1155</ele>
        <time>2014-07-13T08:34:28Z</time>
      </trkpt>
      <trkpt lat="44.56715" lon="4.03149">
        <ele>1155</ele>
        <time>2014-07-13T08:34:29Z</time>
      </trkpt>
      <trkpt lat="44.56696" lon="4.03144">
        <ele>1154</ele>
        <time>2014-07-13T08:34:32Z</time>
      </trkpt>
      <trkpt lat="44.56675" lon="4.03132">
        <ele>1153</ele>
        <time>2014-07-13T08:34:35Z</time>
      </trkpt>
      <trkpt lat="44.56639" lon="4.03098">
        <ele>1147</ele>
        <time>2014-07-13T08:34:41Z</time>
      </trkpt>
      <trkpt lat="44.56623" lon="4.03083">
        <ele>1146</ele>
        <time>2014-07-13T08:34:44Z</time>
      </trkpt>
      <trkpt lat="44.56614" lon="4.03076">
        <ele>1145</ele>
        <time>2014-07-13T08:34:46Z</time>
      </trkpt>
      <trkpt lat="44.56592" lon="4.03067">
        <ele>1144</ele>
        <time>2014-07-13T08:34:51Z</time>
      </trkpt>
      <trkpt lat="44.56584" lon="4.0306">
        <ele>1144</ele>
        <time>2014-07-13T08:34:53Z</time>
      </trkpt>
      <trkpt lat="44.56556" lon="4.03024">
        <ele>1140</ele>
        <time>2014-07-13T08:35:01Z</time>
      </trkpt>
      <trkpt lat="44.5655" lon="4.03016">
        <ele>1140</ele>
        <time>2014-07-13T08:35:03Z</time>
      </trkpt>
      <trkpt lat="44.56525" lon="4.02976">
        <ele>1137</ele>
        <time>2014-07-13T08:35:12Z</time>
      </trkpt>
      <trkpt lat="44.56521" lon="4.02972">
        <ele>1137</ele>
        <time>2014-07-13T08:35:13Z</time>
      </trkpt>
      <trkpt lat="44.56464" lon="4.0291">
        <ele>1128</ele>
        <time>2014-07-13T08:35:33Z</time>
      </trkpt>
      <trkpt lat="44.56461" lon="4.02906">
        <ele>1128</ele>
        <time>2014-07-13T08:35:34Z</time>
      </trkpt>
      <trkpt lat="44.56434" lon="4.02876">
        <ele>1126</ele>
        <time>2014-07-13T08:35:43Z</time>
      </trkpt>
      <trkpt lat="44.56362" lon="4.02829">
        <ele>1124</ele>
        <time>2014-07-13T08:36:02Z</time>
      </trkpt>
      <trkpt lat="44.56361" lon="4.02827">
        <ele>1124</ele>
        <time>2014-07-13T08:36:22Z</time>
      </trkpt>
      <trkpt lat="44.56352" lon="4.02811">
        <ele>1124</ele>
        <time>2014-07-13T08:36:57Z</time>
      </trkpt>
      <trkpt lat="44.56292" lon="4.02738">
        <ele>1125</ele>
        <time>2014-07-13T08:37:16Z</time>
      </trkpt>
      <trkpt lat="44.56172" lon="4.02617">
        <ele>1122</ele>
        <time>2014-07-13T08:37:53Z</time>
      </trkpt>
      <trkpt lat="44.5617" lon="4.02587">
        <ele>1123</ele>
        <time>2014-07-13T08:38:01Z</time>
      </trkpt>
      <trkpt lat="44.56169" lon="4.02563">
        <ele>1126</ele>
        <time>2014-07-13T08:38:05Z</time>
      </trkpt>
      <trkpt lat="44.56119" lon="4.02504">
        <ele>1126</ele>
        <time>2014-07-13T08:38:23Z</time>
      </trkpt>
      <trkpt lat="44.56096" lon="4.02464">
        <ele>1130</ele>
        <time>2014-07-13T08:38:34Z</time>
      </trkpt>
      <trkpt lat="44.56076" lon="4.02423">
        <ele>1127</ele>
        <time>2014-07-13T08:39:06Z</time>
      </trkpt>
      <trkpt lat="44.56075" lon="4.02406">
        <ele>1126</ele>
        <time>2014-07-13T08:39:40Z</time>
      </trkpt>
      <trkpt lat="44.56068" lon="4.02382">
        <ele>1125</ele>
        <time>2014-07-13T08:40:16Z</time>
      </trkpt>
      <trkpt lat="44.5606" lon="4.02327">
        <ele>1121</ele>
        <time>2014-07-13T08:40:25Z</time>
      </trkpt>
      <trkpt lat="44.5606" lon="4.02306">
        <ele>1120</ele>
        <time>2014-07-13T08:40:28Z</time>
      </trkpt>
      <trkpt lat="44.56081" lon="4.02258">
        <ele>1121</ele>
        <time>2014-07-13T08:40:41Z</time>
      </trkpt>
      <trkpt lat="44.56039" lon="4.02242">
        <ele>1113</ele>
        <time>2014-07-13T08:40:50Z</time>
      </trkpt>
      <trkpt lat="44.56025" lon="4.02241">
        <ele>1111</ele>
        <time>2014-07-13T08:40:52Z</time>
      </trkpt>
      <trkpt lat="44.56003" lon="4.02195">
        <ele>1110</ele>
        <time>2014-07-13T08:41:01Z</time>
      </trkpt>
      <trkpt lat="44.5599" lon="4.02165">
        <ele>1108</ele>
        <time>2014-07-13T08:41:10Z</time>
      </trkpt>
      <trkpt lat="44.55961" lon="4.02164">
        <ele>1110</ele>
        <time>2014-07-13T08:41:21Z</time>
      </trkpt>
      <trkpt lat="44.5593" lon="4.02153">
        <ele>1109</ele>
        <time>2014-07-13T08:41:35Z</time>
      </trkpt>
      <trkpt lat="44.55901" lon="4.02143">
        <ele>1112</ele>
        <time>2014-07-13T08:41:47Z</time>
      </trkpt>
      <trkpt lat="44.55875" lon="4.02101">
        <ele>1117</ele>
        <time>2014-07-13T08:42:09Z</time>
      </trkpt>
      <trkpt lat="44.55854" lon="4.0205">
        <ele>1127</ele>
        <time>2014-07-13T08:42:34Z</time>
      </trkpt>
      <trkpt lat="44.55831" lon="4.02007">
        <ele>1133</ele>
        <time>2014-07-13T08:42:57Z</time>
      </trkpt>
      <trkpt lat="44.55801" lon="4.01959">
        <ele>1137</ele>
        <time>2014-07-13T08:43:25Z</time>
      </trkpt>
      <trkpt lat="44.55769" lon="4.0194">
        <ele>1137</ele>
        <time>2014-07-13T08:43:53Z</time>
      </trkpt>
      <trkpt lat="44.55728" lon="4.01889">
        <ele>1140</ele>
        <time>2014-07-13T08:44:27Z</time>
      </trkpt>
      <trkpt lat="44.55706" lon="4.01855">
        <ele>1141</ele>
        <time>2014-07-13T08:44:42Z</time>
      </trkpt>
      <trkpt lat="44.55661" lon="4.0177">
        <ele>1143</ele>
        <time>2014-07-13T08:45:37Z</time>
      </trkpt>
      <trkpt lat="44.55615" lon="4.01708">
        <ele>1142</ele>
        <time>2014-07-13T08:46:03Z</time>
      </trkpt>
      <trkpt lat="44.55508" lon="4.01586">
        <ele>1137</ele>
        <time>2014-07-13T08:46:44Z</time>
      </trkpt>
      <trkpt lat="44.55465" lon="4.01493">
        <ele>1131</ele>
        <time>2014-07-13T08:46:57Z</time>
      </trkpt>
      <trkpt lat="44.55372" lon="4.01347">
        <ele>1126</ele>
        <time>2014-07-13T08:47:20Z</time>
      </trkpt>
      <trkpt lat="44.55347" lon="4.01321">
        <ele>1121</ele>
        <time>2014-07-13T08:47:24Z</time>
      </trkpt>
      <trkpt lat="44.55304" lon="4.01276">
        <ele>1118</ele>
        <time>2014-07-13T08:47:29Z</time>
      </trkpt>
      <trkpt lat="44.55258" lon="4.01207">
        <ele>1117</ele>
        <time>2014-07-13T08:47:35Z</time>
      </trkpt>
      <trkpt lat="44.55217" lon="4.01128">
        <ele>1121</ele>
        <time>2014-07-13T08:47:45Z</time>
      </trkpt>
      <trkpt lat="44.55196" lon="4.01101">
        <ele>1122</ele>
        <time>2014-07-13T08:47:54Z</time>
      </trkpt>
      <trkpt lat="44.55164" lon="4.01057">
        <ele>1127</ele>
        <time>2014-07-13T08:48:14Z</time>
      </trkpt>
      <trkpt lat="44.55142" lon="4.01029">
        <ele>1128</ele>
        <time>2014-07-13T08:48:28Z</time>
      </trkpt>
      <trkpt lat="44.55064" lon="4.00969">
        <ele>1135</ele>
        <time>2014-07-13T08:49:10Z</time>
      </trkpt>
      <trkpt lat="44.54992" lon="4.00939">
        <ele>1138</ele>
        <time>2014-07-13T08:49:44Z</time>
      </trkpt>
      <trkpt lat="44.54892" lon="4.00908">
        <ele>1141</ele>
        <time>2014-07-13T08:50:09Z</time>
      </trkpt>
      <trkpt lat="44.54867" lon="4.009">
        <ele>1141</ele>
        <time>2014-07-13T08:50:15Z</time>
      </trkpt>
      <trkpt lat="44.54857" lon="4.00898">
        <ele>1141</ele>
        <time>2014-07-13T08:50:17Z</time>
      </trkpt>
      <trkpt lat="44.54842" lon="4.00902">
        <ele>1142</ele>
        <time>2014-07-13T08:51:04Z</time>
      </trkpt>
      <trkpt lat="44.54722" lon="4.00885">
        <ele>1140</ele>
        <time>2014-07-13T08:51:41Z</time>
      </trkpt>
      <trkpt lat="44.54687" lon="4.00893">
        <ele>1140</ele>
        <time>2014-07-13T08:51:47Z</time>
      </trkpt>
      <trkpt lat="44.54516" lon="4.00926">
        <ele>1139</ele>
        <time>2014-07-13T08:52:21Z</time>
      </trkpt>
      <trkpt lat="44.54496" lon="4.00928">
        <ele>1140</ele>
        <time>2014-07-13T08:52:25Z</time>
      </trkpt>
      <trkpt lat="44.54473" lon="4.00929">
        <ele>1139</ele>
        <time>2014-07-13T08:52:30Z</time>
      </trkpt>
      <trkpt lat="44.54348" lon="4.0098">
        <ele>1134</ele>
        <time>2014-07-13T08:52:57Z</time>
      </trkpt>
      <trkpt lat="44.54278" lon="4.0101">
        <ele>1132</ele>
        <time>2014-07-13T08:53:07Z</time>
      </trkpt>
      <trkpt lat="44.54264" lon="4.01015">
        <ele>1132</ele>
        <time>2014-07-13T08:53:09Z</time>
      </trkpt>
      <trkpt lat="44.54185" lon="4.01">
        <ele>1127</ele>
        <time>2014-07-13T08:53:22Z</time>
      </trkpt>
      <trkpt lat="44.54118" lon="4.00954">
        <ele>1126</ele>
        <time>2014-07-13T08:53:35Z</time>
      </trkpt>
      <trkpt lat="44.54102" lon="4.00943">
        <ele>1126</ele>
        <time>2014-07-13T08:53:38Z</time>
      </trkpt>
      <trkpt lat="44.5406" lon="4.00904">
        <ele>1120</ele>
        <time>2014-07-13T08:53:46Z</time>
      </trkpt>
      <trkpt lat="44.5403" lon="4.0088">
        <ele>1118</ele>
        <time>2014-07-13T08:53:51Z</time>
      </trkpt>
      <trkpt lat="44.5396" lon="4.00817">
        <ele>1113</ele>
        <time>2014-07-13T08:54:05Z</time>
      </trkpt>
      <trkpt lat="44.53927" lon="4.00788">
        <ele>1113</ele>
        <time>2014-07-13T08:54:29Z</time>
      </trkpt>
      <trkpt lat="44.53917" lon="4.00777">
        <ele>1111</ele>
        <time>2014-07-13T08:55:57Z</time>
      </trkpt>
      <trkpt lat="44.53905" lon="4.00764">
        <ele>1111</ele>
        <time>2014-07-13T08:56:12Z</time>
      </trkpt>
      <trkpt lat="44.53872" lon="4.00735">
        <ele>1109</ele>
        <time>2014-07-13T08:56:19Z</time>
      </trkpt>
      <trkpt lat="44.53841" lon="4.00716">
        <ele>1108</ele>
        <time>2014-07-13T08:56:25Z</time>
      </trkpt>
      <trkpt lat="44.53812" lon="4.00682">
        <ele>1106</ele>
        <time>2014-07-13T08:56:31Z</time>
      </trkpt>
      <trkpt lat="44.53807" lon="4.00676">
        <ele>1106</ele>
        <time>2014-07-13T08:56:32Z</time>
      </trkpt>
      <trkpt lat="44.53749" lon="4.00606">
        <ele>1106</ele>
        <time>2014-07-13T08:56:47Z</time>
      </trkpt>
      <trkpt lat="44.53684" lon="4.00572">
        <ele>1102</ele>
        <time>2014-07-13T08:57:05Z</time>
      </trkpt>
      <trkpt lat="44.53611" lon="4.00587">
        <ele>1104</ele>
        <time>2014-07-13T08:57:23Z</time>
      </trkpt>
      <trkpt lat="44.53566" lon="4.00571">
        <ele>1100</ele>
        <time>2014-07-13T08:57:34Z</time>
      </trkpt>
      <trkpt lat="44.53518" lon="4.00526">
        <ele>1095</ele>
        <time>2014-07-13T08:57:45Z</time>
      </trkpt>
      <trkpt lat="44.53508" lon="4.00499">
        <ele>1090</ele>
        <time>2014-07-13T08:57:50Z</time>
      </trkpt>
      <trkpt lat="44.53503" lon="4.00472">
        <ele>1089</ele>
        <time>2014-07-13T08:57:54Z</time>
      </trkpt>
      <trkpt lat="44.53494" lon="4.00433">
        <ele>1085</ele>
        <time>2014-07-13T08:57:59Z</time>
      </trkpt>
      <trkpt lat="44.53486" lon="4.00395">
        <ele>1081</ele>
        <time>2014-07-13T08:58:16Z</time>
      </trkpt>
      <trkpt lat="44.53498" lon="4.00392">
        <ele>1081</ele>
        <time>2014-07-13T08:58:24Z</time>
      </trkpt>
      <trkpt lat="44.53499" lon="4.00392">
        <ele>1081</ele>
        <time>2014-07-13T08:58:25Z</time>
      </trkpt>
      <trkpt lat="44.53514" lon="4.00389">
        <ele>1082</ele>
        <time>2014-07-13T08:58:34Z</time>
      </trkpt>
      <trkpt lat="44.53528" lon="4.00248">
        <ele>1080</ele>
        <time>2014-07-13T08:59:01Z</time>
      </trkpt>
      <trkpt lat="44.53541" lon="4.00156">
        <ele>1082</ele>
        <time>2014-07-13T08:59:20Z</time>
      </trkpt>
      <trkpt lat="44.53557" lon="3.99989">
        <ele>1081</ele>
        <time>2014-07-13T08:59:54Z</time>
      </trkpt>
      <trkpt lat="44.53536" lon="3.99934">
        <ele>1081</ele>
        <time>2014-07-13T09:00:07Z</time>
      </trkpt>
      <trkpt lat="44.53507" lon="3.9991">
        <ele>1079</ele>
        <time>2014-07-13T09:00:16Z</time>
      </trkpt>
      <trkpt lat="44.53453" lon="3.99873">
        <ele>1081</ele>
        <time>2014-07-13T09:00:29Z</time>
      </trkpt>
      <trkpt lat="44.53447" lon="3.99866">
        <ele>1081</ele>
        <time>2014-07-13T09:00:31Z</time>
      </trkpt>
      <trkpt lat="44.534" lon="3.99808">
        <ele>1080</ele>
        <time>2014-07-13T09:00:48Z</time>
      </trkpt>
      <trkpt lat="44.53323" lon="3.9978">
        <ele>1080</ele>
        <time>2014-07-13T09:01:08Z</time>
      </trkpt>
      <trkpt lat="44.53263" lon="3.99804">
        <ele>1082</ele>
        <time>2014-07-13T09:01:25Z</time>
      </trkpt>
      <trkpt lat="44.53188" lon="3.9989">
        <ele>1085</ele>
        <time>2014-07-13T09:01:48Z</time>
      </trkpt>
      <trkpt lat="44.53157" lon="3.99895">
        <ele>1086</ele>
        <time>2014-07-13T09:01:54Z</time>
      </trkpt>
      <trkpt lat="44.53146" lon="3.99894">
        <ele>1086</ele>
        <time>2014-07-13T09:01:56Z</time>
      </trkpt>
      <trkpt lat="44.53136" lon="3.9989">
        <ele>1086</ele>
        <time>2014-07-13T09:01:58Z</time>
      </trkpt>
      <trkpt lat="44.53074" lon="3.99884">
        <ele>1087</ele>
        <time>2014-07-13T09:02:11Z</time>
      </trkpt>
      <trkpt lat="44.52997" lon="3.99891">
        <ele>1086</ele>
        <time>2014-07-13T09:02:28Z</time>
      </trkpt>
      <trkpt lat="44.52876" lon="3.99902">
        <ele>1086</ele>
        <time>2014-07-13T09:02:56Z</time>
      </trkpt>
      <trkpt lat="44.52867" lon="3.99899">
        <ele>1086</ele>
        <time>2014-07-13T09:02:58Z</time>
      </trkpt>
      <trkpt lat="44.52769" lon="3.99854">
        <ele>1082</ele>
        <time>2014-07-13T09:03:39Z</time>
      </trkpt>
      <trkpt lat="44.52769" lon="3.99855">
        <ele>1082</ele>
        <time>2014-07-13T09:04:44Z</time>
      </trkpt>
      <trkpt lat="44.52768" lon="3.99851">
        <ele>1082</ele>
        <time>2014-07-13T09:06:25Z</time>
      </trkpt>
      <trkpt lat="44.52767" lon="3.99854">
        <ele>1082</ele>
        <time>2014-07-13T09:09:34Z</time>
      </trkpt>
      <trkpt lat="44.52756" lon="3.99854">
        <ele>1081</ele>
        <time>2014-07-13T09:10:33Z</time>
      </trkpt>
      <trkpt lat="44.52695" lon="3.99859">
        <ele>1083</ele>
        <time>2014-07-13T09:10:45Z</time>
      </trkpt>
      <trkpt lat="44.52624" lon="3.99829">
        <ele>1075</ele>
        <time>2014-07-13T09:10:55Z</time>
      </trkpt>
      <trkpt lat="44.52516" lon="3.99789">
        <ele>1075</ele>
        <time>2014-07-13T09:11:10Z</time>
      </trkpt>
      <trkpt lat="44.52428" lon="3.99793">
        <ele>1073</ele>
        <time>2014-07-13T09:11:22Z</time>
      </trkpt>
      <trkpt lat="44.52421" lon="3.99795">
        <ele>1073</ele>
        <time>2014-07-13T09:11:23Z</time>
      </trkpt>
      <trkpt lat="44.52356" lon="3.99819">
        <ele>1067</ele>
        <time>2014-07-13T09:11:32Z</time>
      </trkpt>
      <trkpt lat="44.52305" lon="3.9984">
        <ele>1068</ele>
        <time>2014-07-13T09:11:39Z</time>
      </trkpt>
      <trkpt lat="44.52257" lon="3.99843">
        <ele>1064</ele>
        <time>2014-07-13T09:11:45Z</time>
      </trkpt>
      <trkpt lat="44.52196" lon="3.99866">
        <ele>1061</ele>
        <time>2014-07-13T09:11:53Z</time>
      </trkpt>
      <trkpt lat="44.52113" lon="3.99913">
        <ele>1054</ele>
        <time>2014-07-13T09:12:04Z</time>
      </trkpt>
      <trkpt lat="44.52058" lon="3.99993">
        <ele>1049</ele>
        <time>2014-07-13T09:12:13Z</time>
      </trkpt>
      <trkpt lat="44.52033" lon="4.00085">
        <ele>1048</ele>
        <time>2014-07-13T09:12:20Z</time>
      </trkpt>
      <trkpt lat="44.5203" lon="4.00099">
        <ele>1048</ele>
        <time>2014-07-13T09:12:21Z</time>
      </trkpt>
      <trkpt lat="44.51994" lon="4.00168">
        <ele>1043</ele>
        <time>2014-07-13T09:12:28Z</time>
      </trkpt>
      <trkpt lat="44.5198" lon="4.00178">
        <ele>1042</ele>
        <time>2014-07-13T09:12:30Z</time>
      </trkpt>
      <trkpt lat="44.51913" lon="4.00257">
        <ele>1040</ele>
        <time>2014-07-13T09:12:43Z</time>
      </trkpt>
      <trkpt lat="44.51921" lon="4.00269">
        <ele>1040</ele>
        <time>2014-07-13T09:12:48Z</time>
      </trkpt>
      <trkpt lat="44.51958" lon="4.00299">
        <ele>1040</ele>
        <time>2014-07-13T09:13:01Z</time>
      </trkpt>
      <trkpt lat="44.52066" lon="4.00399">
        <ele>1041</ele>
        <time>2014-07-13T09:13:28Z</time>
      </trkpt>
      <trkpt lat="44.52096" lon="4.00441">
        <ele>1041</ele>
        <time>2014-07-13T09:13:39Z</time>
      </trkpt>
      <trkpt lat="44.52135" lon="4.00495">
        <ele>1039</ele>
        <time>2014-07-13T09:13:49Z</time>
      </trkpt>
      <trkpt lat="44.52173" lon="4.00509">
        <ele>1035</ele>
        <time>2014-07-13T09:13:55Z</time>
      </trkpt>
      <trkpt lat="44.5218" lon="4.00507">
        <ele>1034</ele>
        <time>2014-07-13T09:13:56Z</time>
      </trkpt>
      <trkpt lat="44.52215" lon="4.005">
        <ele>1038</ele>
        <time>2014-07-13T09:14:01Z</time>
      </trkpt>
      <trkpt lat="44.52255" lon="4.00511">
        <ele>1032</ele>
        <time>2014-07-13T09:14:07Z</time>
      </trkpt>
      <trkpt lat="44.52273" lon="4.00523">
        <ele>1029</ele>
        <time>2014-07-13T09:14:11Z</time>
      </trkpt>
      <trkpt lat="44.52307" lon="4.00521">
        <ele>1029</ele>
        <time>2014-07-13T09:14:20Z</time>
      </trkpt>
      <trkpt lat="44.52336" lon="4.00544">
        <ele>1028</ele>
        <time>2014-07-13T09:14:28Z</time>
      </trkpt>
      <trkpt lat="44.52337" lon="4.00543">
        <ele>1028</ele>
        <time>2014-07-13T09:14:29Z</time>
      </trkpt>
      <trkpt lat="44.52338" lon="4.00537">
        <ele>1028</ele>
        <time>2014-07-13T09:14:34Z</time>
      </trkpt>
      <trkpt lat="44.52337" lon="4.00537">
        <ele>1028</ele>
        <time>2014-07-13T09:14:35Z</time>
      </trkpt>
      <trkpt lat="44.52337" lon="4.00537">
        <ele>1028</ele>
        <time>2014-07-13T09:15:03Z</time>
      </trkpt>
      <trkpt lat="44.5234" lon="4.00539">
        <ele>1028</ele>
        <time>2014-07-13T09:15:08Z</time>
      </trkpt>
      <trkpt lat="44.52348" lon="4.00512">
        <ele>1030</ele>
        <time>2014-07-13T09:15:27Z</time>
      </trkpt>
      <trkpt lat="44.5235" lon="4.00501">
        <ele>1030</ele>
        <time>2014-07-13T09:15:56Z</time>
      </trkpt>
      <trkpt lat="44.52345" lon="4.00495">
        <ele>1033</ele>
        <time>2014-07-13T09:18:04Z</time>
      </trkpt>
      <trkpt lat="44.52348" lon="4.00494">
        <ele>1034</ele>
        <time>2014-07-13T09:22:00Z</time>
      </trkpt>
      <trkpt lat="44.52348" lon="4.00496">
        <ele>1033</ele>
        <time>2014-07-13T09:25:25Z</time>
      </trkpt>
      <trkpt lat="44.5235" lon="4.00498">
        <ele>1034</ele>
        <time>2014-07-13T09:29:00Z</time>
      </trkpt>
      <trkpt lat="44.5235" lon="4.00499">
        <ele>1034</ele>
        <time>2014-07-13T09:32:50Z</time>
      </trkpt>
      <trkpt lat="44.5235" lon="4.00491">
        <ele>1034</ele>
        <time>2014-07-13T09:36:16Z</time>
      </trkpt>
      <trkpt lat="44.52351" lon="4.00497">
        <ele>1034</ele>
        <time>2014-07-13T09:39:49Z</time>
      </trkpt>
      <trkpt lat="44.52348" lon="4.00503">
        <ele>1030</ele>
        <time>2014-07-13T09:42:51Z</time>
      </trkpt>
      <trkpt lat="44.52347" lon="4.00537">
        <ele>1028</ele>
        <time>2014-07-13T09:43:04Z</time>
      </trkpt>
      <trkpt lat="44.52339" lon="4.00555">
        <ele>1027</ele>
        <time>2014-07-13T09:43:13Z</time>
      </trkpt>
      <trkpt lat="44.52348" lon="4.00579">
        <ele>1026</ele>
        <time>2014-07-13T09:43:18Z</time>
      </trkpt>
      <trkpt lat="44.52413" lon="4.00593">
        <ele>1025</ele>
        <time>2014-07-13T09:43:42Z</time>
      </trkpt>
      <trkpt lat="44.52484" lon="4.00643">
        <ele>1026</ele>
        <time>2014-07-13T09:44:11Z</time>
      </trkpt>
      <trkpt lat="44.52508" lon="4.00684">
        <ele>1029</ele>
        <time>2014-07-13T09:44:23Z</time>
      </trkpt>
      <trkpt lat="44.52538" lon="4.00738">
        <ele>1032</ele>
        <time>2014-07-13T09:44:43Z</time>
      </trkpt>
      <trkpt lat="44.52538" lon="4.0074">
        <ele>1032</ele>
        <time>2014-07-13T09:44:44Z</time>
      </trkpt>
      <trkpt lat="44.52536" lon="4.00749">
        <ele>1032</ele>
        <time>2014-07-13T09:44:57Z</time>
      </trkpt>
      <trkpt lat="44.52538" lon="4.00749">
        <ele>1032</ele>
        <time>2014-07-13T09:45:02Z</time>
      </trkpt>
      <trkpt lat="44.52552" lon="4.00773">
        <ele>1038</ele>
        <time>2014-07-13T09:45:17Z</time>
      </trkpt>
      <trkpt lat="44.5255" lon="4.00778">
        <ele>1038</ele>
        <time>2014-07-13T09:45:20Z</time>
      </trkpt>
      <trkpt lat="44.52536" lon="4.00794">
        <ele>1039</ele>
        <time>2014-07-13T09:45:33Z</time>
      </trkpt>
      <trkpt lat="44.52515" lon="4.00818">
        <ele>1041</ele>
        <time>2014-07-13T09:46:00Z</time>
      </trkpt>
      <trkpt lat="44.5251" lon="4.00832">
        <ele>1042</ele>
        <time>2014-07-13T09:46:09Z</time>
      </trkpt>
      <trkpt lat="44.52503" lon="4.00854">
        <ele>1047</ele>
        <time>2014-07-13T09:46:22Z</time>
      </trkpt>
      <trkpt lat="44.52496" lon="4.00882">
        <ele>1047</ele>
        <time>2014-07-13T09:46:40Z</time>
      </trkpt>
      <trkpt lat="44.52491" lon="4.009">
        <ele>1049</ele>
        <time>2014-07-13T09:46:50Z</time>
      </trkpt>
      <trkpt lat="44.5248" lon="4.00928">
        <ele>1053</ele>
        <time>2014-07-13T09:47:07Z</time>
      </trkpt>
      <trkpt lat="44.52486" lon="4.00981">
        <ele>1056</ele>
        <time>2014-07-13T09:47:32Z</time>
      </trkpt>
      <trkpt lat="44.525" lon="4.01063">
        <ele>1061</ele>
        <time>2014-07-13T09:48:07Z</time>
      </trkpt>
      <trkpt lat="44.52545" lon="4.01091">
        <ele>1068</ele>
        <time>2014-07-13T09:48:39Z</time>
      </trkpt>
      <trkpt lat="44.52602" lon="4.01108">
        <ele>1071</ele>
        <time>2014-07-13T09:49:12Z</time>
      </trkpt>
      <trkpt lat="44.5271" lon="4.01126">
        <ele>1075</ele>
        <time>2014-07-13T09:50:01Z</time>
      </trkpt>
      <trkpt lat="44.52731" lon="4.01146">
        <ele>1076</ele>
        <time>2014-07-13T09:50:23Z</time>
      </trkpt>
      <trkpt lat="44.52771" lon="4.01197">
        <ele>1076</ele>
        <time>2014-07-13T09:50:56Z</time>
      </trkpt>
      <trkpt lat="44.52819" lon="4.01226">
        <ele>1072</ele>
        <time>2014-07-13T09:51:18Z</time>
      </trkpt>
      <trkpt lat="44.52852" lon="4.01226">
        <ele>1068</ele>
        <time>2014-07-13T09:51:23Z</time>
      </trkpt>
      <trkpt lat="44.52877" lon="4.01224">
        <ele>1067</ele>
        <time>2014-07-13T09:51:26Z</time>
      </trkpt>
      <trkpt lat="44.52923" lon="4.01226">
        <ele>1060</ele>
        <time>2014-07-13T09:51:32Z</time>
      </trkpt>
      <trkpt lat="44.52968" lon="4.01229">
        <ele>1060</ele>
        <time>2014-07-13T09:51:38Z</time>
      </trkpt>
      <trkpt lat="44.52993" lon="4.01245">
        <ele>1055</ele>
        <time>2014-07-13T09:51:42Z</time>
      </trkpt>
      <trkpt lat="44.53031" lon="4.01291">
        <ele>1049</ele>
        <time>2014-07-13T09:51:52Z</time>
      </trkpt>
      <trkpt lat="44.53061" lon="4.01317">
        <ele>1048</ele>
        <time>2014-07-13T09:52:17Z</time>
      </trkpt>
      <trkpt lat="44.53072" lon="4.01328">
        <ele>1047</ele>
        <time>2014-07-13T09:53:34Z</time>
      </trkpt>
      <trkpt lat="44.53093" lon="4.01386">
        <ele>1048</ele>
        <time>2014-07-13T09:53:48Z</time>
      </trkpt>
      <trkpt lat="44.53081" lon="4.01482">
        <ele>1031</ele>
        <time>2014-07-13T09:54:09Z</time>
      </trkpt>
      <trkpt lat="44.53093" lon="4.01539">
        <ele>1030</ele>
        <time>2014-07-13T09:54:26Z</time>
      </trkpt>
      <trkpt lat="44.53114" lon="4.01545">
        <ele>1029</ele>
        <time>2014-07-13T09:54:33Z</time>
      </trkpt>
      <trkpt lat="44.53142" lon="4.01556">
        <ele>1028</ele>
        <time>2014-07-13T09:54:40Z</time>
      </trkpt>
      <trkpt lat="44.53197" lon="4.01551">
        <ele>1030</ele>
        <time>2014-07-13T09:54:54Z</time>
      </trkpt>
      <trkpt lat="44.53207" lon="4.01557">
        <ele>1029</ele>
        <time>2014-07-13T09:54:57Z</time>
      </trkpt>
      <trkpt lat="44.53253" lon="4.01582">
        <ele>1023</ele>
        <time>2014-07-13T09:55:11Z</time>
      </trkpt>
      <trkpt lat="44.53277" lon="4.01607">
        <ele>1018</ele>
        <time>2014-07-13T09:55:17Z</time>
      </trkpt>
      <trkpt lat="44.53311" lon="4.01677">
        <ele>1004</ele>
        <time>2014-07-13T09:55:33Z</time>
      </trkpt>
      <trkpt lat="44.53364" lon="4.0169">
        <ele>1005</ele>
        <time>2014-07-13T09:55:41Z</time>
      </trkpt>
      <trkpt lat="44.5341" lon="4.01721">
        <ele>1001</ele>
        <time>2014-07-13T09:55:50Z</time>
      </trkpt>
      <trkpt lat="44.53437" lon="4.0178">
        <ele>993</ele>
        <time>2014-07-13T09:56:02Z</time>
      </trkpt>
      <trkpt lat="44.53464" lon="4.018">
        <ele>991</ele>
        <time>2014-07-13T09:56:16Z</time>
      </trkpt>
      <trkpt lat="44.53469" lon="4.01802">
        <ele>991</ele>
        <time>2014-07-13T09:56:17Z</time>
      </trkpt>
      <trkpt lat="44.53503" lon="4.01808">
        <ele>988</ele>
        <time>2014-07-13T09:56:22Z</time>
      </trkpt>
      <trkpt lat="44.53544" lon="4.0184">
        <ele>983</ele>
        <time>2014-07-13T09:56:28Z</time>
      </trkpt>
      <trkpt lat="44.53566" lon="4.01894">
        <ele>983</ele>
        <time>2014-07-13T09:56:38Z</time>
      </trkpt>
      <trkpt lat="44.53569" lon="4.01912">
        <ele>984</ele>
        <time>2014-07-13T09:57:01Z</time>
      </trkpt>
      <trkpt lat="44.5357" lon="4.01912">
        <ele>984</ele>
        <time>2014-07-13T09:58:15Z</time>
      </trkpt>
      <trkpt lat="44.53607" lon="4.01993">
        <ele>990</ele>
        <time>2014-07-13T09:59:00Z</time>
      </trkpt>
      <trkpt lat="44.53632" lon="4.01997">
        <ele>991</ele>
        <time>2014-07-13T09:59:13Z</time>
      </trkpt>
      <trkpt lat="44.53694" lon="4.01994">
        <ele>997</ele>
        <time>2014-07-13T09:59:44Z</time>
      </trkpt>
      <trkpt lat="44.53699" lon="4.01992">
        <ele>997</ele>
        <time>2014-07-13T09:59:47Z</time>
      </trkpt>
      <trkpt lat="44.53696" lon="4.02015">
        <ele>996</ele>
        <time>2014-07-13T09:59:55Z</time>
      </trkpt>
      <trkpt lat="44.53672" lon="4.02063">
        <ele>993</ele>
        <time>2014-07-13T10:00:03Z</time>
      </trkpt>
      <trkpt lat="44.53655" lon="4.02098">
        <ele>993</ele>
        <time>2014-07-13T10:00:07Z</time>
      </trkpt>
      <trkpt lat="44.53617" lon="4.02158">
        <ele>995</ele>
        <time>2014-07-13T10:00:16Z</time>
      </trkpt>
      <trkpt lat="44.53593" lon="4.02162">
        <ele>997</ele>
        <time>2014-07-13T10:00:22Z</time>
      </trkpt>
      <trkpt lat="44.53589" lon="4.02158">
        <ele>997</ele>
        <time>2014-07-13T10:00:23Z</time>
      </trkpt>
      <trkpt lat="44.53542" lon="4.02111">
        <ele>1000</ele>
        <time>2014-07-13T10:00:41Z</time>
      </trkpt>
      <trkpt lat="44.53436" lon="4.02065">
        <ele>1000</ele>
        <time>2014-07-13T10:01:16Z</time>
      </trkpt>
      <trkpt lat="44.53432" lon="4.02066">
        <ele>1001</ele>
        <time>2014-07-13T10:01:18Z</time>
      </trkpt>
      <trkpt lat="44.53437" lon="4.02079">
        <ele>1002</ele>
        <time>2014-07-13T10:01:24Z</time>
      </trkpt>
      <trkpt lat="44.53484" lon="4.02106">
        <ele>1008</ele>
        <time>2014-07-13T10:01:45Z</time>
      </trkpt>
      <trkpt lat="44.53484" lon="4.02108">
        <ele>1008</ele>
        <time>2014-07-13T10:01:46Z</time>
      </trkpt>
      <trkpt lat="44.53483" lon="4.02109">
        <ele>1008</ele>
        <time>2014-07-13T10:01:47Z</time>
      </trkpt>
      <trkpt lat="44.53474" lon="4.02102">
        <ele>1008</ele>
        <time>2014-07-13T10:01:59Z</time>
      </trkpt>
      <trkpt lat="44.53507" lon="4.02127">
        <ele>1003</ele>
        <time>2014-07-13T10:02:19Z</time>
      </trkpt>
      <trkpt lat="44.53539" lon="4.02187">
        <ele>1008</ele>
        <time>2014-07-13T10:02:45Z</time>
      </trkpt>
      <trkpt lat="44.53543" lon="4.02209">
        <ele>1008</ele>
        <time>2014-07-13T10:02:54Z</time>
      </trkpt>
      <trkpt lat="44.53542" lon="4.02211">
        <ele>1009</ele>
        <time>2014-07-13T10:03:31Z</time>
      </trkpt>
      <trkpt lat="44.53543" lon="4.02211">
        <ele>1009</ele>
        <time>2014-07-13T10:06:11Z</time>
      </trkpt>
      <trkpt lat="44.53542" lon="4.02211">
        <ele>1009</ele>
        <time>2014-07-13T10:09:31Z</time>
      </trkpt>
      <trkpt lat="44.53544" lon="4.02209">
        <ele>1008</ele>
        <time>2014-07-13T10:12:27Z</time>
      </trkpt>
      <trkpt lat="44.53544" lon="4.02211">
        <ele>1008</ele>
        <time>2014-07-13T10:15:41Z</time>
      </trkpt>
      <trkpt lat="44.53543" lon="4.02211">
        <ele>1009</ele>
        <time>2014-07-13T10:17:31Z</time>
      </trkpt>
      <trkpt lat="44.53534" lon="4.02212">
        <ele>1009</ele>
        <time>2014-07-13T10:17:44Z</time>
      </trkpt>
      <trkpt lat="44.53514" lon="4.02222">
        <ele>1011</ele>
        <time>2014-07-13T10:18:04Z</time>
      </trkpt>
      <trkpt lat="44.53495" lon="4.02244">
        <ele>1018</ele>
        <time>2014-07-13T10:18:24Z</time>
      </trkpt>
      <trkpt lat="44.53484" lon="4.02258">
        <ele>1023</ele>
        <time>2014-07-13T10:18:34Z</time>
      </trkpt>
      <trkpt lat="44.53465" lon="4.02292">
        <ele>1027</ele>
        <time>2014-07-13T10:18:55Z</time>
      </trkpt>
      <trkpt lat="44.53431" lon="4.02329">
        <ele>1032</ele>
        <time>2014-07-13T10:19:23Z</time>
      </trkpt>
      <trkpt lat="44.53409" lon="4.02341">
        <ele>1037</ele>
        <time>2014-07-13T10:19:36Z</time>
      </trkpt>
      <trkpt lat="44.53375" lon="4.02363">
        <ele>1039</ele>
        <time>2014-07-13T10:19:52Z</time>
      </trkpt>
      <trkpt lat="44.53302" lon="4.0236">
        <ele>1045</ele>
        <time>2014-07-13T10:20:21Z</time>
      </trkpt>
      <trkpt lat="44.53277" lon="4.02379">
        <ele>1046</ele>
        <time>2014-07-13T10:20:32Z</time>
      </trkpt>
      <trkpt lat="44.53254" lon="4.02398">
        <ele>1046</ele>
        <time>2014-07-13T10:20:42Z</time>
      </trkpt>
      <trkpt lat="44.53188" lon="4.02443">
        <ele>1049</ele>
        <time>2014-07-13T10:21:12Z</time>
      </trkpt>
      <trkpt lat="44.53094" lon="4.02483">
        <ele>1052</ele>
        <time>2014-07-13T10:21:42Z</time>
      </trkpt>
      <trkpt lat="44.52968" lon="4.02592">
        <ele>1048</ele>
        <time>2014-07-13T10:22:14Z</time>
      </trkpt>
      <trkpt lat="44.52856" lon="4.02654">
        <ele>1052</ele>
        <time>2014-07-13T10:22:42Z</time>
      </trkpt>
      <trkpt lat="44.52713" lon="4.02716">
        <ele>1050</ele>
        <time>2014-07-13T10:23:10Z</time>
      </trkpt>
      <trkpt lat="44.52659" lon="4.02744">
        <ele>1051</ele>
        <time>2014-07-13T10:23:23Z</time>
      </trkpt>
      <trkpt lat="44.52625" lon="4.0277">
        <ele>1050</ele>
        <time>2014-07-13T10:23:46Z</time>
      </trkpt>
      <trkpt lat="44.52549" lon="4.02833">
        <ele>1054</ele>
        <time>2014-07-13T10:24:14Z</time>
      </trkpt>
      <trkpt lat="44.52402" lon="4.02969">
        <ele>1055</ele>
        <time>2014-07-13T10:25:17Z</time>
      </trkpt>
      <trkpt lat="44.52288" lon="4.03091">
        <ele>1054</ele>
        <time>2014-07-13T10:26:09Z</time>
      </trkpt>
      <trkpt lat="44.52288" lon="4.03091">
        <ele>1054</ele>
        <time>2014-07-13T10:26:18Z</time>
      </trkpt>
      <trkpt lat="44.52286" lon="4.03092">
        <ele>1054</ele>
        <time>2014-07-13T10:27:42Z</time>
      </trkpt>
      <trkpt lat="44.52232" lon="4.03147">
        <ele>1048</ele>
        <time>2014-07-13T10:27:56Z</time>
      </trkpt>
      <trkpt lat="44.52177" lon="4.032">
        <ele>1047</ele>
        <time>2014-07-13T10:28:06Z</time>
      </trkpt>
      <trkpt lat="44.52151" lon="4.03229">
        <ele>1042</ele>
        <time>2014-07-13T10:28:11Z</time>
      </trkpt>
      <trkpt lat="44.52139" lon="4.03239">
        <ele>1042</ele>
        <time>2014-07-13T10:28:13Z</time>
      </trkpt>
      <trkpt lat="44.52088" lon="4.03293">
        <ele>1039</ele>
        <time>2014-07-13T10:28:21Z</time>
      </trkpt>
      <trkpt lat="44.52043" lon="4.03344">
        <ele>1031</ele>
        <time>2014-07-13T10:28:28Z</time>
      </trkpt>
      <trkpt lat="44.52023" lon="4.03363">
        <ele>1031</ele>
        <time>2014-07-13T10:28:31Z</time>
      </trkpt>
      <trkpt lat="44.51982" lon="4.03421">
        <ele>1028</ele>
        <time>2014-07-13T10:28:38Z</time>
      </trkpt>
      <trkpt lat="44.51837" lon="4.03613">
        <ele>1019</ele>
        <time>2014-07-13T10:29:06Z</time>
      </trkpt>
      <trkpt lat="44.5181" lon="4.0364">
        <ele>1019</ele>
        <time>2014-07-13T10:29:16Z</time>
      </trkpt>
      <trkpt lat="44.51807" lon="4.03634">
        <ele>1019</ele>
        <time>2014-07-13T10:29:40Z</time>
      </trkpt>
      <trkpt lat="44.5177" lon="4.03636">
        <ele>1020</ele>
        <time>2014-07-13T10:30:05Z</time>
      </trkpt>
      <trkpt lat="44.51758" lon="4.03627">
        <ele>1020</ele>
        <time>2014-07-13T10:30:33Z</time>
      </trkpt>
      <trkpt lat="44.5176" lon="4.03629">
        <ele>1020</ele>
        <time>2014-07-13T10:56:25Z</time>
      </trkpt>
      <trkpt lat="44.51761" lon="4.03631">
        <ele>1020</ele>
        <time>2014-07-13T10:56:44Z</time>
      </trkpt>
      <trkpt lat="44.51782" lon="4.0365">
        <ele>1020</ele>
        <time>2014-07-13T10:56:59Z</time>
      </trkpt>
      <trkpt lat="44.51782" lon="4.0367">
        <ele>1015</ele>
        <time>2014-07-13T10:57:27Z</time>
      </trkpt>
      <trkpt lat="44.51742" lon="4.0371">
        <ele>1014</ele>
        <time>2014-07-13T10:57:40Z</time>
      </trkpt>
      <trkpt lat="44.51706" lon="4.03743">
        <ele>1013</ele>
        <time>2014-07-13T10:57:47Z</time>
      </trkpt>
      <trkpt lat="44.51701" lon="4.03748">
        <ele>1013</ele>
        <time>2014-07-13T10:57:48Z</time>
      </trkpt>
      <trkpt lat="44.51679" lon="4.03778">
        <ele>1006</ele>
        <time>2014-07-13T10:57:54Z</time>
      </trkpt>
      <trkpt lat="44.51675" lon="4.03782">
        <ele>1006</ele>
        <time>2014-07-13T10:57:55Z</time>
      </trkpt>
      <trkpt lat="44.51656" lon="4.03811">
        <ele>1004</ele>
        <time>2014-07-13T10:58:00Z</time>
      </trkpt>
      <trkpt lat="44.51648" lon="4.03825">
        <ele>1003</ele>
        <time>2014-07-13T10:58:02Z</time>
      </trkpt>
      <trkpt lat="44.51616" lon="4.0386">
        <ele>999</ele>
        <time>2014-07-13T10:58:10Z</time>
      </trkpt>
      <trkpt lat="44.51567" lon="4.03853">
        <ele>994</ele>
        <time>2014-07-13T10:58:24Z</time>
      </trkpt>
      <trkpt lat="44.51551" lon="4.03824">
        <ele>994</ele>
        <time>2014-07-13T10:58:29Z</time>
      </trkpt>
      <trkpt lat="44.51542" lon="4.03803">
        <ele>993</ele>
        <time>2014-07-13T10:58:32Z</time>
      </trkpt>
      <trkpt lat="44.51516" lon="4.03786">
        <ele>991</ele>
        <time>2014-07-13T10:58:37Z</time>
      </trkpt>
      <trkpt lat="44.5151" lon="4.03785">
        <ele>990</ele>
        <time>2014-07-13T10:58:38Z</time>
      </trkpt>
      <trkpt lat="44.51504" lon="4.03784">
        <ele>990</ele>
        <time>2014-07-13T10:58:39Z</time>
      </trkpt>
      <trkpt lat="44.51478" lon="4.03804">
        <ele>981</ele>
        <time>2014-07-13T10:58:44Z</time>
      </trkpt>
      <trkpt lat="44.51474" lon="4.0381">
        <ele>982</ele>
        <time>2014-07-13T10:58:45Z</time>
      </trkpt>
      <trkpt lat="44.51466" lon="4.03822">
        <ele>981</ele>
        <time>2014-07-13T10:58:47Z</time>
      </trkpt>
      <trkpt lat="44.51438" lon="4.03859">
        <ele>982</ele>
        <time>2014-07-13T10:58:53Z</time>
      </trkpt>
      <trkpt lat="44.51427" lon="4.03871">
        <ele>982</ele>
        <time>2014-07-13T10:58:55Z</time>
      </trkpt>
      <trkpt lat="44.51379" lon="4.03921">
        <ele>980</ele>
        <time>2014-07-13T10:59:04Z</time>
      </trkpt>
      <trkpt lat="44.51344" lon="4.04014">
        <ele>980</ele>
        <time>2014-07-13T10:59:17Z</time>
      </trkpt>
      <trkpt lat="44.51271" lon="4.04099">
        <ele>976</ele>
        <time>2014-07-13T10:59:33Z</time>
      </trkpt>
      <trkpt lat="44.51255" lon="4.0418">
        <ele>976</ele>
        <time>2014-07-13T10:59:47Z</time>
      </trkpt>
      <trkpt lat="44.51272" lon="4.0426">
        <ele>977</ele>
        <time>2014-07-13T11:00:11Z</time>
      </trkpt>
      <trkpt lat="44.51278" lon="4.04414">
        <ele>976</ele>
        <time>2014-07-13T11:00:52Z</time>
      </trkpt>
      <trkpt lat="44.51252" lon="4.04471">
        <ele>971</ele>
        <time>2014-07-13T11:01:01Z</time>
      </trkpt>
      <trkpt lat="44.51245" lon="4.04487">
        <ele>971</ele>
        <time>2014-07-13T11:01:03Z</time>
      </trkpt>
      <trkpt lat="44.51218" lon="4.04522">
        <ele>965</ele>
        <time>2014-07-13T11:01:09Z</time>
      </trkpt>
      <trkpt lat="44.51193" lon="4.04547">
        <ele>964</ele>
        <time>2014-07-13T11:01:13Z</time>
      </trkpt>
      <trkpt lat="44.51176" lon="4.04567">
        <ele>961</ele>
        <time>2014-07-13T11:01:16Z</time>
      </trkpt>
      <trkpt lat="44.5116" lon="4.04583">
        <ele>959</ele>
        <time>2014-07-13T11:01:19Z</time>
      </trkpt>
      <trkpt lat="44.51126" lon="4.046">
        <ele>952</ele>
        <time>2014-07-13T11:01:24Z</time>
      </trkpt>
      <trkpt lat="44.511" lon="4.04611">
        <ele>951</ele>
        <time>2014-07-13T11:01:28Z</time>
      </trkpt>
      <trkpt lat="44.51089" lon="4.04616">
        <ele>951</ele>
        <time>2014-07-13T11:01:30Z</time>
      </trkpt>
      <trkpt lat="44.51061" lon="4.04637">
        <ele>940</ele>
        <time>2014-07-13T11:01:36Z</time>
      </trkpt>
      <trkpt lat="44.51047" lon="4.04685">
        <ele>932</ele>
        <time>2014-07-13T11:01:43Z</time>
      </trkpt>
      <trkpt lat="44.51049" lon="4.04741">
        <ele>931</ele>
        <time>2014-07-13T11:01:48Z</time>
      </trkpt>
      <trkpt lat="44.5105" lon="4.04754">
        <ele>929</ele>
        <time>2014-07-13T11:01:49Z</time>
      </trkpt>
      <trkpt lat="44.51115" lon="4.04868">
        <ele>930</ele>
        <time>2014-07-13T11:02:07Z</time>
      </trkpt>
      <trkpt lat="44.51153" lon="4.04965">
        <ele>924</ele>
        <time>2014-07-13T11:02:21Z</time>
      </trkpt>
      <trkpt lat="44.51154" lon="4.04974">
        <ele>924</ele>
        <time>2014-07-13T11:02:22Z</time>
      </trkpt>
      <trkpt lat="44.51127" lon="4.05077">
        <ele>917</ele>
        <time>2014-07-13T11:02:33Z</time>
      </trkpt>
      <trkpt lat="44.51125" lon="4.05082">
        <ele>916</ele>
        <time>2014-07-13T11:02:34Z</time>
      </trkpt>
      <trkpt lat="44.51122" lon="4.05095">
        <ele>913</ele>
        <time>2014-07-13T11:02:41Z</time>
      </trkpt>
      <trkpt lat="44.51114" lon="4.05108">
        <ele>912</ele>
        <time>2014-07-13T11:03:01Z</time>
      </trkpt>
      <trkpt lat="44.51116" lon="4.05106">
        <ele>913</ele>
        <time>2014-07-13T11:03:35Z</time>
      </trkpt>
      <trkpt lat="44.5112" lon="4.05098">
        <ele>913</ele>
        <time>2014-07-13T11:03:53Z</time>
      </trkpt>
      <trkpt lat="44.51122" lon="4.05096">
        <ele>913</ele>
        <time>2014-07-13T11:04:51Z</time>
      </trkpt>
      <trkpt lat="44.51122" lon="4.05147">
        <ele>912</ele>
        <time>2014-07-13T11:05:08Z</time>
      </trkpt>
      <trkpt lat="44.51103" lon="4.05195">
        <ele>911</ele>
        <time>2014-07-13T11:05:20Z</time>
      </trkpt>
      <trkpt lat="44.51065" lon="4.053">
        <ele>896</ele>
        <time>2014-07-13T11:05:36Z</time>
      </trkpt>
      <trkpt lat="44.51056" lon="4.05325">
        <ele>896</ele>
        <time>2014-07-13T11:05:40Z</time>
      </trkpt>
      <trkpt lat="44.51066" lon="4.05369">
        <ele>894</ele>
        <time>2014-07-13T11:05:49Z</time>
      </trkpt>
      <trkpt lat="44.51101" lon="4.05366">
        <ele>898</ele>
        <time>2014-07-13T11:05:59Z</time>
      </trkpt>
      <trkpt lat="44.51113" lon="4.05363">
        <ele>898</ele>
        <time>2014-07-13T11:06:01Z</time>
      </trkpt>
      <trkpt lat="44.51138" lon="4.05362">
        <ele>897</ele>
        <time>2014-07-13T11:06:11Z</time>
      </trkpt>
      <trkpt lat="44.51112" lon="4.05393">
        <ele>894</ele>
        <time>2014-07-13T11:06:19Z</time>
      </trkpt>
      <trkpt lat="44.51094" lon="4.0542">
        <ele>885</ele>
        <time>2014-07-13T11:06:24Z</time>
      </trkpt>
      <trkpt lat="44.51091" lon="4.05427">
        <ele>884</ele>
        <time>2014-07-13T11:06:25Z</time>
      </trkpt>
      <trkpt lat="44.5107" lon="4.05464">
        <ele>877</ele>
        <time>2014-07-13T11:06:31Z</time>
      </trkpt>
      <trkpt lat="44.5103" lon="4.05476">
        <ele>874</ele>
        <time>2014-07-13T11:06:39Z</time>
      </trkpt>
      <trkpt lat="44.50991" lon="4.05443">
        <ele>869</ele>
        <time>2014-07-13T11:06:48Z</time>
      </trkpt>
      <trkpt lat="44.50975" lon="4.05422">
        <ele>869</ele>
        <time>2014-07-13T11:06:53Z</time>
      </trkpt>
      <trkpt lat="44.50947" lon="4.05399">
        <ele>868</ele>
        <time>2014-07-13T11:07:02Z</time>
      </trkpt>
      <trkpt lat="44.50921" lon="4.05381">
        <ele>865</ele>
        <time>2014-07-13T11:07:11Z</time>
      </trkpt>
      <trkpt lat="44.50898" lon="4.0539">
        <ele>848</ele>
        <time>2014-07-13T11:07:24Z</time>
      </trkpt>
      <trkpt lat="44.50871" lon="4.05437">
        <ele>846</ele>
        <time>2014-07-13T11:07:41Z</time>
      </trkpt>
      <trkpt lat="44.50853" lon="4.05478">
        <ele>843</ele>
        <time>2014-07-13T11:07:49Z</time>
      </trkpt>
      <trkpt lat="44.50827" lon="4.05559">
        <ele>835</ele>
        <time>2014-07-13T11:08:02Z</time>
      </trkpt>
      <trkpt lat="44.50825" lon="4.05565">
        <ele>835</ele>
        <time>2014-07-13T11:08:03Z</time>
      </trkpt>
      <trkpt lat="44.50814" lon="4.05602">
        <ele>836</ele>
        <time>2014-07-13T11:08:27Z</time>
      </trkpt>
      <trkpt lat="44.50811" lon="4.05625">
        <ele>835</ele>
        <time>2014-07-13T11:09:15Z</time>
      </trkpt>
      <trkpt lat="44.50752" lon="4.05679">
        <ele>834</ele>
        <time>2014-07-13T11:09:32Z</time>
      </trkpt>
      <trkpt lat="44.50689" lon="4.05788">
        <ele>825</ele>
        <time>2014-07-13T11:09:47Z</time>
      </trkpt>
      <trkpt lat="44.50689" lon="4.0583">
        <ele>828</ele>
        <time>2014-07-13T11:09:58Z</time>
      </trkpt>
      <trkpt lat="44.50697" lon="4.059">
        <ele>832</ele>
        <time>2014-07-13T11:10:22Z</time>
      </trkpt>
      <trkpt lat="44.50685" lon="4.05942">
        <ele>838</ele>
        <time>2014-07-13T11:10:36Z</time>
      </trkpt>
      <trkpt lat="44.50673" lon="4.05978">
        <ele>841</ele>
        <time>2014-07-13T11:10:48Z</time>
      </trkpt>
      <trkpt lat="44.50679" lon="4.06041">
        <ele>842</ele>
        <time>2014-07-13T11:11:14Z</time>
      </trkpt>
      <trkpt lat="44.50685" lon="4.06066">
        <ele>845</ele>
        <time>2014-07-13T11:11:26Z</time>
      </trkpt>
      <trkpt lat="44.50691" lon="4.06093">
        <ele>845</ele>
        <time>2014-07-13T11:11:39Z</time>
      </trkpt>
      <trkpt lat="44.50671" lon="4.0609">
        <ele>854</ele>
        <time>2014-07-13T11:12:00Z</time>
      </trkpt>
      <trkpt lat="44.50632" lon="4.06057">
        <ele>861</ele>
        <time>2014-07-13T11:12:29Z</time>
      </trkpt>
      <trkpt lat="44.50577" lon="4.06102">
        <ele>869</ele>
        <time>2014-07-13T11:13:21Z</time>
      </trkpt>
      <trkpt lat="44.50527" lon="4.06204">
        <ele>874</ele>
        <time>2014-07-13T11:13:49Z</time>
      </trkpt>
      <trkpt lat="44.50476" lon="4.0628">
        <ele>876</ele>
        <time>2014-07-13T11:14:18Z</time>
      </trkpt>
      <trkpt lat="44.50417" lon="4.06366">
        <ele>883</ele>
        <time>2014-07-13T11:14:48Z</time>
      </trkpt>
      <trkpt lat="44.50364" lon="4.06447">
        <ele>880</ele>
        <time>2014-07-13T11:15:22Z</time>
      </trkpt>
      <trkpt lat="44.50323" lon="4.06528">
        <ele>879</ele>
        <time>2014-07-13T11:15:51Z</time>
      </trkpt>
      <trkpt lat="44.50302" lon="4.06583">
        <ele>880</ele>
        <time>2014-07-13T11:16:36Z</time>
      </trkpt>
      <trkpt lat="44.50294" lon="4.06641">
        <ele>882</ele>
        <time>2014-07-13T11:17:13Z</time>
      </trkpt>
      <trkpt lat="44.50284" lon="4.06765">
        <ele>876</ele>
        <time>2014-07-13T11:17:27Z</time>
      </trkpt>
      <trkpt lat="44.50276" lon="4.0684">
        <ele>874</ele>
        <time>2014-07-13T11:17:36Z</time>
      </trkpt>
      <trkpt lat="44.5027" lon="4.06889">
        <ele>874</ele>
        <time>2014-07-13T11:17:42Z</time>
      </trkpt>
      <trkpt lat="44.50247" lon="4.06949">
        <ele>858</ele>
        <time>2014-07-13T11:17:50Z</time>
      </trkpt>
      <trkpt lat="44.50261" lon="4.07027">
        <ele>871</ele>
        <time>2014-07-13T11:18:01Z</time>
      </trkpt>
      <trkpt lat="44.50249" lon="4.07059">
        <ele>860</ele>
        <time>2014-07-13T11:18:06Z</time>
      </trkpt>
      <trkpt lat="44.50242" lon="4.07075">
        <ele>862</ele>
        <time>2014-07-13T11:18:09Z</time>
      </trkpt>
      <trkpt lat="44.50219" lon="4.07117">
        <ele>862</ele>
        <time>2014-07-13T11:18:21Z</time>
      </trkpt>
      <trkpt lat="44.50201" lon="4.07146">
        <ele>862</ele>
        <time>2014-07-13T11:18:34Z</time>
      </trkpt>
      <trkpt lat="44.5018" lon="4.07163">
        <ele>862</ele>
        <time>2014-07-13T11:18:47Z</time>
      </trkpt>
      <trkpt lat="44.50081" lon="4.07248">
        <ele>856</ele>
        <time>2014-07-13T11:19:12Z</time>
      </trkpt>
      <trkpt lat="44.50055" lon="4.07268">
        <ele>855</ele>
        <time>2014-07-13T11:19:16Z</time>
      </trkpt>
      <trkpt lat="44.49994" lon="4.07302">
        <ele>847</ele>
        <time>2014-07-13T11:19:24Z</time>
      </trkpt>
      <trkpt lat="44.49923" lon="4.0735">
        <ele>846</ele>
        <time>2014-07-13T11:19:33Z</time>
      </trkpt>
      <trkpt lat="44.49866" lon="4.07405">
        <ele>845</ele>
        <time>2014-07-13T11:19:41Z</time>
      </trkpt>
      <trkpt lat="44.49829" lon="4.07461">
        <ele>844</ele>
        <time>2014-07-13T11:19:47Z</time>
      </trkpt>
      <trkpt lat="44.49823" lon="4.07471">
        <ele>844</ele>
        <time>2014-07-13T11:19:48Z</time>
      </trkpt>
      <trkpt lat="44.49785" lon="4.07541">
        <ele>838</ele>
        <time>2014-07-13T11:19:55Z</time>
      </trkpt>
      <trkpt lat="44.49755" lon="4.076">
        <ele>835</ele>
        <time>2014-07-13T11:20:01Z</time>
      </trkpt>
      <trkpt lat="44.49744" lon="4.07614">
        <ele>837</ele>
        <time>2014-07-13T11:20:03Z</time>
      </trkpt>
      <trkpt lat="44.4967" lon="4.07726">
        <ele>840</ele>
        <time>2014-07-13T11:20:26Z</time>
      </trkpt>
      <trkpt lat="44.49629" lon="4.07749">
        <ele>838</ele>
        <time>2014-07-13T11:20:40Z</time>
      </trkpt>
      <trkpt lat="44.49597" lon="4.0775">
        <ele>836</ele>
        <time>2014-07-13T11:20:52Z</time>
      </trkpt>
      <trkpt lat="44.49562" lon="4.07745">
        <ele>832</ele>
        <time>2014-07-13T11:21:00Z</time>
      </trkpt>
      <trkpt lat="44.49523" lon="4.07736">
        <ele>828</ele>
        <time>2014-07-13T11:21:06Z</time>
      </trkpt>
      <trkpt lat="44.49484" lon="4.07726">
        <ele>823</ele>
        <time>2014-07-13T11:21:12Z</time>
      </trkpt>
      <trkpt lat="44.49444" lon="4.07718">
        <ele>821</ele>
        <time>2014-07-13T11:21:18Z</time>
      </trkpt>
      <trkpt lat="44.49425" lon="4.07706">
        <ele>820</ele>
        <time>2014-07-13T11:21:23Z</time>
      </trkpt>
      <trkpt lat="44.49419" lon="4.07706">
        <ele>820</ele>
        <time>2014-07-13T11:21:26Z</time>
      </trkpt>
      <trkpt lat="44.49408" lon="4.07712">
        <ele>815</ele>
        <time>2014-07-13T11:21:30Z</time>
      </trkpt>
      <trkpt lat="44.49393" lon="4.07728">
        <ele>815</ele>
        <time>2014-07-13T11:21:37Z</time>
      </trkpt>
      <trkpt lat="44.4939" lon="4.07743">
        <ele>816</ele>
        <time>2014-07-13T11:21:41Z</time>
      </trkpt>
      <trkpt lat="44.49335" lon="4.07789">
        <ele>812</ele>
        <time>2014-07-13T11:21:58Z</time>
      </trkpt>
      <trkpt lat="44.49305" lon="4.07822">
        <ele>808</ele>
        <time>2014-07-13T11:22:07Z</time>
      </trkpt>
      <trkpt lat="44.493" lon="4.07844">
        <ele>804</ele>
        <time>2014-07-13T11:22:11Z</time>
      </trkpt>
      <trkpt lat="44.49295" lon="4.07863">
        <ele>803</ele>
        <time>2014-07-13T11:22:14Z</time>
      </trkpt>
      <trkpt lat="44.49276" lon="4.07907">
        <ele>801</ele>
        <time>2014-07-13T11:22:21Z</time>
      </trkpt>
      <trkpt lat="44.49266" lon="4.07939">
        <ele>794</ele>
        <time>2014-07-13T11:22:26Z</time>
      </trkpt>
      <trkpt lat="44.49254" lon="4.07965">
        <ele>791</ele>
        <time>2014-07-13T11:22:32Z</time>
      </trkpt>
      <trkpt lat="44.4925" lon="4.07978">
        <ele>790</ele>
        <time>2014-07-13T11:22:35Z</time>
      </trkpt>
      <trkpt lat="44.49251" lon="4.07994">
        <ele>789</ele>
        <time>2014-07-13T11:22:38Z</time>
      </trkpt>
      <trkpt lat="44.49254" lon="4.0802">
        <ele>780</ele>
        <time>2014-07-13T11:22:42Z</time>
      </trkpt>
      <trkpt lat="44.49249" lon="4.08053">
        <ele>778</ele>
        <time>2014-07-13T11:22:51Z</time>
      </trkpt>
      <trkpt lat="44.49234" lon="4.08052">
        <ele>779</ele>
        <time>2014-07-13T11:22:58Z</time>
      </trkpt>
      <trkpt lat="44.4922" lon="4.08072">
        <ele>778</ele>
        <time>2014-07-13T11:23:05Z</time>
      </trkpt>
      <trkpt lat="44.49218" lon="4.08085">
        <ele>766</ele>
        <time>2014-07-13T11:23:22Z</time>
      </trkpt>
      <trkpt lat="44.49215" lon="4.08094">
        <ele>766</ele>
        <time>2014-07-13T11:23:27Z</time>
      </trkpt>
      <trkpt lat="44.49215" lon="4.08136">
        <ele>763</ele>
        <time>2014-07-13T11:23:41Z</time>
      </trkpt>
      <trkpt lat="44.49207" lon="4.08173">
        <ele>750</ele>
        <time>2014-07-13T11:23:49Z</time>
      </trkpt>
      <trkpt lat="44.49196" lon="4.08221">
        <ele>747</ele>
        <time>2014-07-13T11:24:00Z</time>
      </trkpt>
      <trkpt lat="44.49194" lon="4.08227">
        <ele>747</ele>
        <time>2014-07-13T11:24:01Z</time>
      </trkpt>
      <trkpt lat="44.49192" lon="4.08256">
        <ele>735</ele>
        <time>2014-07-13T11:24:05Z</time>
      </trkpt>
      <trkpt lat="44.49183" lon="4.08295">
        <ele>730</ele>
        <time>2014-07-13T11:24:13Z</time>
      </trkpt>
      <trkpt lat="44.49164" lon="4.08352">
        <ele>734</ele>
        <time>2014-07-13T11:24:21Z</time>
      </trkpt>
      <trkpt lat="44.49155" lon="4.0839">
        <ele>730</ele>
        <time>2014-07-13T11:24:29Z</time>
      </trkpt>
      <trkpt lat="44.49144" lon="4.08422">
        <ele>718</ele>
        <time>2014-07-13T11:24:36Z</time>
      </trkpt>
      <trkpt lat="44.49136" lon="4.08439">
        <ele>720</ele>
        <time>2014-07-13T11:24:47Z</time>
      </trkpt>
      <trkpt lat="44.49129" lon="4.08462">
        <ele>719</ele>
        <time>2014-07-13T11:25:11Z</time>
      </trkpt>
      <trkpt lat="44.49117" lon="4.08497">
        <ele>720</ele>
        <time>2014-07-13T11:25:20Z</time>
      </trkpt>
      <trkpt lat="44.49114" lon="4.0851">
        <ele>710</ele>
        <time>2014-07-13T11:25:57Z</time>
      </trkpt>
      <trkpt lat="44.49111" lon="4.08514">
        <ele>711</ele>
        <time>2014-07-13T11:27:49Z</time>
      </trkpt>
      <trkpt lat="44.49112" lon="4.08514">
        <ele>710</ele>
        <time>2014-07-13T11:30:51Z</time>
      </trkpt>
      <trkpt lat="44.49103" lon="4.08556">
        <ele>706</ele>
        <time>2014-07-13T11:32:44Z</time>
      </trkpt>
      <trkpt lat="44.49101" lon="4.08563">
        <ele>707</ele>
        <time>2014-07-13T11:32:46Z</time>
      </trkpt>
      <trkpt lat="44.49097" lon="4.08608">
        <ele>695</ele>
        <time>2014-07-13T11:32:54Z</time>
      </trkpt>
      <trkpt lat="44.49092" lon="4.08672">
        <ele>689</ele>
        <time>2014-07-13T11:33:04Z</time>
      </trkpt>
      <trkpt lat="44.49086" lon="4.08701">
        <ele>677</ele>
        <time>2014-07-13T11:33:08Z</time>
      </trkpt>
      <trkpt lat="44.49077" lon="4.08725">
        <ele>695</ele>
        <time>2014-07-13T11:33:12Z</time>
      </trkpt>
      <trkpt lat="44.49076" lon="4.08731">
        <ele>693</ele>
        <time>2014-07-13T11:33:13Z</time>
      </trkpt>
      <trkpt lat="44.49067" lon="4.08761">
        <ele>683</ele>
        <time>2014-07-13T11:33:17Z</time>
      </trkpt>
      <trkpt lat="44.49057" lon="4.0878">
        <ele>682</ele>
        <time>2014-07-13T11:33:22Z</time>
      </trkpt>
      <trkpt lat="44.49053" lon="4.08786">
        <ele>682</ele>
        <time>2014-07-13T11:33:24Z</time>
      </trkpt>
      <trkpt lat="44.49042" lon="4.08794">
        <ele>682</ele>
        <time>2014-07-13T11:33:29Z</time>
      </trkpt>
      <trkpt lat="44.49048" lon="4.08815">
        <ele>679</ele>
        <time>2014-07-13T11:33:43Z</time>
      </trkpt>
      <trkpt lat="44.49047" lon="4.08821">
        <ele>679</ele>
        <time>2014-07-13T11:33:50Z</time>
      </trkpt>
      <trkpt lat="44.49035" lon="4.08845">
        <ele>670</ele>
        <time>2014-07-13T11:34:01Z</time>
      </trkpt>
      <trkpt lat="44.49019" lon="4.08856">
        <ele>670</ele>
        <time>2014-07-13T11:34:06Z</time>
      </trkpt>
      <trkpt lat="44.48996" lon="4.08875">
        <ele>669</ele>
        <time>2014-07-13T11:34:12Z</time>
      </trkpt>
      <trkpt lat="44.48987" lon="4.08893">
        <ele>668</ele>
        <time>2014-07-13T11:34:16Z</time>
      </trkpt>
      <trkpt lat="44.48969" lon="4.08924">
        <ele>657</ele>
        <time>2014-07-13T11:34:23Z</time>
      </trkpt>
      <trkpt lat="44.48961" lon="4.08952">
        <ele>654</ele>
        <time>2014-07-13T11:34:30Z</time>
      </trkpt>
      <trkpt lat="44.48966" lon="4.08957">
        <ele>654</ele>
        <time>2014-07-13T11:34:33Z</time>
      </trkpt>
      <trkpt lat="44.48973" lon="4.08966">
        <ele>653</ele>
        <time>2014-07-13T11:34:37Z</time>
      </trkpt>
      <trkpt lat="44.48962" lon="4.08985">
        <ele>651</ele>
        <time>2014-07-13T11:34:44Z</time>
      </trkpt>
      <trkpt lat="44.48954" lon="4.08998">
        <ele>650</ele>
        <time>2014-07-13T11:34:47Z</time>
      </trkpt>
      <trkpt lat="44.4894" lon="4.09011">
        <ele>636</ele>
        <time>2014-07-13T11:34:53Z</time>
      </trkpt>
      <trkpt lat="44.48929" lon="4.09023">
        <ele>635</ele>
        <time>2014-07-13T11:34:57Z</time>
      </trkpt>
      <trkpt lat="44.48913" lon="4.09042">
        <ele>622</ele>
        <time>2014-07-13T11:35:25Z</time>
      </trkpt>
      <trkpt lat="44.48911" lon="4.09042">
        <ele>622</ele>
        <time>2014-07-13T11:35:55Z</time>
      </trkpt>
      <trkpt lat="44.48893" lon="4.09064">
        <ele>618</ele>
        <time>2014-07-13T11:36:49Z</time>
      </trkpt>
      <trkpt lat="44.48887" lon="4.09071">
        <ele>617</ele>
        <time>2014-07-13T11:36:51Z</time>
      </trkpt>
      <trkpt lat="44.48862" lon="4.09088">
        <ele>600</ele>
        <time>2014-07-13T11:36:57Z</time>
      </trkpt>
      <trkpt lat="44.48844" lon="4.09099">
        <ele>599</ele>
        <time>2014-07-13T11:37:04Z</time>
      </trkpt>
      <trkpt lat="44.48842" lon="4.09102">
        <ele>598</ele>
        <time>2014-07-13T11:37:16Z</time>
      </trkpt>
      <trkpt lat="44.48905" lon="4.09135">
        <ele>596</ele>
        <time>2014-07-13T11:37:42Z</time>
      </trkpt>
      <trkpt lat="44.48961" lon="4.09176">
        <ele>583</ele>
        <time>2014-07-13T11:38:02Z</time>
      </trkpt>
      <trkpt lat="44.49006" lon="4.09191">
        <ele>582</ele>
        <time>2014-07-13T11:38:25Z</time>
      </trkpt>
      <trkpt lat="44.49022" lon="4.09195">
        <ele>579</ele>
        <time>2014-07-13T11:38:41Z</time>
      </trkpt>
      <trkpt lat="44.48983" lon="4.09202">
        <ele>581</ele>
        <time>2014-07-13T11:38:54Z</time>
      </trkpt>
      <trkpt lat="44.48978" lon="4.09201">
        <ele>580</ele>
        <time>2014-07-13T11:39:19Z</time>
      </trkpt>
      <trkpt lat="44.48955" lon="4.09201">
        <ele>579</ele>
        <time>2014-07-13T11:39:30Z</time>
      </trkpt>
      <trkpt lat="44.4891" lon="4.09177">
        <ele>581</ele>
        <time>2014-07-13T11:39:48Z</time>
      </trkpt>
      <trkpt lat="44.48895" lon="4.09184">
        <ele>576</ele>
        <time>2014-07-13T11:39:52Z</time>
      </trkpt>
      <trkpt lat="44.48874" lon="4.0919">
        <ele>572</ele>
        <time>2014-07-13T11:39:56Z</time>
      </trkpt>
      <trkpt lat="44.48857" lon="4.09194">
        <ele>571</ele>
        <time>2014-07-13T11:39:59Z</time>
      </trkpt>
      <trkpt lat="44.48852" lon="4.09197">
        <ele>570</ele>
        <time>2014-07-13T11:40:00Z</time>
      </trkpt>
      <trkpt lat="44.48835" lon="4.09207">
        <ele>568</ele>
        <time>2014-07-13T11:40:15Z</time>
      </trkpt>
      <trkpt lat="44.48833" lon="4.09206">
        <ele>559</ele>
        <time>2014-07-13T11:40:46Z</time>
      </trkpt>
      <trkpt lat="44.48828" lon="4.09213">
        <ele>557</ele>
        <time>2014-07-13T11:43:32Z</time>
      </trkpt>
      <trkpt lat="44.48829" lon="4.09205">
        <ele>559</ele>
        <time>2014-07-13T11:45:31Z</time>
      </trkpt>
      <trkpt lat="44.4883" lon="4.09207">
        <ele>558</ele>
        <time>2014-07-13T11:48:04Z</time>
      </trkpt>
      <trkpt lat="44.48827" lon="4.09208">
        <ele>558</ele>
        <time>2014-07-13T11:50:18Z</time>
      </trkpt>
      <trkpt lat="44.4883" lon="4.09207">
        <ele>558</ele>
        <time>2014-07-13T11:52:11Z</time>
      </trkpt>
      <trkpt lat="44.48829" lon="4.09206">
        <ele>559</ele>
        <time>2014-07-13T11:54:11Z</time>
      </trkpt>
      <trkpt lat="44.48829" lon="4.09207">
        <ele>558</ele>
        <time>2014-07-13T11:54:42Z</time>
      </trkpt>
      <trkpt lat="44.48829" lon="4.09207">
        <ele>558</ele>
        <time>2014-07-13T11:54:43Z</time>
      </trkpt>
      <trkpt lat="44.4883" lon="4.09209">
        <ele>558</ele>
        <time>2014-07-13T11:57:17Z</time>
      </trkpt>
      <trkpt lat="44.48827" lon="4.09213">
        <ele>557</ele>
        <time>2014-07-13T11:59:50Z</time>
      </trkpt>
      <trkpt lat="44.48829" lon="4.09211">
        <ele>557</ele>
        <time>2014-07-13T12:01:47Z</time>
      </trkpt>
      <trkpt lat="44.48826" lon="4.09219">
        <ele>555</ele>
        <time>2014-07-13T12:04:13Z</time>
      </trkpt>
      <trkpt lat="44.48816" lon="4.09231">
        <ele>553</ele>
        <time>2014-07-13T12:04:18Z</time>
      </trkpt>
      <trkpt lat="44.4881" lon="4.09236">
        <ele>552</ele>
        <time>2014-07-13T12:04:23Z</time>
      </trkpt>
      <trkpt lat="44.48795" lon="4.09231">
        <ele>552</ele>
        <time>2014-07-13T12:04:44Z</time>
      </trkpt>
      <trkpt lat="44.48793" lon="4.09228">
        <ele>552</ele>
        <time>2014-07-13T12:04:57Z</time>
      </trkpt>
      <trkpt lat="44.4879" lon="4.0922">
        <ele>552</ele>
        <time>2014-07-13T12:06:42Z</time>
      </trkpt>
      <trkpt lat="44.48778" lon="4.09203">
        <ele>553</ele>
        <time>2014-07-13T12:07:53Z</time>
      </trkpt>
      <trkpt lat="44.48756" lon="4.09142">
        <ele>566</ele>
        <time>2014-07-13T12:08:15Z</time>
      </trkpt>
      <trkpt lat="44.48751" lon="4.09052">
        <ele>579</ele>
        <time>2014-07-13T12:08:46Z</time>
      </trkpt>
      <trkpt lat="44.48752" lon="4.09003">
        <ele>576</ele>
        <time>2014-07-13T12:09:05Z</time>
      </trkpt>
      <trkpt lat="44.48752" lon="4.08997">
        <ele>578</ele>
        <time>2014-07-13T12:09:07Z</time>
      </trkpt>
      <trkpt lat="44.48709" lon="4.08954">
        <ele>587</ele>
        <time>2014-07-13T12:09:31Z</time>
      </trkpt>
      <trkpt lat="44.48684" lon="4.09036">
        <ele>570</ele>
        <time>2014-07-13T12:09:54Z</time>
      </trkpt>
      <trkpt lat="44.486" lon="4.09059">
        <ele>576</ele>
        <time>2014-07-13T12:10:28Z</time>
      </trkpt>
      <trkpt lat="44.4856" lon="4.09067">
        <ele>585</ele>
        <time>2014-07-13T12:10:46Z</time>
      </trkpt>
      <trkpt lat="44.48497" lon="4.09085">
        <ele>585</ele>
        <time>2014-07-13T12:11:09Z</time>
      </trkpt>
      <trkpt lat="44.48423" lon="4.09124">
        <ele>583</ele>
        <time>2014-07-13T12:11:38Z</time>
      </trkpt>
      <trkpt lat="44.48356" lon="4.09131">
        <ele>591</ele>
        <time>2014-07-13T12:12:12Z</time>
      </trkpt>
      <trkpt lat="44.48345" lon="4.0913">
        <ele>591</ele>
        <time>2014-07-13T12:13:00Z</time>
      </trkpt>
      <trkpt lat="44.48306" lon="4.09126">
        <ele>602</ele>
        <time>2014-07-13T12:13:25Z</time>
      </trkpt>
      <trkpt lat="44.48251" lon="4.09142">
        <ele>603</ele>
        <time>2014-07-13T12:13:52Z</time>
      </trkpt>
      <trkpt lat="44.48225" lon="4.09168">
        <ele>594</ele>
        <time>2014-07-13T12:14:04Z</time>
      </trkpt>
      <trkpt lat="44.48162" lon="4.09152">
        <ele>606</ele>
        <time>2014-07-13T12:14:26Z</time>
      </trkpt>
      <trkpt lat="44.48119" lon="4.09115">
        <ele>606</ele>
        <time>2014-07-13T12:14:51Z</time>
      </trkpt>
      <trkpt lat="44.48085" lon="4.0903">
        <ele>620</ele>
        <time>2014-07-13T12:15:17Z</time>
      </trkpt>
      <trkpt lat="44.4802" lon="4.08914">
        <ele>614</ele>
        <time>2014-07-13T12:15:53Z</time>
      </trkpt>
      <trkpt lat="44.48017" lon="4.08853">
        <ele>618</ele>
        <time>2014-07-13T12:16:08Z</time>
      </trkpt>
      <trkpt lat="44.48016" lon="4.08742">
        <ele>632</ele>
        <time>2014-07-13T12:16:35Z</time>
      </trkpt>
      <trkpt lat="44.48017" lon="4.08678">
        <ele>639</ele>
        <time>2014-07-13T12:16:53Z</time>
      </trkpt>
      <trkpt lat="44.48004" lon="4.0866">
        <ele>638</ele>
        <time>2014-07-13T12:17:02Z</time>
      </trkpt>
      <trkpt lat="44.47967" lon="4.0871">
        <ele>631</ele>
        <time>2014-07-13T12:17:28Z</time>
      </trkpt>
      <trkpt lat="44.47958" lon="4.0873">
        <ele>630</ele>
        <time>2014-07-13T12:17:35Z</time>
      </trkpt>
      <trkpt lat="44.47955" lon="4.08732">
        <ele>630</ele>
        <time>2014-07-13T12:17:36Z</time>
      </trkpt>
      <trkpt lat="44.47874" lon="4.08712">
        <ele>634</ele>
        <time>2014-07-13T12:18:05Z</time>
      </trkpt>
      <trkpt lat="44.47821" lon="4.08649">
        <ele>648</ele>
        <time>2014-07-13T12:18:30Z</time>
      </trkpt>
      <trkpt lat="44.47788" lon="4.08611">
        <ele>652</ele>
        <time>2014-07-13T12:18:52Z</time>
      </trkpt>
      <trkpt lat="44.47779" lon="4.08625">
        <ele>652</ele>
        <time>2014-07-13T12:19:00Z</time>
      </trkpt>
      <trkpt lat="44.47768" lon="4.08691">
        <ele>646</ele>
        <time>2014-07-13T12:19:26Z</time>
      </trkpt>
      <trkpt lat="44.47777" lon="4.08717">
        <ele>644</ele>
        <time>2014-07-13T12:19:35Z</time>
      </trkpt>
      <trkpt lat="44.47765" lon="4.08782">
        <ele>640</ele>
        <time>2014-07-13T12:19:57Z</time>
      </trkpt>
      <trkpt lat="44.47721" lon="4.08835">
        <ele>655</ele>
        <time>2014-07-13T12:20:23Z</time>
      </trkpt>
      <trkpt lat="44.4769" lon="4.08889">
        <ele>657</ele>
        <time>2014-07-13T12:20:44Z</time>
      </trkpt>
      <trkpt lat="44.47654" lon="4.08969">
        <ele>668</ele>
        <time>2014-07-13T12:21:06Z</time>
      </trkpt>
      <trkpt lat="44.47635" lon="4.0907">
        <ele>661</ele>
        <time>2014-07-13T12:21:28Z</time>
      </trkpt>
      <trkpt lat="44.47591" lon="4.0907">
        <ele>668</ele>
        <time>2014-07-13T12:21:41Z</time>
      </trkpt>
      <trkpt lat="44.47501" lon="4.09069">
        <ele>677</ele>
        <time>2014-07-13T12:22:10Z</time>
      </trkpt>
      <trkpt lat="44.47447" lon="4.09063">
        <ele>681</ele>
        <time>2014-07-13T12:22:33Z</time>
      </trkpt>
      <trkpt lat="44.4744" lon="4.09073">
        <ele>681</ele>
        <time>2014-07-13T12:22:48Z</time>
      </trkpt>
      <trkpt lat="44.47419" lon="4.09103">
        <ele>682</ele>
        <time>2014-07-13T12:23:24Z</time>
      </trkpt>
      <trkpt lat="44.47381" lon="4.09189">
        <ele>683</ele>
        <time>2014-07-13T12:23:51Z</time>
      </trkpt>
      <trkpt lat="44.47383" lon="4.09189">
        <ele>683</ele>
        <time>2014-07-13T12:24:14Z</time>
      </trkpt>
      <trkpt lat="44.47384" lon="4.09192">
        <ele>683</ele>
        <time>2014-07-13T12:26:10Z</time>
      </trkpt>
      <trkpt lat="44.4738" lon="4.09188">
        <ele>683</ele>
        <time>2014-07-13T12:27:47Z</time>
      </trkpt>
      <trkpt lat="44.47378" lon="4.09193">
        <ele>683</ele>
        <time>2014-07-13T12:30:06Z</time>
      </trkpt>
      <trkpt lat="44.47354" lon="4.09225">
        <ele>683</ele>
        <time>2014-07-13T12:30:21Z</time>
      </trkpt>
      <trkpt lat="44.47327" lon="4.09261">
        <ele>682</ele>
        <time>2014-07-13T12:30:32Z</time>
      </trkpt>
      <trkpt lat="44.47323" lon="4.09264">
        <ele>682</ele>
        <time>2014-07-13T12:30:33Z</time>
      </trkpt>
      <trkpt lat="44.47283" lon="4.09299">
        <ele>680</ele>
        <time>2014-07-13T12:30:42Z</time>
      </trkpt>
      <trkpt lat="44.47214" lon="4.09372">
        <ele>674</ele>
        <time>2014-07-13T12:30:56Z</time>
      </trkpt>
      <trkpt lat="44.47196" lon="4.0939">
        <ele>674</ele>
        <time>2014-07-13T12:30:59Z</time>
      </trkpt>
      <trkpt lat="44.47154" lon="4.09408">
        <ele>671</ele>
        <time>2014-07-13T12:31:05Z</time>
      </trkpt>
      <trkpt lat="44.47126" lon="4.09429">
        <ele>668</ele>
        <time>2014-07-13T12:31:10Z</time>
      </trkpt>
      <trkpt lat="44.47099" lon="4.0944">
        <ele>668</ele>
        <time>2014-07-13T12:31:14Z</time>
      </trkpt>
      <trkpt lat="44.47035" lon="4.09465">
        <ele>666</ele>
        <time>2014-07-13T12:31:23Z</time>
      </trkpt>
      <trkpt lat="44.47021" lon="4.09471">
        <ele>666</ele>
        <time>2014-07-13T12:31:25Z</time>
      </trkpt>
      <trkpt lat="44.46936" lon="4.09523">
        <ele>661</ele>
        <time>2014-07-13T12:31:39Z</time>
      </trkpt>
      <trkpt lat="44.4687" lon="4.09516">
        <ele>658</ele>
        <time>2014-07-13T12:32:00Z</time>
      </trkpt>
      <trkpt lat="44.46833" lon="4.09547">
        <ele>657</ele>
        <time>2014-07-13T12:32:09Z</time>
      </trkpt>
      <trkpt lat="44.46823" lon="4.09558">
        <ele>653</ele>
        <time>2014-07-13T12:32:11Z</time>
      </trkpt>
      <trkpt lat="44.46796" lon="4.09577">
        <ele>651</ele>
        <time>2014-07-13T12:32:15Z</time>
      </trkpt>
      <trkpt lat="44.46774" lon="4.09595">
        <ele>648</ele>
        <time>2014-07-13T12:32:18Z</time>
      </trkpt>
      <trkpt lat="44.467" lon="4.0965">
        <ele>642</ele>
        <time>2014-07-13T12:32:27Z</time>
      </trkpt>
      <trkpt lat="44.46694" lon="4.09657">
        <ele>642</ele>
        <time>2014-07-13T12:32:28Z</time>
      </trkpt>
      <trkpt lat="44.46675" lon="4.09689">
        <ele>641</ele>
        <time>2014-07-13T12:32:32Z</time>
      </trkpt>
      <trkpt lat="44.46664" lon="4.09715">
        <ele>641</ele>
        <time>2014-07-13T12:32:35Z</time>
      </trkpt>
      <trkpt lat="44.46643" lon="4.09741">
        <ele>641</ele>
        <time>2014-07-13T12:32:39Z</time>
      </trkpt>
      <trkpt lat="44.46582" lon="4.09791">
        <ele>636</ele>
        <time>2014-07-13T12:32:48Z</time>
      </trkpt>
      <trkpt lat="44.46566" lon="4.09798">
        <ele>636</ele>
        <time>2014-07-13T12:32:50Z</time>
      </trkpt>
      <trkpt lat="44.4652" lon="4.09797">
        <ele>633</ele>
        <time>2014-07-13T12:32:55Z</time>
      </trkpt>
      <trkpt lat="44.46481" lon="4.0979">
        <ele>628</ele>
        <time>2014-07-13T12:32:59Z</time>
      </trkpt>
      <trkpt lat="44.46471" lon="4.09786">
        <ele>628</ele>
        <time>2014-07-13T12:33:00Z</time>
      </trkpt>
      <trkpt lat="44.46415" lon="4.09759">
        <ele>625</ele>
        <time>2014-07-13T12:33:06Z</time>
      </trkpt>
      <trkpt lat="44.46397" lon="4.09746">
        <ele>622</ele>
        <time>2014-07-13T12:33:08Z</time>
      </trkpt>
      <trkpt lat="44.46366" lon="4.0972">
        <ele>619</ele>
        <time>2014-07-13T12:33:12Z</time>
      </trkpt>
      <trkpt lat="44.46345" lon="4.09704">
        <ele>618</ele>
        <time>2014-07-13T12:33:15Z</time>
      </trkpt>
      <trkpt lat="44.46289" lon="4.09707">
        <ele>612</ele>
        <time>2014-07-13T12:33:22Z</time>
      </trkpt>
      <trkpt lat="44.4625" lon="4.09716">
        <ele>609</ele>
        <time>2014-07-13T12:33:26Z</time>
      </trkpt>
      <trkpt lat="44.4621" lon="4.09721">
        <ele>604</ele>
        <time>2014-07-13T12:33:30Z</time>
      </trkpt>
      <trkpt lat="44.46171" lon="4.09725">
        <ele>602</ele>
        <time>2014-07-13T12:33:34Z</time>
      </trkpt>
      <trkpt lat="44.4614" lon="4.09726">
        <ele>598</ele>
        <time>2014-07-13T12:33:37Z</time>
      </trkpt>
      <trkpt lat="44.46109" lon="4.09736">
        <ele>597</ele>
        <time>2014-07-13T12:33:40Z</time>
      </trkpt>
      <trkpt lat="44.46089" lon="4.09745">
        <ele>596</ele>
        <time>2014-07-13T12:33:42Z</time>
      </trkpt>
      <trkpt lat="44.46035" lon="4.09771">
        <ele>590</ele>
        <time>2014-07-13T12:33:48Z</time>
      </trkpt>
      <trkpt lat="44.46021" lon="4.09789">
        <ele>590</ele>
        <time>2014-07-13T12:33:50Z</time>
      </trkpt>
      <trkpt lat="44.46008" lon="4.09808">
        <ele>589</ele>
        <time>2014-07-13T12:33:52Z</time>
      </trkpt>
      <trkpt lat="44.45995" lon="4.09826">
        <ele>587</ele>
        <time>2014-07-13T12:33:54Z</time>
      </trkpt>
      <trkpt lat="44.45983" lon="4.09837">
        <ele>585</ele>
        <time>2014-07-13T12:33:56Z</time>
      </trkpt>
      <trkpt lat="44.45954" lon="4.09841">
        <ele>582</ele>
        <time>2014-07-13T12:34:00Z</time>
      </trkpt>
      <trkpt lat="44.45921" lon="4.09834">
        <ele>580</ele>
        <time>2014-07-13T12:34:04Z</time>
      </trkpt>
      <trkpt lat="44.45893" lon="4.09821">
        <ele>575</ele>
        <time>2014-07-13T12:34:07Z</time>
      </trkpt>
      <trkpt lat="44.45857" lon="4.09795">
        <ele>572</ele>
        <time>2014-07-13T12:34:11Z</time>
      </trkpt>
      <trkpt lat="44.45802" lon="4.09745">
        <ele>558</ele>
        <time>2014-07-13T12:34:18Z</time>
      </trkpt>
      <trkpt lat="44.45796" lon="4.09741">
        <ele>558</ele>
        <time>2014-07-13T12:34:19Z</time>
      </trkpt>
      <trkpt lat="44.45775" lon="4.09762">
        <ele>564</ele>
        <time>2014-07-13T12:34:24Z</time>
      </trkpt>
      <trkpt lat="44.45777" lon="4.09796">
        <ele>565</ele>
        <time>2014-07-13T12:34:29Z</time>
      </trkpt>
      <trkpt lat="44.45803" lon="4.09857">
        <ele>564</ele>
        <time>2014-07-13T12:34:38Z</time>
      </trkpt>
      <trkpt lat="44.45807" lon="4.09864">
        <ele>564</ele>
        <time>2014-07-13T12:34:39Z</time>
      </trkpt>
      <trkpt lat="44.45814" lon="4.09878">
        <ele>564</ele>
        <time>2014-07-13T12:34:41Z</time>
      </trkpt>
      <trkpt lat="44.4582" lon="4.09923">
        <ele>558</ele>
        <time>2014-07-13T12:34:52Z</time>
      </trkpt>
      <trkpt lat="44.4582" lon="4.09925">
        <ele>558</ele>
        <time>2014-07-13T12:35:18Z</time>
      </trkpt>
      <trkpt lat="44.45822" lon="4.09955">
        <ele>554</ele>
        <time>2014-07-13T12:35:27Z</time>
      </trkpt>
      <trkpt lat="44.45838" lon="4.10004">
        <ele>555</ele>
        <time>2014-07-13T12:35:40Z</time>
      </trkpt>
      <trkpt lat="44.45867" lon="4.10084">
        <ele>545</ele>
        <time>2014-07-13T12:35:53Z</time>
      </trkpt>
      <trkpt lat="44.4587" lon="4.10102">
        <ele>545</ele>
        <time>2014-07-13T12:35:55Z</time>
      </trkpt>
      <trkpt lat="44.45887" lon="4.10202">
        <ele>538</ele>
        <time>2014-07-13T12:36:05Z</time>
      </trkpt>
      <trkpt lat="44.45915" lon="4.10295">
        <ele>531</ele>
        <time>2014-07-13T12:36:14Z</time>
      </trkpt>
      <trkpt lat="44.45925" lon="4.10384">
        <ele>531</ele>
        <time>2014-07-13T12:36:22Z</time>
      </trkpt>
      <trkpt lat="44.45948" lon="4.10449">
        <ele>521</ele>
        <time>2014-07-13T12:36:30Z</time>
      </trkpt>
      <trkpt lat="44.45954" lon="4.10451">
        <ele>521</ele>
        <time>2014-07-13T12:36:31Z</time>
      </trkpt>
      <trkpt lat="44.45992" lon="4.10426">
        <ele>524</ele>
        <time>2014-07-13T12:36:37Z</time>
      </trkpt>
      <trkpt lat="44.46005" lon="4.10401">
        <ele>522</ele>
        <time>2014-07-13T12:36:40Z</time>
      </trkpt>
      <trkpt lat="44.46009" lon="4.10393">
        <ele>520</ele>
        <time>2014-07-13T12:36:41Z</time>
      </trkpt>
      <trkpt lat="44.46016" lon="4.10399">
        <ele>520</ele>
        <time>2014-07-13T12:36:46Z</time>
      </trkpt>
      <trkpt lat="44.46014" lon="4.10403">
        <ele>520</ele>
        <time>2014-07-13T12:36:47Z</time>
      </trkpt>
      <trkpt lat="44.45983" lon="4.10465">
        <ele>519</ele>
        <time>2014-07-13T12:37:00Z</time>
      </trkpt>
      <trkpt lat="44.45949" lon="4.10507">
        <ele>509</ele>
        <time>2014-07-13T12:37:10Z</time>
      </trkpt>
      <trkpt lat="44.4594" lon="4.1051">
        <ele>510</ele>
        <time>2014-07-13T12:37:12Z</time>
      </trkpt>
      <trkpt lat="44.45934" lon="4.10511">
        <ele>511</ele>
        <time>2014-07-13T12:37:13Z</time>
      </trkpt>
      <trkpt lat="44.45895" lon="4.10487">
        <ele>510</ele>
        <time>2014-07-13T12:37:21Z</time>
      </trkpt>
      <trkpt lat="44.45892" lon="4.10481">
        <ele>510</ele>
        <time>2014-07-13T12:37:22Z</time>
      </trkpt>
      <trkpt lat="44.45886" lon="4.10452">
        <ele>509</ele>
        <time>2014-07-13T12:37:26Z</time>
      </trkpt>
      <trkpt lat="44.45885" lon="4.10444">
        <ele>509</ele>
        <time>2014-07-13T12:37:27Z</time>
      </trkpt>
      <trkpt lat="44.45875" lon="4.10438">
        <ele>507</ele>
        <time>2014-07-13T12:37:32Z</time>
      </trkpt>
      <trkpt lat="44.45875" lon="4.10442">
        <ele>507</ele>
        <time>2014-07-13T12:37:33Z</time>
      </trkpt>
      <trkpt lat="44.45875" lon="4.10451">
        <ele>507</ele>
        <time>2014-07-13T12:37:35Z</time>
      </trkpt>
      <trkpt lat="44.45875" lon="4.10494">
        <ele>506</ele>
        <time>2014-07-13T12:37:42Z</time>
      </trkpt>
      <trkpt lat="44.45889" lon="4.10531">
        <ele>500</ele>
        <time>2014-07-13T12:37:47Z</time>
      </trkpt>
      <trkpt lat="44.45936" lon="4.10573">
        <ele>503</ele>
        <time>2014-07-13T12:37:55Z</time>
      </trkpt>
      <trkpt lat="44.45944" lon="4.10573">
        <ele>503</ele>
        <time>2014-07-13T12:37:56Z</time>
      </trkpt>
      <trkpt lat="44.45957" lon="4.10573">
        <ele>502</ele>
        <time>2014-07-13T12:37:58Z</time>
      </trkpt>
      <trkpt lat="44.45983" lon="4.10562">
        <ele>500</ele>
        <time>2014-07-13T12:38:02Z</time>
      </trkpt>
      <trkpt lat="44.46" lon="4.10547">
        <ele>501</ele>
        <time>2014-07-13T12:38:05Z</time>
      </trkpt>
      <trkpt lat="44.46007" lon="4.10552">
        <ele>484</ele>
        <time>2014-07-13T12:38:11Z</time>
      </trkpt>
      <trkpt lat="44.46005" lon="4.10554">
        <ele>484</ele>
        <time>2014-07-13T12:38:12Z</time>
      </trkpt>
      <trkpt lat="44.45999" lon="4.10563">
        <ele>497</ele>
        <time>2014-07-13T12:38:15Z</time>
      </trkpt>
      <trkpt lat="44.45989" lon="4.10584">
        <ele>485</ele>
        <time>2014-07-13T12:38:19Z</time>
      </trkpt>
      <trkpt lat="44.45983" lon="4.10596">
        <ele>483</ele>
        <time>2014-07-13T12:38:21Z</time>
      </trkpt>
      <trkpt lat="44.45974" lon="4.10607">
        <ele>481</ele>
        <time>2014-07-13T12:38:23Z</time>
      </trkpt>
      <trkpt lat="44.4596" lon="4.10622">
        <ele>479</ele>
        <time>2014-07-13T12:38:26Z</time>
      </trkpt>
      <trkpt lat="44.45944" lon="4.10638">
        <ele>477</ele>
        <time>2014-07-13T12:38:29Z</time>
      </trkpt>
      <trkpt lat="44.45924" lon="4.10644">
        <ele>475</ele>
        <time>2014-07-13T12:38:33Z</time>
      </trkpt>
      <trkpt lat="44.45913" lon="4.10645">
        <ele>472</ele>
        <time>2014-07-13T12:38:35Z</time>
      </trkpt>
      <trkpt lat="44.45896" lon="4.10648">
        <ele>472</ele>
        <time>2014-07-13T12:38:38Z</time>
      </trkpt>
      <trkpt lat="44.45873" lon="4.10647">
        <ele>471</ele>
        <time>2014-07-13T12:38:45Z</time>
      </trkpt>
      <trkpt lat="44.45868" lon="4.1065">
        <ele>470</ele>
        <time>2014-07-13T12:38:57Z</time>
      </trkpt>
      <trkpt lat="44.45883" lon="4.10671">
        <ele>455</ele>
        <time>2014-07-13T12:39:08Z</time>
      </trkpt>
      <trkpt lat="44.45872" lon="4.10673">
        <ele>454</ele>
        <time>2014-07-13T12:39:11Z</time>
      </trkpt>
      <trkpt lat="44.45851" lon="4.1067">
        <ele>454</ele>
        <time>2014-07-13T12:39:16Z</time>
      </trkpt>
      <trkpt lat="44.45832" lon="4.10665">
        <ele>456</ele>
        <time>2014-07-13T12:39:22Z</time>
      </trkpt>
      <trkpt lat="44.4583" lon="4.10668">
        <ele>454</ele>
        <time>2014-07-13T12:39:23Z</time>
      </trkpt>
      <trkpt lat="44.45824" lon="4.1069">
        <ele>446</ele>
        <time>2014-07-13T12:39:27Z</time>
      </trkpt>
      <trkpt lat="44.4582" lon="4.10712">
        <ele>443</ele>
        <time>2014-07-13T12:39:32Z</time>
      </trkpt>
      <trkpt lat="44.45798" lon="4.1073">
        <ele>440</ele>
        <time>2014-07-13T12:39:39Z</time>
      </trkpt>
      <trkpt lat="44.45797" lon="4.10735">
        <ele>440</ele>
        <time>2014-07-13T12:39:40Z</time>
      </trkpt>
      <trkpt lat="44.45794" lon="4.10756">
        <ele>434</ele>
        <time>2014-07-13T12:39:43Z</time>
      </trkpt>
      <trkpt lat="44.45795" lon="4.10774">
        <ele>433</ele>
        <time>2014-07-13T12:39:45Z</time>
      </trkpt>
      <trkpt lat="44.45797" lon="4.10828">
        <ele>431</ele>
        <time>2014-07-13T12:39:50Z</time>
      </trkpt>
      <trkpt lat="44.45796" lon="4.1084">
        <ele>429</ele>
        <time>2014-07-13T12:39:51Z</time>
      </trkpt>
      <trkpt lat="44.45789" lon="4.10883">
        <ele>429</ele>
        <time>2014-07-13T12:39:56Z</time>
      </trkpt>
      <trkpt lat="44.45807" lon="4.11042">
        <ele>432</ele>
        <time>2014-07-13T12:40:18Z</time>
      </trkpt>
      <trkpt lat="44.45768" lon="4.11176">
        <ele>429</ele>
        <time>2014-07-13T12:40:34Z</time>
      </trkpt>
      <trkpt lat="44.4576" lon="4.11194">
        <ele>427</ele>
        <time>2014-07-13T12:40:36Z</time>
      </trkpt>
      <trkpt lat="44.45733" lon="4.11255">
        <ele>426</ele>
        <time>2014-07-13T12:40:42Z</time>
      </trkpt>
      <trkpt lat="44.45719" lon="4.1129">
        <ele>427</ele>
        <time>2014-07-13T12:40:45Z</time>
      </trkpt>
      <trkpt lat="44.45696" lon="4.11333">
        <ele>419</ele>
        <time>2014-07-13T12:40:49Z</time>
      </trkpt>
      <trkpt lat="44.45669" lon="4.11387">
        <ele>416</ele>
        <time>2014-07-13T12:40:54Z</time>
      </trkpt>
      <trkpt lat="44.45649" lon="4.11433">
        <ele>416</ele>
        <time>2014-07-13T12:40:58Z</time>
      </trkpt>
      <trkpt lat="44.45615" lon="4.11477">
        <ele>415</ele>
        <time>2014-07-13T12:41:03Z</time>
      </trkpt>
      <trkpt lat="44.45591" lon="4.1152">
        <ele>405</ele>
        <time>2014-07-13T12:41:07Z</time>
      </trkpt>
      <trkpt lat="44.4556" lon="4.11592">
        <ele>403</ele>
        <time>2014-07-13T12:41:13Z</time>
      </trkpt>
      <trkpt lat="44.45546" lon="4.1166">
        <ele>401</ele>
        <time>2014-07-13T12:41:19Z</time>
      </trkpt>
      <trkpt lat="44.45542" lon="4.1167">
        <ele>392</ele>
        <time>2014-07-13T12:41:20Z</time>
      </trkpt>
      <trkpt lat="44.45523" lon="4.11715">
        <ele>390</ele>
        <time>2014-07-13T12:41:25Z</time>
      </trkpt>
      <trkpt lat="44.45521" lon="4.11722">
        <ele>390</ele>
        <time>2014-07-13T12:41:26Z</time>
      </trkpt>
      <trkpt lat="44.45518" lon="4.11726">
        <ele>390</ele>
        <time>2014-07-13T12:41:52Z</time>
      </trkpt>
      <trkpt lat="44.45505" lon="4.11753">
        <ele>387</ele>
        <time>2014-07-13T12:42:02Z</time>
      </trkpt>
      <trkpt lat="44.45448" lon="4.11788">
        <ele>390</ele>
        <time>2014-07-13T12:42:25Z</time>
      </trkpt>
      <trkpt lat="44.45417" lon="4.11813">
        <ele>389</ele>
        <time>2014-07-13T12:42:36Z</time>
      </trkpt>
      <trkpt lat="44.4538" lon="4.1184">
        <ele>381</ele>
        <time>2014-07-13T12:42:49Z</time>
      </trkpt>
      <trkpt lat="44.45296" lon="4.11873">
        <ele>376</ele>
        <time>2014-07-13T12:43:06Z</time>
      </trkpt>
      <trkpt lat="44.45289" lon="4.11871">
        <ele>376</ele>
        <time>2014-07-13T12:43:07Z</time>
      </trkpt>
      <trkpt lat="44.4527" lon="4.11834">
        <ele>376</ele>
        <time>2014-07-13T12:43:13Z</time>
      </trkpt>
      <trkpt lat="44.4527" lon="4.11815">
        <ele>383</ele>
        <time>2014-07-13T12:43:15Z</time>
      </trkpt>
      <trkpt lat="44.45271" lon="4.11737">
        <ele>390</ele>
        <time>2014-07-13T12:43:25Z</time>
      </trkpt>
      <trkpt lat="44.45243" lon="4.11619">
        <ele>385</ele>
        <time>2014-07-13T12:43:43Z</time>
      </trkpt>
      <trkpt lat="44.45204" lon="4.11565">
        <ele>397</ele>
        <time>2014-07-13T12:43:54Z</time>
      </trkpt>
      <trkpt lat="44.45185" lon="4.11556">
        <ele>395</ele>
        <time>2014-07-13T12:43:58Z</time>
      </trkpt>
      <trkpt lat="44.4518" lon="4.11554">
        <ele>395</ele>
        <time>2014-07-13T12:43:59Z</time>
      </trkpt>
      <trkpt lat="44.4516" lon="4.1155">
        <ele>381</ele>
        <time>2014-07-13T12:44:03Z</time>
      </trkpt>
      <trkpt lat="44.45141" lon="4.11541">
        <ele>381</ele>
        <time>2014-07-13T12:44:07Z</time>
      </trkpt>
      <trkpt lat="44.45115" lon="4.11493">
        <ele>384</ele>
        <time>2014-07-13T12:44:17Z</time>
      </trkpt>
      <trkpt lat="44.45114" lon="4.11487">
        <ele>384</ele>
        <time>2014-07-13T12:44:18Z</time>
      </trkpt>
      <trkpt lat="44.45132" lon="4.11391">
        <ele>383</ele>
        <time>2014-07-13T12:44:35Z</time>
      </trkpt>
      <trkpt lat="44.45159" lon="4.11303">
        <ele>378</ele>
        <time>2014-07-13T12:44:49Z</time>
      </trkpt>
      <trkpt lat="44.4523" lon="4.11161">
        <ele>382</ele>
        <time>2014-07-13T12:45:16Z</time>
      </trkpt>
      <trkpt lat="44.4529" lon="4.11063">
        <ele>382</ele>
        <time>2014-07-13T12:45:37Z</time>
      </trkpt>
      <trkpt lat="44.45311" lon="4.11021">
        <ele>381</ele>
        <time>2014-07-13T12:45:43Z</time>
      </trkpt>
      <trkpt lat="44.45313" lon="4.11015">
        <ele>381</ele>
        <time>2014-07-13T12:45:44Z</time>
      </trkpt>
      <trkpt lat="44.45353" lon="4.10986">
        <ele>376</ele>
        <time>2014-07-13T12:45:55Z</time>
      </trkpt>
      <trkpt lat="44.4543" lon="4.10947">
        <ele>382</ele>
        <time>2014-07-13T12:46:12Z</time>
      </trkpt>
      <trkpt lat="44.45435" lon="4.10944">
        <ele>381</ele>
        <time>2014-07-13T12:46:13Z</time>
      </trkpt>
      <trkpt lat="44.45457" lon="4.10925">
        <ele>383</ele>
        <time>2014-07-13T12:46:18Z</time>
      </trkpt>
      <trkpt lat="44.45491" lon="4.109">
        <ele>377</ele>
        <time>2014-07-13T12:46:27Z</time>
      </trkpt>
      <trkpt lat="44.4553" lon="4.10824">
        <ele>379</ele>
        <time>2014-07-13T12:46:42Z</time>
      </trkpt>
      <trkpt lat="44.45545" lon="4.10785">
        <ele>381</ele>
        <time>2014-07-13T12:46:49Z</time>
      </trkpt>
      <trkpt lat="44.45548" lon="4.10771">
        <ele>381</ele>
        <time>2014-07-13T12:46:51Z</time>
      </trkpt>
      <trkpt lat="44.45581" lon="4.10644">
        <ele>376</ele>
        <time>2014-07-13T12:47:09Z</time>
      </trkpt>
      <trkpt lat="44.45586" lon="4.10619">
        <ele>391</ele>
        <time>2014-07-13T12:47:13Z</time>
      </trkpt>
      <trkpt lat="44.456" lon="4.1057">
        <ele>389</ele>
        <time>2014-07-13T12:47:21Z</time>
      </trkpt>
      <trkpt lat="44.45602" lon="4.10565">
        <ele>390</ele>
        <time>2014-07-13T12:47:22Z</time>
      </trkpt>
      <trkpt lat="44.45604" lon="4.10545">
        <ele>391</ele>
        <time>2014-07-13T12:47:25Z</time>
      </trkpt>
      <trkpt lat="44.45607" lon="4.10448">
        <ele>393</ele>
        <time>2014-07-13T12:47:42Z</time>
      </trkpt>
      <trkpt lat="44.45612" lon="4.10415">
        <ele>399</ele>
        <time>2014-07-13T12:47:47Z</time>
      </trkpt>
      <trkpt lat="44.45595" lon="4.10394">
        <ele>397</ele>
        <time>2014-07-13T12:47:53Z</time>
      </trkpt>
      <trkpt lat="44.4556" lon="4.10416">
        <ele>390</ele>
        <time>2014-07-13T12:48:00Z</time>
      </trkpt>
      <trkpt lat="44.45546" lon="4.10418">
        <ele>380</ele>
        <time>2014-07-13T12:48:02Z</time>
      </trkpt>
      <trkpt lat="44.45527" lon="4.10428">
        <ele>380</ele>
        <time>2014-07-13T12:48:05Z</time>
      </trkpt>
      <trkpt lat="44.45492" lon="4.10444">
        <ele>377</ele>
        <time>2014-07-13T12:48:10Z</time>
      </trkpt>
      <trkpt lat="44.45484" lon="4.10446">
        <ele>376</ele>
        <time>2014-07-13T12:48:11Z</time>
      </trkpt>
      <trkpt lat="44.45446" lon="4.10454">
        <ele>375</ele>
        <time>2014-07-13T12:48:16Z</time>
      </trkpt>
      <trkpt lat="44.4544" lon="4.10457">
        <ele>375</ele>
        <time>2014-07-13T12:48:17Z</time>
      </trkpt>
      <trkpt lat="44.45428" lon="4.10463">
        <ele>374</ele>
        <time>2014-07-13T12:48:19Z</time>
      </trkpt>
      <trkpt lat="44.45389" lon="4.10469">
        <ele>370</ele>
        <time>2014-07-13T12:48:25Z</time>
      </trkpt>
      <trkpt lat="44.45372" lon="4.10474">
        <ele>368</ele>
        <time>2014-07-13T12:48:29Z</time>
      </trkpt>
      <trkpt lat="44.45263" lon="4.10432">
        <ele>360</ele>
        <time>2014-07-13T12:48:47Z</time>
      </trkpt>
      <trkpt lat="44.45255" lon="4.10428">
        <ele>360</ele>
        <time>2014-07-13T12:48:48Z</time>
      </trkpt>
      <trkpt lat="44.45207" lon="4.10406">
        <ele>359</ele>
        <time>2014-07-13T12:48:55Z</time>
      </trkpt>
      <trkpt lat="44.45183" lon="4.10372">
        <ele>359</ele>
        <time>2014-07-13T12:49:00Z</time>
      </trkpt>
      <trkpt lat="44.45167" lon="4.10349">
        <ele>355</ele>
        <time>2014-07-13T12:49:04Z</time>
      </trkpt>
      <trkpt lat="44.45146" lon="4.10282">
        <ele>358</ele>
        <time>2014-07-13T12:49:15Z</time>
      </trkpt>
      <trkpt lat="44.45171" lon="4.10191">
        <ele>368</ele>
        <time>2014-07-13T12:49:35Z</time>
      </trkpt>
      <trkpt lat="44.45158" lon="4.10174">
        <ele>362</ele>
        <time>2014-07-13T12:49:41Z</time>
      </trkpt>
      <trkpt lat="44.4512" lon="4.10133">
        <ele>354</ele>
        <time>2014-07-13T12:49:53Z</time>
      </trkpt>
      <trkpt lat="44.45126" lon="4.10097">
        <ele>355</ele>
        <time>2014-07-13T12:49:59Z</time>
      </trkpt>
      <trkpt lat="44.45159" lon="4.1001">
        <ele>358</ele>
        <time>2014-07-13T12:50:13Z</time>
      </trkpt>
      <trkpt lat="44.45152" lon="4.09986">
        <ele>354</ele>
        <time>2014-07-13T12:50:17Z</time>
      </trkpt>
      <trkpt lat="44.45148" lon="4.09982">
        <ele>353</ele>
        <time>2014-07-13T12:50:18Z</time>
      </trkpt>
      <trkpt lat="44.45137" lon="4.0992">
        <ele>351</ele>
        <time>2014-07-13T12:50:28Z</time>
      </trkpt>
      <trkpt lat="44.4519" lon="4.09848">
        <ele>360</ele>
        <time>2014-07-13T12:50:46Z</time>
      </trkpt>
      <trkpt lat="44.45219" lon="4.09835">
        <ele>364</ele>
        <time>2014-07-13T12:50:56Z</time>
      </trkpt>
      <trkpt lat="44.45265" lon="4.09859">
        <ele>378</ele>
        <time>2014-07-13T12:51:14Z</time>
      </trkpt>
      <trkpt lat="44.45285" lon="4.09884">
        <ele>382</ele>
        <time>2014-07-13T12:51:26Z</time>
      </trkpt>
      <trkpt lat="44.45308" lon="4.0988">
        <ele>383</ele>
        <time>2014-07-13T12:51:40Z</time>
      </trkpt>
      <trkpt lat="44.45286" lon="4.09812">
        <ele>379</ele>
        <time>2014-07-13T12:51:57Z</time>
      </trkpt>
      <trkpt lat="44.45269" lon="4.09749">
        <ele>372</ele>
        <time>2014-07-13T12:52:12Z</time>
      </trkpt>
      <trkpt lat="44.45308" lon="4.09653">
        <ele>376</ele>
        <time>2014-07-13T12:52:36Z</time>
      </trkpt>
      <trkpt lat="44.4534" lon="4.096">
        <ele>381</ele>
        <time>2014-07-13T12:52:51Z</time>
      </trkpt>
      <trkpt lat="44.45371" lon="4.09596">
        <ele>388</ele>
        <time>2014-07-13T12:53:01Z</time>
      </trkpt>
      <trkpt lat="44.45413" lon="4.09594">
        <ele>390</ele>
        <time>2014-07-13T12:53:14Z</time>
      </trkpt>
      <trkpt lat="44.45445" lon="4.09561">
        <ele>392</ele>
        <time>2014-07-13T12:53:26Z</time>
      </trkpt>
      <trkpt lat="44.45478" lon="4.09518">
        <ele>393</ele>
        <time>2014-07-13T12:53:40Z</time>
      </trkpt>
      <trkpt lat="44.45544" lon="4.09459">
        <ele>404</ele>
        <time>2014-07-13T12:54:05Z</time>
      </trkpt>
      <trkpt lat="44.45607" lon="4.09383">
        <ele>413</ele>
        <time>2014-07-13T12:54:31Z</time>
      </trkpt>
      <trkpt lat="44.45673" lon="4.09385">
        <ele>424</ele>
        <time>2014-07-13T12:54:54Z</time>
      </trkpt>
      <trkpt lat="44.45686" lon="4.0933">
        <ele>426</ele>
        <time>2014-07-13T12:55:08Z</time>
      </trkpt>
      <trkpt lat="44.45669" lon="4.09333">
        <ele>418</ele>
        <time>2014-07-13T12:55:14Z</time>
      </trkpt>
      <trkpt lat="44.45609" lon="4.09315">
        <ele>429</ele>
        <time>2014-07-13T12:55:32Z</time>
      </trkpt>
      <trkpt lat="44.45556" lon="4.09334">
        <ele>411</ele>
        <time>2014-07-13T12:55:46Z</time>
      </trkpt>
      <trkpt lat="44.4553" lon="4.09343">
        <ele>410</ele>
        <time>2014-07-13T12:55:51Z</time>
      </trkpt>
      <trkpt lat="44.45459" lon="4.09341">
        <ele>407</ele>
        <time>2014-07-13T12:56:05Z</time>
      </trkpt>
      <trkpt lat="44.4545" lon="4.09332">
        <ele>427</ele>
        <time>2014-07-13T12:56:07Z</time>
      </trkpt>
      <trkpt lat="44.45446" lon="4.09328">
        <ele>427</ele>
        <time>2014-07-13T12:56:08Z</time>
      </trkpt>
      <trkpt lat="44.45419" lon="4.09337">
        <ele>414</ele>
        <time>2014-07-13T12:56:14Z</time>
      </trkpt>
      <trkpt lat="44.45416" lon="4.09344">
        <ele>412</ele>
        <time>2014-07-13T12:56:15Z</time>
      </trkpt>
      <trkpt lat="44.45408" lon="4.09355">
        <ele>408</ele>
        <time>2014-07-13T12:56:17Z</time>
      </trkpt>
      <trkpt lat="44.45388" lon="4.09379">
        <ele>402</ele>
        <time>2014-07-13T12:56:21Z</time>
      </trkpt>
      <trkpt lat="44.45359" lon="4.0937">
        <ele>405</ele>
        <time>2014-07-13T12:56:27Z</time>
      </trkpt>
      <trkpt lat="44.45331" lon="4.0936">
        <ele>416</ele>
        <time>2014-07-13T12:56:32Z</time>
      </trkpt>
      <trkpt lat="44.45325" lon="4.09359">
        <ele>416</ele>
        <time>2014-07-13T12:56:33Z</time>
      </trkpt>
      <trkpt lat="44.45295" lon="4.09388">
        <ele>412</ele>
        <time>2014-07-13T12:56:39Z</time>
      </trkpt>
      <trkpt lat="44.45281" lon="4.09394">
        <ele>413</ele>
        <time>2014-07-13T12:56:41Z</time>
      </trkpt>
      <trkpt lat="44.45267" lon="4.09398">
        <ele>414</ele>
        <time>2014-07-13T12:56:43Z</time>
      </trkpt>
      <trkpt lat="44.45245" lon="4.09426">
        <ele>410</ele>
        <time>2014-07-13T12:56:48Z</time>
      </trkpt>
      <trkpt lat="44.4524" lon="4.09439">
        <ele>409</ele>
        <time>2014-07-13T12:56:50Z</time>
      </trkpt>
      <trkpt lat="44.45182" lon="4.09511">
        <ele>395</ele>
        <time>2014-07-13T12:57:03Z</time>
      </trkpt>
      <trkpt lat="44.45144" lon="4.09516">
        <ele>402</ele>
        <time>2014-07-13T12:57:10Z</time>
      </trkpt>
      <trkpt lat="44.45128" lon="4.09509">
        <ele>403</ele>
        <time>2014-07-13T12:57:13Z</time>
      </trkpt>
      <trkpt lat="44.45112" lon="4.09526">
        <ele>402</ele>
        <time>2014-07-13T12:57:17Z</time>
      </trkpt>
      <trkpt lat="44.45101" lon="4.09551">
        <ele>398</ele>
        <time>2014-07-13T12:57:21Z</time>
      </trkpt>
      <trkpt lat="44.45064" lon="4.09566">
        <ele>398</ele>
        <time>2014-07-13T12:57:30Z</time>
      </trkpt>
      <trkpt lat="44.4504" lon="4.09538">
        <ele>402</ele>
        <time>2014-07-13T12:57:36Z</time>
      </trkpt>
      <trkpt lat="44.45019" lon="4.09478">
        <ele>417</ele>
        <time>2014-07-13T12:57:44Z</time>
      </trkpt>
      <trkpt lat="44.45018" lon="4.0947">
        <ele>418</ele>
        <time>2014-07-13T12:57:45Z</time>
      </trkpt>
      <trkpt lat="44.45002" lon="4.09469">
        <ele>417</ele>
        <time>2014-07-13T12:57:50Z</time>
      </trkpt>
      <trkpt lat="44.45" lon="4.09475">
        <ele>418</ele>
        <time>2014-07-13T12:57:51Z</time>
      </trkpt>
      <trkpt lat="44.4499" lon="4.0951">
        <ele>408</ele>
        <time>2014-07-13T12:57:57Z</time>
      </trkpt>
      <trkpt lat="44.44985" lon="4.09521">
        <ele>408</ele>
        <time>2014-07-13T12:57:59Z</time>
      </trkpt>
      <trkpt lat="44.44976" lon="4.09537">
        <ele>408</ele>
        <time>2014-07-13T12:58:02Z</time>
      </trkpt>
      <trkpt lat="44.44953" lon="4.09595">
        <ele>399</ele>
        <time>2014-07-13T12:58:14Z</time>
      </trkpt>
      <trkpt lat="44.44928" lon="4.09628">
        <ele>400</ele>
        <time>2014-07-13T12:58:25Z</time>
      </trkpt>
      <trkpt lat="44.44867" lon="4.09755">
        <ele>402</ele>
        <time>2014-07-13T12:58:58Z</time>
      </trkpt>
      <trkpt lat="44.44865" lon="4.09765">
        <ele>402</ele>
        <time>2014-07-13T12:59:00Z</time>
      </trkpt>
      <trkpt lat="44.44863" lon="4.09769">
        <ele>402</ele>
        <time>2014-07-13T12:59:01Z</time>
      </trkpt>
      <trkpt lat="44.44834" lon="4.09825">
        <ele>404</ele>
        <time>2014-07-13T12:59:15Z</time>
      </trkpt>
      <trkpt lat="44.44814" lon="4.09839">
        <ele>405</ele>
        <time>2014-07-13T12:59:20Z</time>
      </trkpt>
      <trkpt lat="44.44796" lon="4.09847">
        <ele>405</ele>
        <time>2014-07-13T12:59:24Z</time>
      </trkpt>
      <trkpt lat="44.44749" lon="4.0989">
        <ele>413</ele>
        <time>2014-07-13T12:59:37Z</time>
      </trkpt>
      <trkpt lat="44.44718" lon="4.09941">
        <ele>414</ele>
        <time>2014-07-13T12:59:50Z</time>
      </trkpt>
      <trkpt lat="44.44716" lon="4.09947">
        <ele>414</ele>
        <time>2014-07-13T12:59:51Z</time>
      </trkpt>
      <trkpt lat="44.44681" lon="4.10051">
        <ele>414</ele>
        <time>2014-07-13T13:00:14Z</time>
      </trkpt>
      <trkpt lat="44.44663" lon="4.10128">
        <ele>413</ele>
        <time>2014-07-13T13:00:31Z</time>
      </trkpt>
      <trkpt lat="44.44651" lon="4.10132">
        <ele>413</ele>
        <time>2014-07-13T13:00:35Z</time>
      </trkpt>
      <trkpt lat="44.44615" lon="4.10085">
        <ele>413</ele>
        <time>2014-07-13T13:00:56Z</time>
      </trkpt>
      <trkpt lat="44.44621" lon="4.10088">
        <ele>414</ele>
        <time>2014-07-13T13:01:54Z</time>
      </trkpt>
      <trkpt lat="44.44615" lon="4.10079">
        <ele>417</ele>
        <time>2014-07-13T13:03:45Z</time>
      </trkpt>
      <trkpt lat="44.44596" lon="4.09973">
        <ele>419</ele>
        <time>2014-07-13T13:04:06Z</time>
      </trkpt>
      <trkpt lat="44.44607" lon="4.09922">
        <ele>419</ele>
        <time>2014-07-13T13:04:16Z</time>
      </trkpt>
      <trkpt lat="44.44623" lon="4.09855">
        <ele>419</ele>
        <time>2014-07-13T13:04:29Z</time>
      </trkpt>
      <trkpt lat="44.44683" lon="4.09763">
        <ele>417</ele>
        <time>2014-07-13T13:04:52Z</time>
      </trkpt>
      <trkpt lat="44.44673" lon="4.09728">
        <ele>419</ele>
        <time>2014-07-13T13:04:58Z</time>
      </trkpt>
      <trkpt lat="44.44667" lon="4.09723">
        <ele>419</ele>
        <time>2014-07-13T13:04:59Z</time>
      </trkpt>
      <trkpt lat="44.4465" lon="4.09678">
        <ele>415</ele>
        <time>2014-07-13T13:05:04Z</time>
      </trkpt>
      <trkpt lat="44.4465" lon="4.09668">
        <ele>415</ele>
        <time>2014-07-13T13:05:05Z</time>
      </trkpt>
      <trkpt lat="44.44648" lon="4.09649">
        <ele>414</ele>
        <time>2014-07-13T13:05:07Z</time>
      </trkpt>
      <trkpt lat="44.44625" lon="4.09634">
        <ele>412</ele>
        <time>2014-07-13T13:05:12Z</time>
      </trkpt>
      <trkpt lat="44.44618" lon="4.09636">
        <ele>411</ele>
        <time>2014-07-13T13:05:13Z</time>
      </trkpt>
      <trkpt lat="44.44577" lon="4.09648">
        <ele>404</ele>
        <time>2014-07-13T13:05:18Z</time>
      </trkpt>
      <trkpt lat="44.44538" lon="4.09656">
        <ele>402</ele>
        <time>2014-07-13T13:05:23Z</time>
      </trkpt>
      <trkpt lat="44.44509" lon="4.09661">
        <ele>400</ele>
        <time>2014-07-13T13:05:27Z</time>
      </trkpt>
      <trkpt lat="44.44463" lon="4.09684">
        <ele>396</ele>
        <time>2014-07-13T13:05:33Z</time>
      </trkpt>
      <trkpt lat="44.4444" lon="4.09699">
        <ele>395</ele>
        <time>2014-07-13T13:05:36Z</time>
      </trkpt>
      <trkpt lat="44.44373" lon="4.09742">
        <ele>390</ele>
        <time>2014-07-13T13:05:44Z</time>
      </trkpt>
      <trkpt lat="44.44365" lon="4.09745">
        <ele>390</ele>
        <time>2014-07-13T13:05:45Z</time>
      </trkpt>
      <trkpt lat="44.44312" lon="4.09747">
        <ele>392</ele>
        <time>2014-07-13T13:05:54Z</time>
      </trkpt>
      <trkpt lat="44.44299" lon="4.09753">
        <ele>391</ele>
        <time>2014-07-13T13:05:57Z</time>
      </trkpt>
      <trkpt lat="44.44294" lon="4.09756">
        <ele>391</ele>
        <time>2014-07-13T13:05:58Z</time>
      </trkpt>
      <trkpt lat="44.44231" lon="4.09788">
        <ele>398</ele>
        <time>2014-07-13T13:06:15Z</time>
      </trkpt>
      <trkpt lat="44.44194" lon="4.09823">
        <ele>400</ele>
        <time>2014-07-13T13:06:28Z</time>
      </trkpt>
      <trkpt lat="44.44098" lon="4.09918">
        <ele>402</ele>
        <time>2014-07-13T13:06:59Z</time>
      </trkpt>
      <trkpt lat="44.44088" lon="4.09925">
        <ele>403</ele>
        <time>2014-07-13T13:07:02Z</time>
      </trkpt>
      <trkpt lat="44.44026" lon="4.09909">
        <ele>406</ele>
        <time>2014-07-13T13:07:20Z</time>
      </trkpt>
      <trkpt lat="44.4396" lon="4.09816">
        <ele>402</ele>
        <time>2014-07-13T13:07:43Z</time>
      </trkpt>
      <trkpt lat="44.43956" lon="4.09815">
        <ele>402</ele>
        <time>2014-07-13T13:07:44Z</time>
      </trkpt>
      <trkpt lat="44.43901" lon="4.09804">
        <ele>400</ele>
        <time>2014-07-13T13:07:54Z</time>
      </trkpt>
      <trkpt lat="44.43894" lon="4.09803">
        <ele>400</ele>
        <time>2014-07-13T13:07:55Z</time>
      </trkpt>
      <trkpt lat="44.43824" lon="4.09792">
        <ele>398</ele>
        <time>2014-07-13T13:08:05Z</time>
      </trkpt>
      <trkpt lat="44.43712" lon="4.0988">
        <ele>393</ele>
        <time>2014-07-13T13:08:24Z</time>
      </trkpt>
      <trkpt lat="44.43616" lon="4.1002">
        <ele>394</ele>
        <time>2014-07-13T13:08:46Z</time>
      </trkpt>
      <trkpt lat="44.43606" lon="4.10051">
        <ele>394</ele>
        <time>2014-07-13T13:08:50Z</time>
      </trkpt>
      <trkpt lat="44.43576" lon="4.10152">
        <ele>393</ele>
        <time>2014-07-13T13:09:04Z</time>
      </trkpt>
      <trkpt lat="44.43498" lon="4.10355">
        <ele>392</ele>
        <time>2014-07-13T13:09:36Z</time>
      </trkpt>
      <trkpt lat="44.43498" lon="4.1036">
        <ele>392</ele>
        <time>2014-07-13T13:09:37Z</time>
      </trkpt>
      <trkpt lat="44.43466" lon="4.10564">
        <ele>387</ele>
        <time>2014-07-13T13:10:09Z</time>
      </trkpt>
      <trkpt lat="44.43457" lon="4.10629">
        <ele>383</ele>
        <time>2014-07-13T13:10:15Z</time>
      </trkpt>
      <trkpt lat="44.43435" lon="4.10722">
        <ele>377</ele>
        <time>2014-07-13T13:10:22Z</time>
      </trkpt>
      <trkpt lat="44.43404" lon="4.10837">
        <ele>370</ele>
        <time>2014-07-13T13:10:31Z</time>
      </trkpt>
      <trkpt lat="44.43357" lon="4.11012">
        <ele>362</ele>
        <time>2014-07-13T13:10:45Z</time>
      </trkpt>
      <trkpt lat="44.43333" lon="4.11104">
        <ele>359</ele>
        <time>2014-07-13T13:10:53Z</time>
      </trkpt>
      <trkpt lat="44.4333" lon="4.11115">
        <ele>359</ele>
        <time>2014-07-13T13:10:54Z</time>
      </trkpt>
      <trkpt lat="44.43263" lon="4.11218">
        <ele>360</ele>
        <time>2014-07-13T13:11:08Z</time>
      </trkpt>
      <trkpt lat="44.43278" lon="4.11261">
        <ele>360</ele>
        <time>2014-07-13T13:11:22Z</time>
      </trkpt>
      <trkpt lat="44.43284" lon="4.11276">
        <ele>359</ele>
        <time>2014-07-13T13:11:44Z</time>
      </trkpt>
      <trkpt lat="44.43284" lon="4.11274">
        <ele>360</ele>
        <time>2014-07-13T13:13:42Z</time>
      </trkpt>
      <trkpt lat="44.4329" lon="4.11275">
        <ele>359</ele>
        <time>2014-07-13T13:15:17Z</time>
      </trkpt>
      <trkpt lat="44.43295" lon="4.1133">
        <ele>358</ele>
        <time>2014-07-13T13:15:31Z</time>
      </trkpt>
      <trkpt lat="44.4329" lon="4.11408">
        <ele>352</ele>
        <time>2014-07-13T13:15:42Z</time>
      </trkpt>
      <trkpt lat="44.43275" lon="4.11485">
        <ele>346</ele>
        <time>2014-07-13T13:15:53Z</time>
      </trkpt>
      <trkpt lat="44.4325" lon="4.11617">
        <ele>345</ele>
        <time>2014-07-13T13:16:15Z</time>
      </trkpt>
      <trkpt lat="44.43245" lon="4.11697">
        <ele>341</ele>
        <time>2014-07-13T13:16:29Z</time>
      </trkpt>
      <trkpt lat="44.43216" lon="4.11793">
        <ele>338</ele>
        <time>2014-07-13T13:16:46Z</time>
      </trkpt>
      <trkpt lat="44.43164" lon="4.11918">
        <ele>339</ele>
        <time>2014-07-13T13:17:04Z</time>
      </trkpt>
      <trkpt lat="44.43148" lon="4.11932">
        <ele>336</ele>
        <time>2014-07-13T13:17:07Z</time>
      </trkpt>
      <trkpt lat="44.43104" lon="4.11974">
        <ele>334</ele>
        <time>2014-07-13T13:17:15Z</time>
      </trkpt>
      <trkpt lat="44.43092" lon="4.12019">
        <ele>330</ele>
        <time>2014-07-13T13:17:21Z</time>
      </trkpt>
      <trkpt lat="44.43059" lon="4.1209">
        <ele>324</ele>
        <time>2014-07-13T13:17:34Z</time>
      </trkpt>
      <trkpt lat="44.43036" lon="4.12154">
        <ele>321</ele>
        <time>2014-07-13T13:17:42Z</time>
      </trkpt>
      <trkpt lat="44.43027" lon="4.12182">
        <ele>316</ele>
        <time>2014-07-13T13:17:45Z</time>
      </trkpt>
      <trkpt lat="44.42991" lon="4.12255">
        <ele>316</ele>
        <time>2014-07-13T13:17:53Z</time>
      </trkpt>
      <trkpt lat="44.42967" lon="4.123">
        <ele>313</ele>
        <time>2014-07-13T13:17:58Z</time>
      </trkpt>
      <trkpt lat="44.42941" lon="4.12412">
        <ele>310</ele>
        <time>2014-07-13T13:18:12Z</time>
      </trkpt>
      <trkpt lat="44.42939" lon="4.12443">
        <ele>304</ele>
        <time>2014-07-13T13:18:16Z</time>
      </trkpt>
      <trkpt lat="44.42937" lon="4.12466">
        <ele>303</ele>
        <time>2014-07-13T13:18:19Z</time>
      </trkpt>
      <trkpt lat="44.42902" lon="4.12546">
        <ele>304</ele>
        <time>2014-07-13T13:18:31Z</time>
      </trkpt>
      <trkpt lat="44.42893" lon="4.12566">
        <ele>303</ele>
        <time>2014-07-13T13:18:34Z</time>
      </trkpt>
      <trkpt lat="44.42884" lon="4.12626">
        <ele>302</ele>
        <time>2014-07-13T13:18:42Z</time>
      </trkpt>
      <trkpt lat="44.42871" lon="4.12694">
        <ele>300</ele>
        <time>2014-07-13T13:19:05Z</time>
      </trkpt>
      <trkpt lat="44.4287" lon="4.12696">
        <ele>300</ele>
        <time>2014-07-13T13:19:15Z</time>
      </trkpt>
      <trkpt lat="44.42875" lon="4.12712">
        <ele>300</ele>
        <time>2014-07-13T13:19:22Z</time>
      </trkpt>
      <trkpt lat="44.42881" lon="4.12755">
        <ele>296</ele>
        <time>2014-07-13T13:19:46Z</time>
      </trkpt>
      <trkpt lat="44.42883" lon="4.12752">
        <ele>296</ele>
        <time>2014-07-13T13:20:08Z</time>
      </trkpt>
      <trkpt lat="44.4287" lon="4.12695">
        <ele>300</ele>
        <time>2014-07-13T13:20:25Z</time>
      </trkpt>
      <trkpt lat="44.42843" lon="4.12637">
        <ele>303</ele>
        <time>2014-07-13T13:20:41Z</time>
      </trkpt>
      <trkpt lat="44.42806" lon="4.1263">
        <ele>302</ele>
        <time>2014-07-13T13:21:00Z</time>
      </trkpt>
      <trkpt lat="44.42787" lon="4.12647">
        <ele>301</ele>
        <time>2014-07-13T13:21:09Z</time>
      </trkpt>
      <trkpt lat="44.42761" lon="4.12672">
        <ele>299</ele>
        <time>2014-07-13T13:21:15Z</time>
      </trkpt>
      <trkpt lat="44.42711" lon="4.12648">
        <ele>294</ele>
        <time>2014-07-13T13:21:31Z</time>
      </trkpt>
      <trkpt lat="44.4266" lon="4.12582">
        <ele>286</ele>
        <time>2014-07-13T13:21:51Z</time>
      </trkpt>
      <trkpt lat="44.42646" lon="4.12635">
        <ele>286</ele>
        <time>2014-07-13T13:22:07Z</time>
      </trkpt>
      <trkpt lat="44.42656" lon="4.12684">
        <ele>287</ele>
        <time>2014-07-13T13:22:17Z</time>
      </trkpt>
      <trkpt lat="44.42671" lon="4.12759">
        <ele>286</ele>
        <time>2014-07-13T13:22:30Z</time>
      </trkpt>
      <trkpt lat="44.42715" lon="4.12818">
        <ele>284</ele>
        <time>2014-07-13T13:22:43Z</time>
      </trkpt>
      <trkpt lat="44.42735" lon="4.12907">
        <ele>274</ele>
        <time>2014-07-13T13:22:56Z</time>
      </trkpt>
      <trkpt lat="44.42735" lon="4.12933">
        <ele>267</ele>
        <time>2014-07-13T13:23:00Z</time>
      </trkpt>
      <trkpt lat="44.42717" lon="4.12915">
        <ele>272</ele>
        <time>2014-07-13T13:23:12Z</time>
      </trkpt>
      <trkpt lat="44.42675" lon="4.12858">
        <ele>272</ele>
        <time>2014-07-13T13:23:32Z</time>
      </trkpt>
      <trkpt lat="44.42643" lon="4.12843">
        <ele>264</ele>
        <time>2014-07-13T13:23:40Z</time>
      </trkpt>
      <trkpt lat="44.42593" lon="4.12827">
        <ele>265</ele>
        <time>2014-07-13T13:23:50Z</time>
      </trkpt>
      <trkpt lat="44.42568" lon="4.12797">
        <ele>258</ele>
        <time>2014-07-13T13:23:57Z</time>
      </trkpt>
      <trkpt lat="44.42564" lon="4.12793">
        <ele>258</ele>
        <time>2014-07-13T13:23:58Z</time>
      </trkpt>
      <trkpt lat="44.42552" lon="4.12766">
        <ele>258</ele>
        <time>2014-07-13T13:24:02Z</time>
      </trkpt>
      <trkpt lat="44.42539" lon="4.12733">
        <ele>263</ele>
        <time>2014-07-13T13:24:09Z</time>
      </trkpt>
      <trkpt lat="44.42524" lon="4.12721">
        <ele>261</ele>
        <time>2014-07-13T13:24:18Z</time>
      </trkpt>
      <trkpt lat="44.42514" lon="4.12728">
        <ele>258</ele>
        <time>2014-07-13T13:24:24Z</time>
      </trkpt>
      <trkpt lat="44.42509" lon="4.12727">
        <ele>258</ele>
        <time>2014-07-13T13:24:26Z</time>
      </trkpt>
      <trkpt lat="44.42503" lon="4.12728">
        <ele>257</ele>
        <time>2014-07-13T13:25:06Z</time>
      </trkpt>
      <trkpt lat="44.42487" lon="4.12732">
        <ele>246</ele>
        <time>2014-07-13T13:26:09Z</time>
      </trkpt>
      <trkpt lat="44.42459" lon="4.12737">
        <ele>243</ele>
        <time>2014-07-13T13:26:20Z</time>
      </trkpt>
      <trkpt lat="44.42455" lon="4.12733">
        <ele>242</ele>
        <time>2014-07-13T13:26:30Z</time>
      </trkpt>
      <trkpt lat="44.42406" lon="4.12737">
        <ele>230</ele>
        <time>2014-07-13T13:26:53Z</time>
      </trkpt>
      <trkpt lat="44.42376" lon="4.12732">
        <ele>228</ele>
        <time>2014-07-13T13:26:58Z</time>
      </trkpt>
      <trkpt lat="44.42363" lon="4.12736">
        <ele>226</ele>
        <time>2014-07-13T13:27:00Z</time>
      </trkpt>
      <trkpt lat="44.42343" lon="4.12743">
        <ele>223</ele>
        <time>2014-07-13T13:27:03Z</time>
      </trkpt>
      <trkpt lat="44.42334" lon="4.12753">
        <ele>219</ele>
        <time>2014-07-13T13:27:05Z</time>
      </trkpt>
      <trkpt lat="44.42318" lon="4.12814">
        <ele>211</ele>
        <time>2014-07-13T13:27:14Z</time>
      </trkpt>
      <trkpt lat="44.42342" lon="4.1285">
        <ele>215</ele>
        <time>2014-07-13T13:27:25Z</time>
      </trkpt>
      <trkpt lat="44.4235" lon="4.12883">
        <ele>216</ele>
        <time>2014-07-13T13:27:31Z</time>
      </trkpt>
      <trkpt lat="44.42368" lon="4.12986">
        <ele>213</ele>
        <time>2014-07-13T13:27:48Z</time>
      </trkpt>
      <trkpt lat="44.42378" lon="4.13102">
        <ele>205</ele>
        <time>2014-07-13T13:28:12Z</time>
      </trkpt>
      <trkpt lat="44.42362" lon="4.1316">
        <ele>202</ele>
        <time>2014-07-13T13:28:32Z</time>
      </trkpt>
      <trkpt lat="44.42356" lon="4.13192">
        <ele>194</ele>
        <time>2014-07-13T13:28:43Z</time>
      </trkpt>
      <trkpt lat="44.42388" lon="4.13202">
        <ele>194</ele>
        <time>2014-07-13T13:29:00Z</time>
      </trkpt>
      <trkpt lat="44.42393" lon="4.13224">
        <ele>193</ele>
        <time>2014-07-13T13:29:18Z</time>
      </trkpt>
      <trkpt lat="44.42397" lon="4.13231">
        <ele>193</ele>
        <time>2014-07-13T13:29:31Z</time>
      </trkpt>
      <trkpt lat="44.42397" lon="4.13227">
        <ele>193</ele>
        <time>2014-07-13T13:30:46Z</time>
      </trkpt>
      <trkpt lat="44.42398" lon="4.13244">
        <ele>193</ele>
        <time>2014-07-13T13:31:38Z</time>
      </trkpt>
      <trkpt lat="44.42399" lon="4.13263">
        <ele>183</ele>
        <time>2014-07-13T13:31:41Z</time>
      </trkpt>
      <trkpt lat="44.42411" lon="4.13314">
        <ele>172</ele>
        <time>2014-07-13T13:31:52Z</time>
      </trkpt>
      <trkpt lat="44.42423" lon="4.13327">
        <ele>174</ele>
        <time>2014-07-13T13:31:57Z</time>
      </trkpt>
      <trkpt lat="44.42437" lon="4.13331">
        <ele>178</ele>
        <time>2014-07-13T13:32:02Z</time>
      </trkpt>
      <trkpt lat="44.42452" lon="4.13336">
        <ele>164</ele>
        <time>2014-07-13T13:32:07Z</time>
      </trkpt>
      <trkpt lat="44.42472" lon="4.13345">
        <ele>165</ele>
        <time>2014-07-13T13:32:14Z</time>
      </trkpt>
      <trkpt lat="44.42511" lon="4.13354">
        <ele>165</ele>
        <time>2014-07-13T13:32:26Z</time>
      </trkpt>
      <trkpt lat="44.42529" lon="4.13358">
        <ele>162</ele>
        <time>2014-07-13T13:32:30Z</time>
      </trkpt>
      <trkpt lat="44.42561" lon="4.13359">
        <ele>160</ele>
        <time>2014-07-13T13:32:43Z</time>
      </trkpt>
      <trkpt lat="44.42563" lon="4.13358">
        <ele>160</ele>
        <time>2014-07-13T13:33:07Z</time>
      </trkpt>
      <trkpt lat="44.42566" lon="4.13363">
        <ele>160</ele>
        <time>2014-07-13T13:34:03Z</time>
      </trkpt>
      <trkpt lat="44.42661" lon="4.13323">
        <ele>159</ele>
        <time>2014-07-13T13:34:26Z</time>
      </trkpt>
      <trkpt lat="44.42919" lon="4.13224">
        <ele>156</ele>
        <time>2014-07-13T13:35:26Z</time>
      </trkpt>
      <trkpt lat="44.42978" lon="4.13205">
        <ele>158</ele>
        <time>2014-07-13T13:35:41Z</time>
      </trkpt>
      <trkpt lat="44.43018" lon="4.13192">
        <ele>158</ele>
        <time>2014-07-13T13:35:50Z</time>
      </trkpt>
      <trkpt lat="44.43035" lon="4.13208">
        <ele>156</ele>
        <time>2014-07-13T13:35:55Z</time>
      </trkpt>
      <trkpt lat="44.4305" lon="4.13254">
        <ele>154</ele>
        <time>2014-07-13T13:36:04Z</time>
      </trkpt>
      <trkpt lat="44.43076" lon="4.13255">
        <ele>153</ele>
        <time>2014-07-13T13:36:10Z</time>
      </trkpt>
      <trkpt lat="44.4313" lon="4.13236">
        <ele>160</ele>
        <time>2014-07-13T13:36:30Z</time>
      </trkpt>
      <trkpt lat="44.43158" lon="4.13222">
        <ele>162</ele>
        <time>2014-07-13T13:36:43Z</time>
      </trkpt>
      <trkpt lat="44.43204" lon="4.13204">
        <ele>174</ele>
        <time>2014-07-13T13:37:05Z</time>
      </trkpt>
      <trkpt lat="44.43221" lon="4.13196">
        <ele>175</ele>
        <time>2014-07-13T13:37:15Z</time>
      </trkpt>
      <trkpt lat="44.43246" lon="4.13184">
        <ele>177</ele>
        <time>2014-07-13T13:37:29Z</time>
      </trkpt>
      <trkpt lat="44.43277" lon="4.1313">
        <ele>188</ele>
        <time>2014-07-13T13:37:55Z</time>
      </trkpt>
      <trkpt lat="44.4329" lon="4.13096">
        <ele>189</ele>
        <time>2014-07-13T13:38:10Z</time>
      </trkpt>
      <trkpt lat="44.43302" lon="4.13059">
        <ele>189</ele>
        <time>2014-07-13T13:38:24Z</time>
      </trkpt>
      <trkpt lat="44.43325" lon="4.12997">
        <ele>194</ele>
        <time>2014-07-13T13:38:47Z</time>
      </trkpt>
      <trkpt lat="44.43342" lon="4.1294">
        <ele>206</ele>
        <time>2014-07-13T13:39:09Z</time>
      </trkpt>
      <trkpt lat="44.43357" lon="4.1289">
        <ele>199</ele>
        <time>2014-07-13T13:39:24Z</time>
      </trkpt>
      <trkpt lat="44.43371" lon="4.12887">
        <ele>201</ele>
        <time>2014-07-13T13:39:33Z</time>
      </trkpt>
      <trkpt lat="44.43365" lon="4.12936">
        <ele>211</ele>
        <time>2014-07-13T13:39:49Z</time>
      </trkpt>
      <trkpt lat="44.43361" lon="4.12994">
        <ele>212</ele>
        <time>2014-07-13T13:40:05Z</time>
      </trkpt>
      <trkpt lat="44.43372" lon="4.13104">
        <ele>225</ele>
        <time>2014-07-13T13:40:34Z</time>
      </trkpt>
      <trkpt lat="44.43376" lon="4.13147">
        <ele>228</ele>
        <time>2014-07-13T13:40:47Z</time>
      </trkpt>
      <trkpt lat="44.43375" lon="4.13216">
        <ele>235</ele>
        <time>2014-07-13T13:41:09Z</time>
      </trkpt>
      <trkpt lat="44.43375" lon="4.13219">
        <ele>235</ele>
        <time>2014-07-13T13:41:10Z</time>
      </trkpt>
      <trkpt lat="44.43362" lon="4.13278">
        <ele>244</ele>
        <time>2014-07-13T13:41:33Z</time>
      </trkpt>
      <trkpt lat="44.43348" lon="4.13325">
        <ele>245</ele>
        <time>2014-07-13T13:41:52Z</time>
      </trkpt>
      <trkpt lat="44.43315" lon="4.13375">
        <ele>245</ele>
        <time>2014-07-13T13:42:16Z</time>
      </trkpt>
      <trkpt lat="44.43272" lon="4.1343">
        <ele>257</ele>
        <time>2014-07-13T13:42:43Z</time>
      </trkpt>
      <trkpt lat="44.43255" lon="4.13449">
        <ele>259</ele>
        <time>2014-07-13T13:42:56Z</time>
      </trkpt>
      <trkpt lat="44.43234" lon="4.13475">
        <ele>247</ele>
        <time>2014-07-13T13:43:09Z</time>
      </trkpt>
      <trkpt lat="44.43218" lon="4.1355">
        <ele>261</ele>
        <time>2014-07-13T13:43:29Z</time>
      </trkpt>
      <trkpt lat="44.43208" lon="4.13559">
        <ele>261</ele>
        <time>2014-07-13T13:43:32Z</time>
      </trkpt>
      <trkpt lat="44.43168" lon="4.13572">
        <ele>261</ele>
        <time>2014-07-13T13:43:49Z</time>
      </trkpt>
      <trkpt lat="44.43112" lon="4.13598">
        <ele>266</ele>
        <time>2014-07-13T13:44:14Z</time>
      </trkpt>
      <trkpt lat="44.43074" lon="4.1364">
        <ele>268</ele>
        <time>2014-07-13T13:44:37Z</time>
      </trkpt>
      <trkpt lat="44.43075" lon="4.13643">
        <ele>269</ele>
        <time>2014-07-13T13:44:38Z</time>
      </trkpt>
      <trkpt lat="44.43083" lon="4.13652">
        <ele>271</ele>
        <time>2014-07-13T13:44:43Z</time>
      </trkpt>
      <trkpt lat="44.43118" lon="4.13669">
        <ele>281</ele>
        <time>2014-07-13T13:45:00Z</time>
      </trkpt>
      <trkpt lat="44.43206" lon="4.13722">
        <ele>286</ele>
        <time>2014-07-13T13:45:35Z</time>
      </trkpt>
      <trkpt lat="44.43268" lon="4.13766">
        <ele>293</ele>
        <time>2014-07-13T13:46:00Z</time>
      </trkpt>
      <trkpt lat="44.43349" lon="4.13823">
        <ele>298</ele>
        <time>2014-07-13T13:46:31Z</time>
      </trkpt>
      <trkpt lat="44.43473" lon="4.13881">
        <ele>304</ele>
        <time>2014-07-13T13:47:09Z</time>
      </trkpt>
      <trkpt lat="44.43585" lon="4.13906">
        <ele>312</ele>
        <time>2014-07-13T13:47:41Z</time>
      </trkpt>
      <trkpt lat="44.43691" lon="4.13907">
        <ele>318</ele>
        <time>2014-07-13T13:48:09Z</time>
      </trkpt>
      <trkpt lat="44.43799" lon="4.13868">
        <ele>321</ele>
        <time>2014-07-13T13:48:40Z</time>
      </trkpt>
      <trkpt lat="44.43889" lon="4.13843">
        <ele>326</ele>
        <time>2014-07-13T13:49:09Z</time>
      </trkpt>
      <trkpt lat="44.43933" lon="4.13842">
        <ele>330</ele>
        <time>2014-07-13T13:49:25Z</time>
      </trkpt>
      <trkpt lat="44.43974" lon="4.13847">
        <ele>332</ele>
        <time>2014-07-13T13:49:40Z</time>
      </trkpt>
      <trkpt lat="44.44035" lon="4.13851">
        <ele>338</ele>
        <time>2014-07-13T13:50:03Z</time>
      </trkpt>
      <trkpt lat="44.44076" lon="4.13862">
        <ele>339</ele>
        <time>2014-07-13T13:50:18Z</time>
      </trkpt>
      <trkpt lat="44.44159" lon="4.1389">
        <ele>345</ele>
        <time>2014-07-13T13:50:47Z</time>
      </trkpt>
      <trkpt lat="44.44207" lon="4.13909">
        <ele>347</ele>
        <time>2014-07-13T13:50:57Z</time>
      </trkpt>
      <trkpt lat="44.44213" lon="4.13909">
        <ele>347</ele>
        <time>2014-07-13T13:50:58Z</time>
      </trkpt>
      <trkpt lat="44.44243" lon="4.13911">
        <ele>348</ele>
        <time>2014-07-13T13:51:05Z</time>
      </trkpt>
      <trkpt lat="44.44247" lon="4.13913">
        <ele>349</ele>
        <time>2014-07-13T13:51:06Z</time>
      </trkpt>
      <trkpt lat="44.44277" lon="4.13923">
        <ele>356</ele>
        <time>2014-07-13T13:51:14Z</time>
      </trkpt>
      <trkpt lat="44.44277" lon="4.13835">
        <ele>353</ele>
        <time>2014-07-13T13:51:33Z</time>
      </trkpt>
      <trkpt lat="44.4431" lon="4.13726">
        <ele>355</ele>
        <time>2014-07-13T13:52:10Z</time>
      </trkpt>
      <trkpt lat="44.44359" lon="4.1373">
        <ele>362</ele>
        <time>2014-07-13T13:52:23Z</time>
      </trkpt>
      <trkpt lat="44.44396" lon="4.13695">
        <ele>363</ele>
        <time>2014-07-13T13:52:35Z</time>
      </trkpt>
      <trkpt lat="44.4447" lon="4.13644">
        <ele>366</ele>
        <time>2014-07-13T13:53:00Z</time>
      </trkpt>
      <trkpt lat="44.44565" lon="4.13617">
        <ele>371</ele>
        <time>2014-07-13T13:53:31Z</time>
      </trkpt>
      <trkpt lat="44.44628" lon="4.1368">
        <ele>378</ele>
        <time>2014-07-13T13:53:57Z</time>
      </trkpt>
      <trkpt lat="44.44658" lon="4.13772">
        <ele>386</ele>
        <time>2014-07-13T13:54:24Z</time>
      </trkpt>
      <trkpt lat="44.44663" lon="4.13884">
        <ele>392</ele>
        <time>2014-07-13T13:54:48Z</time>
      </trkpt>
      <trkpt lat="44.44685" lon="4.13937">
        <ele>391</ele>
        <time>2014-07-13T13:54:59Z</time>
      </trkpt>
      <trkpt lat="44.44729" lon="4.1397">
        <ele>390</ele>
        <time>2014-07-13T13:55:12Z</time>
      </trkpt>
      <trkpt lat="44.44798" lon="4.14144">
        <ele>391</ele>
        <time>2014-07-13T13:55:45Z</time>
      </trkpt>
      <trkpt lat="44.44829" lon="4.14207">
        <ele>390</ele>
        <time>2014-07-13T13:56:00Z</time>
      </trkpt>
      <trkpt lat="44.44875" lon="4.1428">
        <ele>391</ele>
        <time>2014-07-13T13:56:17Z</time>
      </trkpt>
      <trkpt lat="44.44966" lon="4.14429">
        <ele>394</ele>
        <time>2014-07-13T13:57:00Z</time>
      </trkpt>
      <trkpt lat="44.45002" lon="4.1449">
        <ele>397</ele>
        <time>2014-07-13T13:57:15Z</time>
      </trkpt>
      <trkpt lat="44.45086" lon="4.14535">
        <ele>401</ele>
        <time>2014-07-13T13:57:38Z</time>
      </trkpt>
      <trkpt lat="44.45132" lon="4.14581">
        <ele>401</ele>
        <time>2014-07-13T13:57:55Z</time>
      </trkpt>
      <trkpt lat="44.45151" lon="4.14603">
        <ele>400</ele>
        <time>2014-07-13T13:58:10Z</time>
      </trkpt>
      <trkpt lat="44.45163" lon="4.14613">
        <ele>400</ele>
        <time>2014-07-13T13:58:24Z</time>
      </trkpt>
      <trkpt lat="44.45151" lon="4.14629">
        <ele>400</ele>
        <time>2014-07-13T13:58:43Z</time>
      </trkpt>
      <trkpt lat="44.45152" lon="4.14632">
        <ele>400</ele>
        <time>2014-07-13T13:59:26Z</time>
      </trkpt>
      <trkpt lat="44.4515" lon="4.14635">
        <ele>400</ele>
        <time>2014-07-13T14:01:28Z</time>
      </trkpt>
      <trkpt lat="44.4515" lon="4.14631">
        <ele>400</ele>
        <time>2014-07-13T14:03:39Z</time>
      </trkpt>
      <trkpt lat="44.45151" lon="4.14606">
        <ele>400</ele>
        <time>2014-07-13T14:03:47Z</time>
      </trkpt>
      <trkpt lat="44.45146" lon="4.14598">
        <ele>400</ele>
        <time>2014-07-13T14:03:50Z</time>
      </trkpt>
      <trkpt lat="44.45099" lon="4.14545">
        <ele>401</ele>
        <time>2014-07-13T14:04:08Z</time>
      </trkpt>
      <trkpt lat="44.45027" lon="4.14517">
        <ele>395</ele>
        <time>2014-07-13T14:04:27Z</time>
      </trkpt>
      <trkpt lat="44.45006" lon="4.14495">
        <ele>397</ele>
        <time>2014-07-13T14:04:33Z</time>
      </trkpt>
      <trkpt lat="44.44922" lon="4.14363">
        <ele>394</ele>
        <time>2014-07-13T14:04:58Z</time>
      </trkpt>
      <trkpt lat="44.44914" lon="4.14357">
        <ele>390</ele>
        <time>2014-07-13T14:05:00Z</time>
      </trkpt>
      <trkpt lat="44.4486" lon="4.14328">
        <ele>390</ele>
        <time>2014-07-13T14:05:11Z</time>
      </trkpt>
      <trkpt lat="44.44787" lon="4.14274">
        <ele>388</ele>
        <time>2014-07-13T14:05:25Z</time>
      </trkpt>
      <trkpt lat="44.44774" lon="4.14266">
        <ele>389</ele>
        <time>2014-07-13T14:05:27Z</time>
      </trkpt>
      <trkpt lat="44.4474" lon="4.14274">
        <ele>390</ele>
        <time>2014-07-13T14:05:32Z</time>
      </trkpt>
      <trkpt lat="44.44719" lon="4.14291">
        <ele>390</ele>
        <time>2014-07-13T14:05:36Z</time>
      </trkpt>
      <trkpt lat="44.44712" lon="4.14335">
        <ele>387</ele>
        <time>2014-07-13T14:05:42Z</time>
      </trkpt>
      <trkpt lat="44.44727" lon="4.14417">
        <ele>383</ele>
        <time>2014-07-13T14:05:51Z</time>
      </trkpt>
      <trkpt lat="44.44644" lon="4.14519">
        <ele>387</ele>
        <time>2014-07-13T14:06:04Z</time>
      </trkpt>
      <trkpt lat="44.44639" lon="4.14529">
        <ele>388</ele>
        <time>2014-07-13T14:06:05Z</time>
      </trkpt>
      <trkpt lat="44.44636" lon="4.14574">
        <ele>385</ele>
        <time>2014-07-13T14:06:09Z</time>
      </trkpt>
      <trkpt lat="44.44638" lon="4.14585">
        <ele>380</ele>
        <time>2014-07-13T14:06:10Z</time>
      </trkpt>
      <trkpt lat="44.44634" lon="4.14633">
        <ele>378</ele>
        <time>2014-07-13T14:06:14Z</time>
      </trkpt>
      <trkpt lat="44.44614" lon="4.14705">
        <ele>373</ele>
        <time>2014-07-13T14:06:20Z</time>
      </trkpt>
      <trkpt lat="44.4461" lon="4.14718">
        <ele>373</ele>
        <time>2014-07-13T14:06:21Z</time>
      </trkpt>
      <trkpt lat="44.4459" lon="4.14796">
        <ele>367</ele>
        <time>2014-07-13T14:06:27Z</time>
      </trkpt>
      <trkpt lat="44.44556" lon="4.14882">
        <ele>371</ele>
        <time>2014-07-13T14:06:34Z</time>
      </trkpt>
      <trkpt lat="44.44537" lon="4.1493">
        <ele>366</ele>
        <time>2014-07-13T14:06:38Z</time>
      </trkpt>
      <trkpt lat="44.4453" lon="4.15001">
        <ele>359</ele>
        <time>2014-07-13T14:06:43Z</time>
      </trkpt>
      <trkpt lat="44.44527" lon="4.15044">
        <ele>356</ele>
        <time>2014-07-13T14:06:46Z</time>
      </trkpt>
      <trkpt lat="44.44512" lon="4.15094">
        <ele>351</ele>
        <time>2014-07-13T14:06:50Z</time>
      </trkpt>
      <trkpt lat="44.44489" lon="4.15117">
        <ele>357</ele>
        <time>2014-07-13T14:06:53Z</time>
      </trkpt>
      <trkpt lat="44.4448" lon="4.15123">
        <ele>357</ele>
        <time>2014-07-13T14:06:54Z</time>
      </trkpt>
      <trkpt lat="44.44426" lon="4.15176">
        <ele>352</ele>
        <time>2014-07-13T14:07:01Z</time>
      </trkpt>
      <trkpt lat="44.44402" lon="4.15197">
        <ele>357</ele>
        <time>2014-07-13T14:07:04Z</time>
      </trkpt>
      <trkpt lat="44.44387" lon="4.15234">
        <ele>355</ele>
        <time>2014-07-13T14:07:08Z</time>
      </trkpt>
      <trkpt lat="44.44374" lon="4.15292">
        <ele>348</ele>
        <time>2014-07-13T14:07:33Z</time>
      </trkpt>
      <trkpt lat="44.44369" lon="4.15311">
        <ele>348</ele>
        <time>2014-07-13T14:07:56Z</time>
      </trkpt>
      <trkpt lat="44.44349" lon="4.15378">
        <ele>340</ele>
        <time>2014-07-13T14:08:05Z</time>
      </trkpt>
      <trkpt lat="44.44324" lon="4.15435">
        <ele>336</ele>
        <time>2014-07-13T14:08:11Z</time>
      </trkpt>
      <trkpt lat="44.44288" lon="4.15478">
        <ele>333</ele>
        <time>2014-07-13T14:08:16Z</time>
      </trkpt>
      <trkpt lat="44.44263" lon="4.15503">
        <ele>326</ele>
        <time>2014-07-13T14:08:19Z</time>
      </trkpt>
      <trkpt lat="44.44249" lon="4.1552">
        <ele>326</ele>
        <time>2014-07-13T14:08:21Z</time>
      </trkpt>
      <trkpt lat="44.4418" lon="4.15509">
        <ele>324</ele>
        <time>2014-07-13T14:08:29Z</time>
      </trkpt>
      <trkpt lat="44.44138" lon="4.15533">
        <ele>323</ele>
        <time>2014-07-13T14:08:35Z</time>
      </trkpt>
      <trkpt lat="44.44135" lon="4.15556">
        <ele>322</ele>
        <time>2014-07-13T14:08:37Z</time>
      </trkpt>
      <trkpt lat="44.44126" lon="4.15634">
        <ele>316</ele>
        <time>2014-07-13T14:08:43Z</time>
      </trkpt>
      <trkpt lat="44.44121" lon="4.15646">
        <ele>316</ele>
        <time>2014-07-13T14:08:44Z</time>
      </trkpt>
      <trkpt lat="44.44091" lon="4.15683">
        <ele>312</ele>
        <time>2014-07-13T14:08:48Z</time>
      </trkpt>
      <trkpt lat="44.44044" lon="4.15718">
        <ele>312</ele>
        <time>2014-07-13T14:08:53Z</time>
      </trkpt>
      <trkpt lat="44.44026" lon="4.15771">
        <ele>306</ele>
        <time>2014-07-13T14:08:57Z</time>
      </trkpt>
      <trkpt lat="44.44014" lon="4.15831">
        <ele>304</ele>
        <time>2014-07-13T14:09:01Z</time>
      </trkpt>
      <trkpt lat="44.43978" lon="4.15876">
        <ele>298</ele>
        <time>2014-07-13T14:09:06Z</time>
      </trkpt>
      <trkpt lat="44.43958" lon="4.15881">
        <ele>298</ele>
        <time>2014-07-13T14:09:08Z</time>
      </trkpt>
      <trkpt lat="44.43948" lon="4.15881">
        <ele>298</ele>
        <time>2014-07-13T14:09:09Z</time>
      </trkpt>
      <trkpt lat="44.43899" lon="4.15888">
        <ele>299</ele>
        <time>2014-07-13T14:09:15Z</time>
      </trkpt>
      <trkpt lat="44.43852" lon="4.15913">
        <ele>297</ele>
        <time>2014-07-13T14:09:21Z</time>
      </trkpt>
      <trkpt lat="44.43777" lon="4.15953">
        <ele>290</ele>
        <time>2014-07-13T14:09:30Z</time>
      </trkpt>
      <trkpt lat="44.43729" lon="4.15982">
        <ele>286</ele>
        <time>2014-07-13T14:09:50Z</time>
      </trkpt>
      <trkpt lat="44.43729" lon="4.15982">
        <ele>286</ele>
        <time>2014-07-13T14:10:55Z</time>
      </trkpt>
      <trkpt lat="44.43706" lon="4.15998">
        <ele>286</ele>
        <time>2014-07-13T14:11:31Z</time>
      </trkpt>
      <trkpt lat="44.43675" lon="4.16004">
        <ele>282</ele>
        <time>2014-07-13T14:11:37Z</time>
      </trkpt>
      <trkpt lat="44.43627" lon="4.1596">
        <ele>279</ele>
        <time>2014-07-13T14:11:46Z</time>
      </trkpt>
      <trkpt lat="44.43625" lon="4.1595">
        <ele>279</ele>
        <time>2014-07-13T14:11:47Z</time>
      </trkpt>
      <trkpt lat="44.43623" lon="4.15939">
        <ele>279</ele>
        <time>2014-07-13T14:11:48Z</time>
      </trkpt>
      <trkpt lat="44.4362" lon="4.15929">
        <ele>278</ele>
        <time>2014-07-13T14:11:49Z</time>
      </trkpt>
      <trkpt lat="44.43587" lon="4.1589">
        <ele>278</ele>
        <time>2014-07-13T14:11:55Z</time>
      </trkpt>
      <trkpt lat="44.43569" lon="4.15892">
        <ele>276</ele>
        <time>2014-07-13T14:11:59Z</time>
      </trkpt>
      <trkpt lat="44.43565" lon="4.15894">
        <ele>276</ele>
        <time>2014-07-13T14:12:01Z</time>
      </trkpt>
      <trkpt lat="44.43562" lon="4.15884">
        <ele>276</ele>
        <time>2014-07-13T14:12:07Z</time>
      </trkpt>
      <trkpt lat="44.43582" lon="4.1585">
        <ele>278</ele>
        <time>2014-07-13T14:12:21Z</time>
      </trkpt>
      <trkpt lat="44.43607" lon="4.15806">
        <ele>284</ele>
        <time>2014-07-13T14:12:40Z</time>
      </trkpt>
      <trkpt lat="44.43623" lon="4.15778">
        <ele>286</ele>
        <time>2014-07-13T14:12:52Z</time>
      </trkpt>
      <trkpt lat="44.4362" lon="4.15703">
        <ele>291</ele>
        <time>2014-07-13T14:13:22Z</time>
      </trkpt>
      <trkpt lat="44.436" lon="4.15673">
        <ele>292</ele>
        <time>2014-07-13T14:13:37Z</time>
      </trkpt>
      <trkpt lat="44.43542" lon="4.15588">
        <ele>294</ele>
        <time>2014-07-13T14:14:37Z</time>
      </trkpt>
    </trkseg>
  </trk>
</gpx>